Darstellungsparameter: Aktuell verwendete Einstellungen:
Skalierung der Graphiken ... ?
xyx+y,   Skalierungsfaktor:      Skalierung: Modus: x, Faktor: 1
Darstellungszeitraum ... ?
Vom - - bis: - -   Zeitraum: 04.01.2015 - 04.07.2015
Min/Max/Avg-Anzeige ... ?
Zeige MMA aktuell
Zeige MMA Monat
Zeige MMA alles
Zeige --A aktuell
Zeige --A Monat
Zeige --A alles
Keine MMA-Anzeige
MMA:
Keine MMA-Graphiken
MMA-Basis: 04.01.2015 - 04.07.2015
Quicknavigation für Darstellung... ?
Tage:      1T, 2T, 3T, 5T -1T -2T -3T -5T +1T +2T +3T +5T
Wochen: 1W, 2W, 3W -1W -2W -3W +1W +2W +3W
Monate: 1M, 3M, 6M -1M -3M -6M +1M +3M +6M
Jahre:    1J, 3J, 5J, 10J -1J -3J -5J -10J +1J +3J +5J +10J
Nutze für die Darstellung ... ?
Originaldaten oder Mittelwerte auf ...
Stundenbasis Tagesbasis Wochenbasis
Monatsbasis Jahresbasis      Datenbasis: Original-Daten
Darstellen als:
Statistik (Auto) Statistik J:M      Darstellung:
Zur Graphik,    zurück zur Übersicht aller Sensoren.
 
Tabellarische Datenbersicht: ?
 
Sensor: Nr:Datum:Temp:Abs-Feuchte:Windchill:Wind:
Aussen-T/F 1 04-01-2015 00:00:00 2 C 5.39 g/m*3 2 C 1.6 km/h
2 04-01-2015 00:05:00 2 C 5.39 g/m*3 2 C 3.2 km/h
3 04-01-2015 00:10:00 2 C 5.39 g/m*3 2 C 3.2 km/h
4 04-01-2015 00:15:00 2.1 C 5.43 g/m*3 0.24 C 6.4 km/h
5 04-01-2015 00:20:00 2.2 C 5.46 g/m*3 2.2 C 1.6 km/h
6 04-01-2015 00:25:00 2.1 C 5.43 g/m*3 2.1 C 4.8 km/h
7 04-01-2015 00:30:00 2.1 C 5.43 g/m*3 2.1 C 4.8 km/h
8 04-01-2015 00:35:00 2 C 5.39 g/m*3 2 C 3.2 km/h
9 04-01-2015 00:40:00 2 C 5.39 g/m*3 0.13 C 6.4 km/h
10 04-01-2015 00:45:00 2.1 C 5.43 g/m*3 0.24 C 6.4 km/h
11 04-01-2015 00:50:00 2.1 C 5.43 g/m*3 2.1 C 3.2 km/h
12 04-01-2015 00:55:00 2.1 C 5.43 g/m*3 2.1 C 4.8 km/h
13 04-01-2015 01:00:00 2.2 C 5.52 g/m*3 2.2 C 3.2 km/h
14 04-01-2015 01:05:00 2.2 C 5.52 g/m*3 2.2 C 1.6 km/h
15 04-01-2015 01:10:00 2.2 C 5.52 g/m*3 2.2 C 1.6 km/h
16 04-01-2015 01:15:00 2.2 C 5.52 g/m*3 2.2 C 0 km/h
17 04-01-2015 01:20:00 2.2 C 5.52 g/m*3 2.2 C 1.6 km/h
18 04-01-2015 01:25:00 2.2 C 5.52 g/m*3 2.2 C 4.8 km/h
19 04-01-2015 01:30:00 2.2 C 5.52 g/m*3 2.2 C 3.2 km/h
20 04-01-2015 01:35:00 2.3 C 5.56 g/m*3 2.3 C 4.8 km/h
21 04-01-2015 01:40:00 2.4 C 5.6 g/m*3 2.4 C 3.2 km/h
22 04-01-2015 01:45:00 2.7 C 5.71 g/m*3 2.7 C 4.8 km/h
23 04-01-2015 01:50:00 2.8 C 5.75 g/m*3 0.1 C 9.7 km/h
24 04-01-2015 01:55:00 2.9 C 5.79 g/m*3 2.9 C 4.8 km/h
25 04-01-2015 02:00:00 3.1 C 5.87 g/m*3 0.46 C 9.7 km/h
Sensor: Nr:Datum:Temp:Abs-Feuchte:Windchill:Wind:
Aussen-T/F 26 04-01-2015 02:05:00 3.3 C 5.95 g/m*3 3.3 C 4.8 km/h
27 04-01-2015 02:10:00 3.4 C 5.99 g/m*3 3.4 C 4.8 km/h
28 04-01-2015 02:15:00 3.4 C 5.92 g/m*3 3.4 C 4.8 km/h
29 04-01-2015 02:20:00 3.6 C 6 g/m*3 1.46 C 8.1 km/h
30 04-01-2015 02:25:00 3.7 C 6.04 g/m*3 1.58 C 8.1 km/h
31 04-01-2015 02:30:00 3.7 C 6.04 g/m*3 3.7 C 1.6 km/h
32 04-01-2015 02:35:00 3.7 C 5.98 g/m*3 3.7 C 3.2 km/h
33 04-01-2015 02:40:00 3.8 C 6.02 g/m*3 0.63 C 12.9 km/h
34 04-01-2015 02:45:00 3.9 C 6.06 g/m*3 1.06 C 11.3 km/h
35 04-01-2015 02:50:00 4.1 C 6.08 g/m*3 2.55 C 6.4 km/h
36 04-01-2015 02:55:00 4.1 C 6.08 g/m*3 2.55 C 6.4 km/h
37 04-01-2015 03:00:00 4.1 C 6.08 g/m*3 2.55 C 6.4 km/h
38 04-01-2015 03:05:00 4.1 C 6.08 g/m*3 0.72 C 14.5 km/h
39 04-01-2015 03:10:00 4.1 C 6.02 g/m*3 2.05 C 8.1 km/h
40 04-01-2015 03:15:00 4.1 C 6.02 g/m*3 4.1 C 4.8 km/h
41 04-01-2015 03:20:00 4.1 C 6.02 g/m*3 2.55 C 6.4 km/h
42 04-01-2015 03:25:00 4.1 C 5.95 g/m*3 2.05 C 8.1 km/h
43 04-01-2015 03:30:00 4.1 C 5.95 g/m*3 0.72 C 14.5 km/h
44 04-01-2015 03:35:00 4.1 C 5.95 g/m*3 1.65 C 9.7 km/h
45 04-01-2015 03:40:00 4.1 C 5.95 g/m*3 2.05 C 8.1 km/h
46 04-01-2015 03:45:00 4 C 5.91 g/m*3 1.93 C 8.1 km/h
47 04-01-2015 03:50:00 4 C 5.91 g/m*3 1.93 C 8.1 km/h
48 04-01-2015 03:55:00 4 C 5.91 g/m*3 1.53 C 9.7 km/h
49 04-01-2015 04:00:00 3.9 C 5.87 g/m*3 1.82 C 8.1 km/h
50 04-01-2015 04:05:00 3.9 C 5.87 g/m*3 3.9 C 4.8 km/h
Sensor: Nr:Datum:Temp:Abs-Feuchte:Windchill:Wind:
Aussen-T/F 51 04-01-2015 04:10:00 3.9 C 5.87 g/m*3 1.82 C 8.1 km/h
52 04-01-2015 04:50:00 2.9 C 5.55 g/m*3 2.9 C 4.8 km/h
53 04-01-2015 04:55:00 2.8 C 5.51 g/m*3 2.8 C 4.8 km/h
54 04-01-2015 05:00:00 2.6 C 5.44 g/m*3 2.6 C 0 km/h
55 04-01-2015 05:05:00 2.4 C 5.37 g/m*3 2.4 C 4.8 km/h
56 04-01-2015 05:10:00 2.2 C 5.29 g/m*3 2.2 C 4.8 km/h
57 04-01-2015 05:15:00 2.1 C 5.31 g/m*3 -0.3 C 8.1 km/h
58 04-01-2015 05:20:00 2.1 C 5.31 g/m*3 2.1 C 3.2 km/h
59 04-01-2015 05:25:00 2.1 C 5.37 g/m*3 2.1 C 3.2 km/h
60 04-01-2015 05:30:00 2 C 5.33 g/m*3 2 C 4.8 km/h
61 04-01-2015 05:35:00 2 C 5.33 g/m*3 2 C 3.2 km/h
62 04-01-2015 05:40:00 1.9 C 5.3 g/m*3 1.9 C 4.8 km/h
63 04-01-2015 05:45:00 1.8 C 5.26 g/m*3 1.8 C 4.8 km/h
64 04-01-2015 05:50:00 1.7 C 5.23 g/m*3 1.7 C 3.2 km/h
65 04-01-2015 05:55:00 1.7 C 5.23 g/m*3 -0.22 C 6.4 km/h
66 04-01-2015 06:00:00 1.6 C 5.19 g/m*3 1.6 C 4.8 km/h
67 04-01-2015 06:05:00 1.6 C 5.25 g/m*3 1.6 C 4.8 km/h
68 04-01-2015 06:10:00 1.6 C 5.25 g/m*3 1.6 C 4.8 km/h
69 04-01-2015 06:15:00 1.5 C 5.16 g/m*3 1.5 C 4.8 km/h
70 04-01-2015 06:20:00 1.4 C 5.12 g/m*3 1.4 C 1.6 km/h
71 04-01-2015 06:25:00 1.4 C 5.17 g/m*3 1.4 C 4.8 km/h
72 04-01-2015 06:30:00 1.3 C 5.14 g/m*3 1.3 C 0 km/h
73 04-01-2015 06:35:00 1.2 C 5.05 g/m*3 1.2 C 1.6 km/h
74 04-01-2015 06:40:00 1.2 C 5.05 g/m*3 1.2 C 4.8 km/h
75 04-01-2015 06:45:00 1.1 C 5.07 g/m*3 -0.91 C 6.4 km/h
Sensor: Nr:Datum:Temp:Abs-Feuchte:Windchill:Wind:
Aussen-T/F 76 04-01-2015 06:50:00 1.1 C 5.07 g/m*3 1.1 C 1.6 km/h
77 04-01-2015 06:55:00 1.1 C 5.07 g/m*3 1.1 C 1.6 km/h
78 04-01-2015 07:00:00 1.1 C 5.07 g/m*3 1.1 C 4.8 km/h
79 04-01-2015 07:05:00 1.1 C 5.07 g/m*3 1.1 C 4.8 km/h
80 04-01-2015 07:10:00 1.1 C 5.07 g/m*3 1.1 C 3.2 km/h
81 04-01-2015 07:15:00 1 C 5.03 g/m*3 1 C 3.2 km/h
82 04-01-2015 07:20:00 0.9 C 5 g/m*3 0.9 C 1.6 km/h
83 04-01-2015 07:25:00 0.9 C 5 g/m*3 0.9 C 3.2 km/h
84 04-01-2015 07:30:00 0.9 C 5 g/m*3 0.9 C 3.2 km/h
85 04-01-2015 07:35:00 1 C 5.03 g/m*3 1 C 3.2 km/h
86 04-01-2015 07:40:00 1.1 C 5.07 g/m*3 1.1 C 3.2 km/h
87 04-01-2015 07:45:00 1.2 C 5.1 g/m*3 1.2 C 1.6 km/h
88 04-01-2015 07:50:00 1.1 C 5.07 g/m*3 1.1 C 1.6 km/h
89 04-01-2015 07:55:00 1.1 C 5.07 g/m*3 1.1 C 4.8 km/h
90 04-01-2015 08:00:00 1.1 C 5.07 g/m*3 1.1 C 1.6 km/h
91 04-01-2015 08:05:00 1.2 C 5.1 g/m*3 1.2 C 1.6 km/h
92 04-01-2015 08:10:00 1.2 C 5.1 g/m*3 1.2 C 3.2 km/h
93 04-01-2015 08:15:00 1.2 C 5.1 g/m*3 1.2 C 1.6 km/h
94 04-01-2015 08:20:00 1.2 C 5.1 g/m*3 1.2 C 3.2 km/h
95 04-01-2015 18:15:00 4.1 C 5.89 g/m*3 4.1 C 1.6 km/h
96 04-01-2015 18:20:00 4.1 C 5.89 g/m*3 4.1 C 1.6 km/h
97 04-01-2015 18:25:00 4 C 5.85 g/m*3 4 C 3.2 km/h
98 04-01-2015 18:30:00 4 C 5.85 g/m*3 4 C 1.6 km/h
99 04-01-2015 18:35:00 3.9 C 5.75 g/m*3 3.9 C 4.8 km/h
100 04-01-2015 18:40:00 4 C 5.79 g/m*3 4 C 4.8 km/h
Sensor: Nr:Datum:Temp:Abs-Feuchte:Windchill:Wind:
Aussen-T/F 101 04-01-2015 18:45:00 4.1 C 5.76 g/m*3 4.1 C 4.8 km/h
102 04-01-2015 18:50:00 4.2 C 5.73 g/m*3 2.67 C 6.4 km/h
103 04-01-2015 18:55:00 4.3 C 5.71 g/m*3 1.89 C 9.7 km/h
104 04-01-2015 19:00:00 4.4 C 5.68 g/m*3 4.4 C 3.2 km/h
105 04-01-2015 19:05:00 4.4 C 5.68 g/m*3 4.4 C 3.2 km/h
106 04-01-2015 19:10:00 4.4 C 5.68 g/m*3 2.9 C 6.4 km/h
107 04-01-2015 19:15:00 4.3 C 5.64 g/m*3 2.78 C 6.4 km/h
108 04-01-2015 19:20:00 4.3 C 5.64 g/m*3 4.3 C 1.6 km/h
109 04-01-2015 19:25:00 4.2 C 5.67 g/m*3 4.2 C 1.6 km/h
110 04-01-2015 19:30:00 4.2 C 5.67 g/m*3 4.2 C 4.8 km/h
111 04-01-2015 19:35:00 4.1 C 5.63 g/m*3 2.05 C 8.1 km/h
112 04-01-2015 19:40:00 4.1 C 5.63 g/m*3 4.1 C 3.2 km/h
113 04-01-2015 19:45:00 4.1 C 5.63 g/m*3 4.1 C 1.6 km/h
114 04-01-2015 19:50:00 4 C 5.59 g/m*3 4 C 1.6 km/h
115 04-01-2015 19:55:00 3.9 C 5.62 g/m*3 2.32 C 6.4 km/h
116 04-01-2015 20:00:00 3.9 C 5.62 g/m*3 3.9 C 4.8 km/h
117 04-01-2015 20:05:00 3.9 C 5.62 g/m*3 3.9 C 4.8 km/h
118 04-01-2015 20:10:00 3.8 C 5.58 g/m*3 3.8 C 4.8 km/h
119 04-01-2015 20:15:00 3.8 C 5.58 g/m*3 3.8 C 4.8 km/h
120 04-01-2015 20:20:00 3.7 C 5.61 g/m*3 3.7 C 3.2 km/h
121 04-01-2015 20:25:00 3.7 C 5.61 g/m*3 3.7 C 3.2 km/h
122 04-01-2015 20:30:00 3.6 C 5.57 g/m*3 3.6 C 4.8 km/h
123 04-01-2015 20:35:00 3.6 C 5.63 g/m*3 3.6 C 1.6 km/h
124 04-01-2015 20:40:00 3.6 C 5.63 g/m*3 3.6 C 3.2 km/h
125 04-01-2015 20:45:00 3.6 C 5.63 g/m*3 3.6 C 3.2 km/h
Sensor: Nr:Datum:Temp:Abs-Feuchte:Windchill:Wind:
Aussen-T/F 126 04-01-2015 20:50:00 3.6 C 5.63 g/m*3 3.6 C 4.8 km/h
127 04-01-2015 20:55:00 3.6 C 5.63 g/m*3 3.6 C 3.2 km/h
128 04-01-2015 21:00:00 3.7 C 5.67 g/m*3 3.7 C 1.6 km/h
129 04-01-2015 21:05:00 3.7 C 5.67 g/m*3 3.7 C 3.2 km/h
130 04-01-2015 21:10:00 3.7 C 5.61 g/m*3 3.7 C 3.2 km/h
131 04-01-2015 21:15:00 3.7 C 5.61 g/m*3 3.7 C 3.2 km/h
132 04-01-2015 21:20:00 3.8 C 5.65 g/m*3 3.8 C 3.2 km/h
133 04-01-2015 21:25:00 3.8 C 5.65 g/m*3 3.8 C 3.2 km/h
134 04-01-2015 21:30:00 3.8 C 5.65 g/m*3 2.21 C 6.4 km/h
135 04-01-2015 21:35:00 3.8 C 5.65 g/m*3 3.8 C 4.8 km/h
136 04-01-2015 21:40:00 3.9 C 5.62 g/m*3 2.32 C 6.4 km/h
137 04-01-2015 21:45:00 3.9 C 5.62 g/m*3 3.9 C 3.2 km/h
138 04-01-2015 21:50:00 4 C 5.66 g/m*3 4 C 4.8 km/h
139 04-01-2015 21:55:00 4 C 5.66 g/m*3 4 C 4.8 km/h
140 04-01-2015 22:00:00 3.9 C 5.62 g/m*3 3.9 C 4.8 km/h
141 04-01-2015 22:05:00 3.7 C 5.61 g/m*3 3.7 C 1.6 km/h
142 04-01-2015 22:10:00 3.6 C 5.57 g/m*3 3.6 C 3.2 km/h
143 04-01-2015 22:15:00 3.5 C 5.6 g/m*3 3.5 C 3.2 km/h
144 04-01-2015 22:20:00 3.4 C 5.56 g/m*3 3.4 C 1.6 km/h
145 04-01-2015 22:25:00 3.3 C 5.58 g/m*3 3.3 C 1.6 km/h
146 04-01-2015 22:30:00 3.2 C 5.54 g/m*3 3.2 C 0 km/h
147 04-01-2015 22:35:00 3.2 C 5.6 g/m*3 3.2 C 1.6 km/h
148 04-01-2015 22:40:00 3.2 C 5.6 g/m*3 3.2 C 1.6 km/h
149 04-01-2015 22:45:00 3.2 C 5.6 g/m*3 3.2 C 0 km/h
150 04-01-2015 22:50:00 3.2 C 5.6 g/m*3 3.2 C 0 km/h
Sensor: Nr:Datum:Temp:Abs-Feuchte:Windchill:Wind:
Aussen-T/F 151 04-01-2015 22:55:00 3.2 C 5.54 g/m*3 3.2 C 3.2 km/h
152 04-01-2015 23:00:00 3.2 C 5.54 g/m*3 3.2 C 1.6 km/h
153 04-01-2015 23:05:00 3.2 C 5.54 g/m*3 3.2 C 3.2 km/h
154 04-01-2015 23:10:00 3.3 C 5.58 g/m*3 3.3 C 1.6 km/h
155 04-01-2015 23:15:00 3.3 C 5.58 g/m*3 3.3 C 1.6 km/h
156 04-01-2015 23:20:00 3.3 C 5.58 g/m*3 3.3 C 1.6 km/h
157 04-01-2015 23:25:00 3.2 C 5.54 g/m*3 3.2 C 3.2 km/h
158 04-01-2015 23:30:00 3.2 C 5.48 g/m*3 1.51 C 6.4 km/h
159 04-01-2015 23:35:00 3.2 C 5.54 g/m*3 3.2 C 1.6 km/h
160 04-01-2015 23:40:00 3.2 C 5.48 g/m*3 3.2 C 4.8 km/h
161 04-01-2015 23:45:00 3.3 C 5.52 g/m*3 3.3 C 3.2 km/h
162 04-01-2015 23:50:00 3.3 C 5.46 g/m*3 3.3 C 4.8 km/h
163 04-01-2015 23:55:00 3.4 C 5.44 g/m*3 3.4 C 3.2 km/h
164 05-01-2015 00:00:00 3.5 C 5.47 g/m*3 3.5 C 1.6 km/h
165 05-01-2015 00:05:00 3.4 C 5.5 g/m*3 3.4 C 1.6 km/h
166 05-01-2015 00:10:00 3.3 C 5.46 g/m*3 3.3 C 3.2 km/h
167 05-01-2015 00:15:00 3.2 C 5.42 g/m*3 3.2 C 4.8 km/h
168 05-01-2015 00:20:00 3.2 C 5.42 g/m*3 3.2 C 3.2 km/h
169 05-01-2015 00:25:00 3.1 C 5.45 g/m*3 3.1 C 3.2 km/h
170 05-01-2015 00:30:00 3 C 5.41 g/m*3 3 C 4.8 km/h
171 05-01-2015 00:35:00 2.9 C 5.37 g/m*3 2.9 C 3.2 km/h
172 05-01-2015 00:40:00 2.8 C 5.34 g/m*3 2.8 C 3.2 km/h
173 05-01-2015 00:45:00 2.8 C 5.34 g/m*3 2.8 C 3.2 km/h
174 05-01-2015 00:50:00 2.8 C 5.34 g/m*3 2.8 C 3.2 km/h
175 05-01-2015 00:55:00 2.8 C 5.28 g/m*3 2.8 C 3.2 km/h
Sensor: Nr:Datum:Temp:Abs-Feuchte:Windchill:Wind:
Aussen-T/F 176 05-01-2015 01:00:00 2.9 C 5.32 g/m*3 2.9 C 3.2 km/h
177 05-01-2015 01:05:00 2.9 C 5.26 g/m*3 0.64 C 8.1 km/h
178 05-01-2015 01:10:00 2.9 C 5.26 g/m*3 0.64 C 8.1 km/h
179 05-01-2015 01:15:00 2.9 C 5.26 g/m*3 2.9 C 1.6 km/h
180 05-01-2015 01:20:00 2.8 C 5.22 g/m*3 2.8 C 4.8 km/h
181 05-01-2015 01:25:00 2.7 C 5.24 g/m*3 2.7 C 3.2 km/h
182 05-01-2015 01:30:00 2.6 C 5.21 g/m*3 2.6 C 1.6 km/h
183 05-01-2015 01:35:00 2.6 C 5.21 g/m*3 2.6 C 1.6 km/h
184 05-01-2015 01:40:00 2.5 C 5.23 g/m*3 2.5 C 1.6 km/h
185 05-01-2015 01:45:00 2.4 C 5.2 g/m*3 2.4 C 3.2 km/h
186 05-01-2015 01:50:00 2.3 C 5.16 g/m*3 2.3 C 3.2 km/h
187 05-01-2015 01:55:00 2.2 C 5.13 g/m*3 2.2 C 1.6 km/h
188 05-01-2015 02:00:00 2.1 C 5.15 g/m*3 2.1 C 1.6 km/h
189 05-01-2015 02:05:00 1.9 C 5.08 g/m*3 1.9 C 0 km/h
190 05-01-2015 02:10:00 1.8 C 5.04 g/m*3 1.8 C 0 km/h
191 05-01-2015 02:15:00 1.6 C 4.97 g/m*3 1.6 C 1.6 km/h
192 05-01-2015 02:20:00 1.4 C 4.91 g/m*3 1.4 C 0 km/h
193 05-01-2015 02:25:00 1.3 C 4.93 g/m*3 1.3 C 0 km/h
194 05-01-2015 02:30:00 1.2 C 4.89 g/m*3 1.2 C 1.6 km/h
195 05-01-2015 02:35:00 1.2 C 4.89 g/m*3 1.2 C 1.6 km/h
196 05-01-2015 02:40:00 1.1 C 4.91 g/m*3 1.1 C 3.2 km/h
197 05-01-2015 02:45:00 1.1 C 4.91 g/m*3 1.1 C 1.6 km/h
198 05-01-2015 02:50:00 1.1 C 4.91 g/m*3 1.1 C 1.6 km/h
199 05-01-2015 02:55:00 1.1 C 4.91 g/m*3 1.1 C 1.6 km/h
200 05-01-2015 03:00:00 1 C 4.88 g/m*3 1 C 1.6 km/h
Sensor: Nr:Datum:Temp:Abs-Feuchte:Windchill:Wind:
Aussen-T/F 201 05-01-2015 03:05:00 1 C 4.88 g/m*3 1 C 3.2 km/h
202 05-01-2015 03:10:00 1 C 4.88 g/m*3 1 C 3.2 km/h
203 05-01-2015 03:15:00 1 C 4.88 g/m*3 1 C 3.2 km/h
204 05-01-2015 03:20:00 1 C 4.88 g/m*3 1 C 4.8 km/h
205 05-01-2015 03:25:00 0.9 C 4.85 g/m*3 0.9 C 1.6 km/h
206 05-01-2015 03:30:00 1 C 4.88 g/m*3 1 C 4.8 km/h
207 05-01-2015 03:35:00 1 C 4.88 g/m*3 1 C 0 km/h
208 05-01-2015 03:40:00 0.9 C 4.85 g/m*3 0.9 C 0 km/h
209 05-01-2015 03:45:00 0.8 C 4.81 g/m*3 0.8 C 1.6 km/h
210 05-01-2015 03:50:00 0.8 C 4.81 g/m*3 0.8 C 1.6 km/h
211 05-01-2015 03:55:00 0.7 C 4.78 g/m*3 0.7 C 0 km/h
212 05-01-2015 04:00:00 0.7 C 4.78 g/m*3 0.7 C 0 km/h
213 05-01-2015 04:05:00 0.5 C 4.71 g/m*3 0.5 C 0 km/h
214 05-01-2015 04:10:00 0.4 C 4.68 g/m*3 0.4 C 3.2 km/h
215 05-01-2015 04:15:00 0.3 C 4.65 g/m*3 0.3 C 3.2 km/h
216 05-01-2015 04:20:00 0.2 C 4.62 g/m*3 0.2 C 1.6 km/h
217 05-01-2015 04:25:00 0.1 C 4.59 g/m*3 0.1 C 1.6 km/h
218 05-01-2015 04:30:00 0.1 C 4.59 g/m*3 0.1 C 0 km/h
219 05-01-2015 04:35:00 -0.1 C 4.52 g/m*3 -0.1 C 0 km/h
220 05-01-2015 04:40:00 -0.1 C 4.57 g/m*3 -0.1 C 0 km/h
221 05-01-2015 04:45:00 -0.2 C 4.54 g/m*3 -0.2 C 0 km/h
222 05-01-2015 04:50:00 -0.3 C 4.51 g/m*3 -0.3 C 0 km/h
223 05-01-2015 04:55:00 -0.3 C 4.51 g/m*3 -0.3 C 0 km/h
224 05-01-2015 05:00:00 -0.4 C 4.48 g/m*3 -0.4 C 1.6 km/h
225 05-01-2015 05:05:00 -0.4 C 4.48 g/m*3 -0.4 C 1.6 km/h
Sensor: Nr:Datum:Temp:Abs-Feuchte:Windchill:Wind:
Aussen-T/F 226 05-01-2015 05:10:00 -0.4 C 4.48 g/m*3 -0.4 C 0 km/h
227 05-01-2015 05:15:00 -0.4 C 4.48 g/m*3 -0.4 C 0 km/h
228 05-01-2015 05:20:00 -0.4 C 4.48 g/m*3 -0.4 C 0 km/h
229 05-01-2015 05:25:00 -0.5 C 4.45 g/m*3 -0.5 C 0 km/h
230 05-01-2015 05:30:00 -0.6 C 4.42 g/m*3 -0.6 C 1.6 km/h
231 05-01-2015 05:35:00 -0.6 C 4.46 g/m*3 -0.6 C 0 km/h
232 05-01-2015 05:40:00 -0.6 C 4.46 g/m*3 -0.6 C 1.6 km/h
233 05-01-2015 05:45:00 -0.5 C 4.49 g/m*3 -0.5 C 3.2 km/h
234 05-01-2015 05:50:00 -0.5 C 4.49 g/m*3 -0.5 C 1.6 km/h
235 05-01-2015 05:55:00 -0.5 C 4.49 g/m*3 -0.5 C 0 km/h
236 05-01-2015 06:00:00 -0.5 C 4.49 g/m*3 -0.5 C 1.6 km/h
237 05-01-2015 06:05:00 -0.6 C 4.46 g/m*3 -0.6 C 0 km/h
238 05-01-2015 06:10:00 -0.6 C 4.46 g/m*3 -0.6 C 0 km/h
239 05-01-2015 06:15:00 -0.6 C 4.46 g/m*3 -0.6 C 0 km/h
240 05-01-2015 06:20:00 -0.6 C 4.46 g/m*3 -0.6 C 0 km/h
241 05-01-2015 06:25:00 -0.9 C 4.37 g/m*3 -0.9 C 0 km/h
242 05-01-2015 06:30:00 -1 C 4.34 g/m*3 -1 C 1.6 km/h
243 05-01-2015 06:35:00 -1 C 4.34 g/m*3 -1 C 0 km/h
244 05-01-2015 06:40:00 -1 C 4.34 g/m*3 -1 C 0 km/h
245 05-01-2015 06:45:00 -0.9 C 4.37 g/m*3 -0.9 C 0 km/h
246 05-01-2015 06:50:00 -0.9 C 4.37 g/m*3 -0.9 C 1.6 km/h
247 05-01-2015 06:55:00 -0.9 C 4.37 g/m*3 -0.9 C 1.6 km/h
248 05-01-2015 07:00:00 -0.9 C 4.37 g/m*3 -0.9 C 4.8 km/h
249 05-01-2015 07:05:00 -0.9 C 4.37 g/m*3 -0.9 C 1.6 km/h
250 05-01-2015 07:10:00 -0.8 C 4.4 g/m*3 -0.8 C 1.6 km/h
Sensor: Nr:Datum:Temp:Abs-Feuchte:Windchill:Wind:
Aussen-T/F 251 05-01-2015 07:15:00 -0.9 C 4.37 g/m*3 -0.9 C 0 km/h
252 05-01-2015 07:20:00 -0.9 C 4.37 g/m*3 -0.9 C 0 km/h
253 05-01-2015 07:25:00 -1 C 4.34 g/m*3 -1 C 1.6 km/h
254 05-01-2015 07:30:00 -1 C 4.34 g/m*3 -1 C 0 km/h
255 05-01-2015 07:35:00 -1 C 4.38 g/m*3 -1 C 1.6 km/h
256 05-01-2015 07:40:00 -0.9 C 4.42 g/m*3 -0.9 C 4.8 km/h
257 05-01-2015 07:45:00 -0.8 C 4.45 g/m*3 -3.11 C 6.4 km/h
258 05-01-2015 07:50:00 -0.8 C 4.45 g/m*3 -3.11 C 6.4 km/h
259 05-01-2015 07:55:00 -0.8 C 4.45 g/m*3 -3.11 C 6.4 km/h
260 05-01-2015 08:00:00 -0.8 C 4.45 g/m*3 -3.71 C 8.1 km/h
261 05-01-2015 08:05:00 -0.8 C 4.45 g/m*3 -0.8 C 3.2 km/h
262 05-01-2015 08:10:00 -0.7 C 4.48 g/m*3 -3.59 C 8.1 km/h
263 05-01-2015 08:15:00 -0.7 C 4.48 g/m*3 -2.99 C 6.4 km/h
264 05-01-2015 08:20:00 -0.7 C 4.48 g/m*3 -0.7 C 4.8 km/h
265 05-01-2015 08:25:00 -0.7 C 4.48 g/m*3 -0.7 C 4.8 km/h
266 05-01-2015 08:30:00 -0.7 C 4.48 g/m*3 -0.7 C 4.8 km/h
267 05-01-2015 08:35:00 -0.7 C 4.48 g/m*3 -4.07 C 9.7 km/h
268 05-01-2015 08:40:00 -0.8 C 4.45 g/m*3 -3.71 C 8.1 km/h
269 05-01-2015 08:45:00 -0.8 C 4.45 g/m*3 -0.8 C 4.8 km/h
270 05-01-2015 08:50:00 -0.8 C 4.45 g/m*3 -3.71 C 8.1 km/h
271 05-01-2015 08:55:00 -0.8 C 4.45 g/m*3 -0.8 C 4.8 km/h
272 05-01-2015 09:00:00 -0.8 C 4.45 g/m*3 -0.8 C 4.8 km/h
273 05-01-2015 09:05:00 -0.8 C 4.45 g/m*3 -3.11 C 6.4 km/h
274 05-01-2015 09:10:00 -0.8 C 4.45 g/m*3 -3.11 C 6.4 km/h
275 05-01-2015 09:15:00 -0.8 C 4.45 g/m*3 -3.11 C 6.4 km/h
Sensor: Nr:Datum:Temp:Abs-Feuchte:Windchill:Wind:
Aussen-T/F 276 05-01-2015 09:20:00 -0.8 C 4.45 g/m*3 -0.8 C 4.8 km/h
277 05-01-2015 09:25:00 -0.8 C 4.45 g/m*3 -0.8 C 4.8 km/h
278 05-01-2015 09:30:00 -0.8 C 4.45 g/m*3 -0.8 C 3.2 km/h
279 05-01-2015 09:35:00 -0.8 C 4.45 g/m*3 -3.11 C 6.4 km/h
280 05-01-2015 09:40:00 -0.6 C 4.51 g/m*3 -3.48 C 8.1 km/h
281 05-01-2015 09:45:00 -0.6 C 4.51 g/m*3 -3.95 C 9.7 km/h
282 05-01-2015 09:50:00 -0.6 C 4.51 g/m*3 -0.6 C 4.8 km/h
283 05-01-2015 09:55:00 -0.6 C 4.51 g/m*3 -0.6 C 4.8 km/h
284 05-01-2015 10:00:00 -0.6 C 4.51 g/m*3 -0.6 C 3.2 km/h
285 05-01-2015 10:05:00 -0.6 C 4.51 g/m*3 -0.6 C 3.2 km/h
286 05-01-2015 10:10:00 -0.6 C 4.51 g/m*3 -0.6 C 3.2 km/h
287 05-01-2015 10:15:00 -0.6 C 4.51 g/m*3 -0.6 C 1.6 km/h
288 05-01-2015 10:20:00 -0.6 C 4.51 g/m*3 -2.88 C 6.4 km/h
289 05-01-2015 10:25:00 -0.5 C 4.54 g/m*3 -0.5 C 1.6 km/h
290 05-01-2015 10:30:00 -0.5 C 4.54 g/m*3 -0.5 C 4.8 km/h
291 05-01-2015 10:35:00 -0.5 C 4.54 g/m*3 -2.76 C 6.4 km/h
292 05-01-2015 10:40:00 -0.3 C 4.6 g/m*3 -3.12 C 8.1 km/h
293 05-01-2015 10:45:00 -0.2 C 4.64 g/m*3 -0.2 C 4.8 km/h
294 05-01-2015 10:50:00 -0.2 C 4.64 g/m*3 -0.2 C 3.2 km/h
295 05-01-2015 10:55:00 -0.2 C 4.64 g/m*3 -0.2 C 1.6 km/h
296 05-01-2015 11:00:00 -0.2 C 4.64 g/m*3 -0.2 C 1.6 km/h
297 05-01-2015 11:05:00 -0.2 C 4.64 g/m*3 -0.2 C 3.2 km/h
298 05-01-2015 11:10:00 -0.2 C 4.64 g/m*3 -0.2 C 1.6 km/h
299 05-01-2015 11:50:00 0.2 C 4.77 g/m*3 0.2 C 3.2 km/h
300 05-01-2015 11:55:00 0.2 C 4.77 g/m*3 0.2 C 1.6 km/h
Sensor: Nr:Datum:Temp:Abs-Feuchte:Windchill:Wind:
Aussen-T/F 301 05-01-2015 12:00:00 0.2 C 4.77 g/m*3 0.2 C 1.6 km/h
302 05-01-2015 12:05:00 0.2 C 4.77 g/m*3 0.2 C 1.6 km/h
303 05-01-2015 12:10:00 0.2 C 4.77 g/m*3 0.2 C 3.2 km/h
304 05-01-2015 12:15:00 0.2 C 4.77 g/m*3 0.2 C 1.6 km/h
305 05-01-2015 12:20:00 0.2 C 4.77 g/m*3 0.2 C 1.6 km/h
306 05-01-2015 12:25:00 0.2 C 4.77 g/m*3 0.2 C 1.6 km/h
307 05-01-2015 13:50:00 1.1 C 5.23 g/m*3 1.1 C 3.2 km/h
308 05-01-2015 13:55:00 1.1 C 4.96 g/m*3 1.1 C 4.8 km/h
309 05-01-2015 14:00:00 1.1 C 4.96 g/m*3 1.1 C 3.2 km/h
310 05-01-2015 18:20:00 -0.8 C 4.4 g/m*3 -0.8 C 0 km/h
311 05-01-2015 18:25:00 -0.8 C 4.4 g/m*3 -0.8 C 0 km/h
312 05-01-2015 18:30:00 -0.8 C 4.4 g/m*3 -0.8 C 0 km/h
313 05-01-2015 18:35:00 -0.8 C 4.4 g/m*3 -0.8 C 1.6 km/h
314 05-01-2015 18:40:00 -0.8 C 4.4 g/m*3 -0.8 C 0 km/h
315 05-01-2015 18:45:00 -0.8 C 4.4 g/m*3 -0.8 C 0 km/h
316 05-01-2015 18:50:00 -0.8 C 4.4 g/m*3 -0.8 C 0 km/h
317 05-01-2015 18:55:00 -0.8 C 4.4 g/m*3 -0.8 C 0 km/h
318 05-01-2015 19:00:00 -0.8 C 4.4 g/m*3 -0.8 C 0 km/h
319 05-01-2015 19:05:00 -0.9 C 4.37 g/m*3 -0.9 C 0 km/h
320 05-01-2015 19:10:00 -0.9 C 4.37 g/m*3 -0.9 C 0 km/h
321 05-01-2015 20:10:00 -1.4 C 4.22 g/m*3 -1.4 C 0 km/h
322 05-01-2015 20:15:00 -1.4 C 4.22 g/m*3 -1.4 C 0 km/h
323 05-01-2015 20:20:00 -1.3 C 4.25 g/m*3 -1.3 C 0 km/h
324 05-01-2015 20:25:00 -1.4 C 4.22 g/m*3 -1.4 C 0 km/h
325 05-01-2015 20:30:00 -1.4 C 4.22 g/m*3 -1.4 C 0 km/h
Sensor: Nr:Datum:Temp:Abs-Feuchte:Windchill:Wind:
Aussen-T/F 326 05-01-2015 20:35:00 -1.4 C 4.22 g/m*3 -1.4 C 0 km/h
327 05-01-2015 20:40:00 -1.3 C 4.25 g/m*3 -1.3 C 0 km/h
328 05-01-2015 20:45:00 -1.4 C 4.22 g/m*3 -1.4 C 0 km/h
329 05-01-2015 20:50:00 -1.4 C 4.22 g/m*3 -1.4 C 0 km/h
330 05-01-2015 20:55:00 -1.5 C 4.19 g/m*3 -1.5 C 0 km/h
331 05-01-2015 21:00:00 -1.5 C 4.19 g/m*3 -1.5 C 0 km/h
332 05-01-2015 21:05:00 -1.6 C 4.16 g/m*3 -1.6 C 0 km/h
333 05-01-2015 21:10:00 -1.5 C 4.19 g/m*3 -1.5 C 0 km/h
334 05-01-2015 21:15:00 -1.5 C 4.19 g/m*3 -1.5 C 0 km/h
335 05-01-2015 21:20:00 -1.5 C 4.19 g/m*3 -1.5 C 0 km/h
336 05-01-2015 21:25:00 -1.6 C 4.16 g/m*3 -1.6 C 0 km/h
337 05-01-2015 21:30:00 -1.6 C 4.16 g/m*3 -1.6 C 0 km/h
338 05-01-2015 21:35:00 -1.6 C 4.16 g/m*3 -1.6 C 0 km/h
339 05-01-2015 21:40:00 -1.6 C 4.16 g/m*3 -1.6 C 0 km/h
340 05-01-2015 21:45:00 -1.6 C 4.16 g/m*3 -1.6 C 0 km/h
341 05-01-2015 21:50:00 -1.6 C 4.16 g/m*3 -1.6 C 0 km/h
342 05-01-2015 21:55:00 -1.6 C 4.21 g/m*3 -1.6 C 0 km/h
343 05-01-2015 22:00:00 -1.6 C 4.21 g/m*3 -1.6 C 0 km/h
344 05-01-2015 22:05:00 -1.7 C 4.13 g/m*3 -1.7 C 0 km/h
345 05-01-2015 22:10:00 -1.7 C 4.13 g/m*3 -1.7 C 0 km/h
346 05-01-2015 22:15:00 -1.8 C 4.1 g/m*3 -1.8 C 0 km/h
347 05-01-2015 22:20:00 -1.8 C 4.1 g/m*3 -1.8 C 0 km/h
348 05-01-2015 22:25:00 -1.8 C 4.1 g/m*3 -1.8 C 0 km/h
349 05-01-2015 22:30:00 -1.8 C 4.1 g/m*3 -1.8 C 1.6 km/h
350 05-01-2015 22:35:00 -1.8 C 4.1 g/m*3 -1.8 C 0 km/h
Sensor: Nr:Datum:Temp:Abs-Feuchte:Windchill:Wind:
Aussen-T/F 351 05-01-2015 22:40:00 -1.8 C 4.1 g/m*3 -1.8 C 0 km/h
352 06-01-2015 07:55:00 -2.9 C 3.84 g/m*3 -2.9 C 4.8 km/h
353 06-01-2015 08:00:00 -2.9 C 3.84 g/m*3 -2.9 C 3.2 km/h
354 06-01-2015 08:05:00 -2.9 C 3.84 g/m*3 -2.9 C 1.6 km/h
355 06-01-2015 08:10:00 -2.9 C 3.84 g/m*3 -2.9 C 3.2 km/h
356 06-01-2015 08:15:00 -2.9 C 3.84 g/m*3 -2.9 C 3.2 km/h
357 06-01-2015 13:05:00 -1.4 C 4.26 g/m*3 -1.4 C 3.2 km/h
358 06-01-2015 13:10:00 -1.3 C 4.29 g/m*3 -1.3 C 0 km/h
359 06-01-2015 13:15:00 -1.3 C 4.29 g/m*3 -1.3 C 0 km/h
360 06-01-2015 13:20:00 -1.3 C 4.29 g/m*3 -1.3 C 0 km/h
361 06-01-2015 13:25:00 -1.3 C 4.29 g/m*3 -1.3 C 1.6 km/h
362 06-01-2015 19:40:00 1.1 C 4.7 g/m*3 -2.66 C 12.9 km/h
363 06-01-2015 19:45:00 1.1 C 4.7 g/m*3 -2.97 C 14.5 km/h
364 06-01-2015 19:50:00 1.1 C 4.7 g/m*3 -2.97 C 14.5 km/h
365 06-01-2015 19:55:00 1.1 C 4.7 g/m*3 -2.66 C 12.9 km/h
366 06-01-2015 20:00:00 0.9 C 4.64 g/m*3 -3.21 C 14.5 km/h
367 06-01-2015 20:05:00 0.9 C 4.64 g/m*3 -2.16 C 9.7 km/h
368 06-01-2015 20:10:00 0.8 C 4.61 g/m*3 -4.13 C 19.3 km/h
369 06-01-2015 20:15:00 0.8 C 4.61 g/m*3 -3.02 C 12.9 km/h
370 06-01-2015 20:20:00 0.8 C 4.61 g/m*3 -3.02 C 12.9 km/h
371 06-01-2015 20:25:00 0.8 C 4.61 g/m*3 -2.67 C 11.3 km/h
372 06-01-2015 21:20:00 0.7 C 4.68 g/m*3 -1.95 C 8.1 km/h
373 06-01-2015 21:25:00 0.7 C 4.68 g/m*3 -2.8 C 11.3 km/h
374 06-01-2015 21:30:00 0.7 C 4.68 g/m*3 -2.8 C 11.3 km/h
375 06-01-2015 21:35:00 0.8 C 4.71 g/m*3 -2.28 C 9.7 km/h
Sensor: Nr:Datum:Temp:Abs-Feuchte:Windchill:Wind:
Aussen-T/F 376 06-01-2015 21:40:00 0.8 C 4.71 g/m*3 -2.28 C 9.7 km/h
377 06-01-2015 21:45:00 0.8 C 4.71 g/m*3 -2.28 C 9.7 km/h
378 06-01-2015 21:50:00 0.8 C 4.71 g/m*3 -2.67 C 11.3 km/h
379 06-01-2015 21:55:00 0.8 C 4.71 g/m*3 -3.34 C 14.5 km/h
380 06-01-2015 22:00:00 0.9 C 4.74 g/m*3 -1.14 C 6.4 km/h
381 06-01-2015 22:05:00 1 C 4.78 g/m*3 -2.78 C 12.9 km/h
382 06-01-2015 22:10:00 1 C 4.78 g/m*3 -1.59 C 8.1 km/h
383 06-01-2015 22:15:00 1.1 C 4.81 g/m*3 -1.92 C 9.7 km/h
384 06-01-2015 22:20:00 1.1 C 4.81 g/m*3 -1.48 C 8.1 km/h
385 06-01-2015 22:25:00 1.1 C 4.81 g/m*3 -2.31 C 11.3 km/h
386 06-01-2015 22:30:00 1.2 C 4.84 g/m*3 -0.8 C 6.4 km/h
387 06-01-2015 22:35:00 1.3 C 4.87 g/m*3 -0.68 C 6.4 km/h
388 06-01-2015 22:40:00 1.3 C 4.87 g/m*3 1.3 C 1.6 km/h
389 06-01-2015 22:45:00 1.3 C 4.87 g/m*3 1.3 C 1.6 km/h
390 06-01-2015 22:50:00 1.3 C 4.87 g/m*3 1.3 C 4.8 km/h
391 06-01-2015 22:55:00 1.2 C 4.84 g/m*3 1.2 C 0 km/h
392 06-01-2015 23:00:00 1.2 C 4.84 g/m*3 -1.8 C 9.7 km/h
393 06-01-2015 23:05:00 1.2 C 4.84 g/m*3 1.2 C 4.8 km/h
394 06-01-2015 23:10:00 1.2 C 4.84 g/m*3 1.2 C 3.2 km/h
395 06-01-2015 23:15:00 1.3 C 4.93 g/m*3 -0.68 C 6.4 km/h
396 06-01-2015 23:20:00 1.4 C 4.96 g/m*3 -2.29 C 12.9 km/h
397 06-01-2015 23:25:00 1.6 C 5.03 g/m*3 -1.33 C 9.7 km/h
398 06-01-2015 23:30:00 1.6 C 5.03 g/m*3 1.6 C 4.8 km/h
399 06-01-2015 23:35:00 1.6 C 4.97 g/m*3 -0.33 C 6.4 km/h
400 06-01-2015 23:40:00 1.6 C 4.97 g/m*3 1.6 C 4.8 km/h
Sensor: Nr:Datum:Temp:Abs-Feuchte:Windchill:Wind:
Aussen-T/F 401 06-01-2015 23:45:00 1.5 C 4.94 g/m*3 1.5 C 4.8 km/h
402 06-01-2015 23:50:00 1.5 C 4.99 g/m*3 -0.45 C 6.4 km/h
403 06-01-2015 23:55:00 1.5 C 4.99 g/m*3 -2.17 C 12.9 km/h
404 07-01-2015 00:00:00 1.5 C 4.99 g/m*3 -1.01 C 8.1 km/h
405 07-01-2015 00:05:00 1.6 C 5.03 g/m*3 -0.33 C 6.4 km/h
406 07-01-2015 00:10:00 1.6 C 5.03 g/m*3 -0.33 C 6.4 km/h
407 07-01-2015 00:15:00 1.6 C 5.03 g/m*3 -0.33 C 6.4 km/h
408 07-01-2015 00:20:00 1.6 C 5.03 g/m*3 -0.33 C 6.4 km/h
409 07-01-2015 00:25:00 1.6 C 5.03 g/m*3 -0.89 C 8.1 km/h
410 07-01-2015 00:30:00 1.6 C 5.03 g/m*3 1.6 C 3.2 km/h
411 07-01-2015 00:35:00 1.6 C 5.08 g/m*3 -0.33 C 6.4 km/h
412 07-01-2015 00:40:00 1.7 C 5.12 g/m*3 -0.22 C 6.4 km/h
413 07-01-2015 00:45:00 1.7 C 5.12 g/m*3 1.7 C 3.2 km/h
414 07-01-2015 00:50:00 1.7 C 5.12 g/m*3 1.7 C 3.2 km/h
415 07-01-2015 00:55:00 1.7 C 5.12 g/m*3 1.7 C 3.2 km/h
416 07-01-2015 01:00:00 1.8 C 5.15 g/m*3 -1.09 C 9.7 km/h
417 07-01-2015 01:05:00 1.9 C 5.19 g/m*3 -0.97 C 9.7 km/h
418 07-01-2015 01:10:00 1.9 C 5.19 g/m*3 1.9 C 4.8 km/h
419 07-01-2015 01:15:00 1.9 C 5.19 g/m*3 0.01 C 6.4 km/h
420 07-01-2015 01:20:00 2 C 5.22 g/m*3 -2.14 C 16.1 km/h
421 07-01-2015 01:25:00 2.1 C 5.26 g/m*3 -0.73 C 9.7 km/h
422 07-01-2015 01:30:00 2.1 C 5.26 g/m*3 -0.73 C 9.7 km/h
423 07-01-2015 01:35:00 2.2 C 5.29 g/m*3 2.2 C 4.8 km/h
424 07-01-2015 01:40:00 2.1 C 5.2 g/m*3 -1.74 C 14.5 km/h
425 07-01-2015 01:45:00 2.2 C 5.29 g/m*3 2.2 C 4.8 km/h
Sensor: Nr:Datum:Temp:Abs-Feuchte:Windchill:Wind:
Aussen-T/F 426 07-01-2015 01:50:00 2.2 C 5.29 g/m*3 0.36 C 6.4 km/h
427 07-01-2015 01:55:00 2.2 C 5.29 g/m*3 0.36 C 6.4 km/h
428 07-01-2015 02:00:00 2.2 C 5.29 g/m*3 2.2 C 3.2 km/h
429 07-01-2015 02:05:00 2.2 C 5.29 g/m*3 2.2 C 3.2 km/h
430 07-01-2015 02:10:00 2.2 C 5.29 g/m*3 2.2 C 4.8 km/h
431 07-01-2015 02:15:00 2.2 C 5.29 g/m*3 -0.18 C 8.1 km/h
432 07-01-2015 02:20:00 2.3 C 5.33 g/m*3 -0.87 C 11.3 km/h
433 07-01-2015 02:25:00 2.3 C 5.33 g/m*3 -0.49 C 9.7 km/h
434 07-01-2015 02:30:00 2.3 C 5.33 g/m*3 0.47 C 6.4 km/h
435 07-01-2015 02:35:00 2.3 C 5.33 g/m*3 -0.07 C 8.1 km/h
436 07-01-2015 02:40:00 2.2 C 5.29 g/m*3 -0.61 C 9.7 km/h
437 07-01-2015 02:45:00 2.2 C 5.29 g/m*3 0.36 C 6.4 km/h
438 07-01-2015 02:50:00 2.2 C 5.29 g/m*3 0.36 C 6.4 km/h
439 07-01-2015 02:55:00 2.3 C 5.33 g/m*3 2.3 C 4.8 km/h
440 07-01-2015 03:00:00 2.3 C 5.33 g/m*3 0.47 C 6.4 km/h
441 07-01-2015 03:05:00 2.3 C 5.33 g/m*3 -0.87 C 11.3 km/h
442 07-01-2015 03:10:00 2.4 C 5.37 g/m*3 -0.74 C 11.3 km/h
443 07-01-2015 03:15:00 2.6 C 5.44 g/m*3 0.29 C 8.1 km/h
444 07-01-2015 03:20:00 2.6 C 5.38 g/m*3 -0.14 C 9.7 km/h
445 07-01-2015 03:25:00 2.5 C 5.35 g/m*3 -0.62 C 11.3 km/h
446 07-01-2015 03:30:00 2.4 C 5.31 g/m*3 0.59 C 6.4 km/h
447 07-01-2015 03:35:00 2.5 C 5.4 g/m*3 -0.26 C 9.7 km/h
448 07-01-2015 03:40:00 2.5 C 5.35 g/m*3 -0.26 C 9.7 km/h
449 07-01-2015 03:45:00 2.6 C 5.44 g/m*3 -0.5 C 11.3 km/h
450 07-01-2015 03:50:00 2.6 C 5.44 g/m*3 0.82 C 6.4 km/h
Sensor: Nr:Datum:Temp:Abs-Feuchte:Windchill:Wind:
Aussen-T/F 451 07-01-2015 03:55:00 2.5 C 5.4 g/m*3 0.71 C 6.4 km/h
452 07-01-2015 04:00:00 2.4 C 5.37 g/m*3 0.59 C 6.4 km/h
453 07-01-2015 04:05:00 2.4 C 5.37 g/m*3 2.4 C 4.8 km/h
454 07-01-2015 04:10:00 2.4 C 5.37 g/m*3 -1.37 C 14.5 km/h
455 07-01-2015 04:15:00 2.4 C 5.37 g/m*3 -0.37 C 9.7 km/h
456 07-01-2015 04:20:00 2.4 C 5.37 g/m*3 -0.74 C 11.3 km/h
457 07-01-2015 04:25:00 2.5 C 5.4 g/m*3 -0.26 C 9.7 km/h
458 07-01-2015 04:30:00 2.5 C 5.4 g/m*3 -1.52 C 16.1 km/h
459 07-01-2015 04:35:00 2.5 C 5.4 g/m*3 0.17 C 8.1 km/h
460 07-01-2015 04:40:00 2.6 C 5.44 g/m*3 -0.5 C 11.3 km/h
461 07-01-2015 04:45:00 2.5 C 5.4 g/m*3 0.71 C 6.4 km/h
462 07-01-2015 04:50:00 2.5 C 5.4 g/m*3 -0.62 C 11.3 km/h
463 07-01-2015 04:55:00 2.4 C 5.37 g/m*3 2.4 C 4.8 km/h
464 07-01-2015 05:00:00 2.4 C 5.37 g/m*3 0.59 C 6.4 km/h
465 07-01-2015 05:05:00 2.4 C 5.37 g/m*3 2.4 C 4.8 km/h
466 07-01-2015 05:10:00 2.4 C 5.37 g/m*3 0.05 C 8.1 km/h
467 07-01-2015 05:15:00 2.5 C 5.4 g/m*3 -0.26 C 9.7 km/h
468 07-01-2015 05:20:00 2.5 C 5.4 g/m*3 0.71 C 6.4 km/h
469 07-01-2015 05:25:00 2.6 C 5.44 g/m*3 2.6 C 4.8 km/h
470 07-01-2015 05:30:00 2.6 C 5.44 g/m*3 0.82 C 6.4 km/h
471 07-01-2015 05:35:00 2.6 C 5.44 g/m*3 -0.5 C 11.3 km/h
472 07-01-2015 05:40:00 2.5 C 5.4 g/m*3 0.71 C 6.4 km/h
473 07-01-2015 05:45:00 2.5 C 5.4 g/m*3 0.71 C 6.4 km/h
474 07-01-2015 05:50:00 2.4 C 5.37 g/m*3 2.4 C 4.8 km/h
475 07-01-2015 05:55:00 2.3 C 5.33 g/m*3 2.3 C 4.8 km/h
Sensor: Nr:Datum:Temp:Abs-Feuchte:Windchill:Wind:
Aussen-T/F 476 07-01-2015 06:00:00 2.1 C 5.26 g/m*3 2.1 C 3.2 km/h
477 07-01-2015 06:05:00 1.9 C 5.19 g/m*3 1.9 C 3.2 km/h
478 07-01-2015 06:10:00 1.8 C 5.15 g/m*3 1.8 C 1.6 km/h
479 07-01-2015 06:15:00 1.7 C 5.17 g/m*3 1.7 C 3.2 km/h
480 07-01-2015 06:20:00 1.6 C 5.14 g/m*3 1.6 C 1.6 km/h
481 07-01-2015 06:25:00 1.6 C 5.14 g/m*3 1.6 C 1.6 km/h
482 07-01-2015 06:30:00 1.4 C 5.07 g/m*3 1.4 C 0 km/h
483 07-01-2015 06:35:00 1.4 C 5.12 g/m*3 1.4 C 1.6 km/h
484 07-01-2015 06:40:00 1.4 C 5.12 g/m*3 1.4 C 4.8 km/h
485 07-01-2015 06:45:00 1.5 C 5.16 g/m*3 1.5 C 4.8 km/h
486 07-01-2015 06:50:00 1.4 C 5.12 g/m*3 1.4 C 3.2 km/h
487 07-01-2015 06:55:00 1.4 C 5.12 g/m*3 1.4 C 4.8 km/h
488 07-01-2015 07:00:00 1.3 C 5.09 g/m*3 1.3 C 4.8 km/h
489 07-01-2015 07:05:00 1.3 C 5.09 g/m*3 1.3 C 3.2 km/h
490 07-01-2015 07:10:00 1.4 C 5.12 g/m*3 1.4 C 3.2 km/h
491 07-01-2015 07:15:00 1.5 C 5.16 g/m*3 1.5 C 3.2 km/h
492 07-01-2015 07:20:00 1.4 C 5.12 g/m*3 1.4 C 3.2 km/h
493 07-01-2015 07:25:00 1.4 C 5.12 g/m*3 1.4 C 3.2 km/h
494 07-01-2015 07:30:00 1.4 C 5.12 g/m*3 -0.56 C 6.4 km/h
495 07-01-2015 07:35:00 1.4 C 5.12 g/m*3 1.4 C 3.2 km/h
496 07-01-2015 07:40:00 1.3 C 5.09 g/m*3 1.3 C 1.6 km/h
497 07-01-2015 07:45:00 1.3 C 5.09 g/m*3 -0.68 C 6.4 km/h
498 07-01-2015 07:50:00 1.4 C 5.12 g/m*3 1.4 C 3.2 km/h
499 07-01-2015 07:55:00 1.3 C 5.09 g/m*3 1.3 C 3.2 km/h
500 07-01-2015 08:00:00 1.3 C 5.09 g/m*3 1.3 C 3.2 km/h
Sensor: Nr:Datum:Temp:Abs-Feuchte:Windchill:Wind:
Aussen-T/F 501 07-01-2015 08:05:00 1.3 C 5.14 g/m*3 1.3 C 4.8 km/h
502 07-01-2015 08:10:00 1.4 C 5.17 g/m*3 1.4 C 4.8 km/h
503 07-01-2015 08:15:00 1.5 C 5.21 g/m*3 -1.01 C 8.1 km/h
504 07-01-2015 08:20:00 1.6 C 5.25 g/m*3 1.6 C 4.8 km/h
505 07-01-2015 08:25:00 1.7 C 5.28 g/m*3 -0.22 C 6.4 km/h
506 07-01-2015 08:30:00 1.7 C 5.28 g/m*3 -0.22 C 6.4 km/h
507 07-01-2015 08:35:00 1.7 C 5.23 g/m*3 -0.22 C 6.4 km/h
508 07-01-2015 08:40:00 1.8 C 5.26 g/m*3 1.8 C 3.2 km/h
509 07-01-2015 08:45:00 1.8 C 5.26 g/m*3 1.8 C 3.2 km/h
510 07-01-2015 08:50:00 1.8 C 5.26 g/m*3 -0.65 C 8.1 km/h
511 07-01-2015 08:55:00 1.9 C 5.35 g/m*3 1.9 C 4.8 km/h
512 07-01-2015 09:00:00 2 C 5.33 g/m*3 2 C 4.8 km/h
513 07-01-2015 09:05:00 2.1 C 5.37 g/m*3 2.1 C 4.8 km/h
514 07-01-2015 09:10:00 2 C 5.33 g/m*3 2 C 3.2 km/h
515 07-01-2015 09:15:00 2 C 5.33 g/m*3 2 C 1.6 km/h
516 07-01-2015 09:20:00 2 C 5.33 g/m*3 2 C 3.2 km/h
517 07-01-2015 09:25:00 2.1 C 5.37 g/m*3 2.1 C 4.8 km/h
518 07-01-2015 09:30:00 2.1 C 5.37 g/m*3 2.1 C 0 km/h
519 07-01-2015 09:35:00 2.1 C 5.37 g/m*3 2.1 C 4.8 km/h
520 07-01-2015 09:40:00 2.1 C 5.37 g/m*3 2.1 C 3.2 km/h
521 07-01-2015 11:40:00 3.2 C 5.54 g/m*3 -0.1 C 12.9 km/h
522 07-01-2015 11:45:00 3.3 C 5.58 g/m*3 1.63 C 6.4 km/h
523 07-01-2015 11:50:00 3.2 C 5.54 g/m*3 0.58 C 9.7 km/h
524 07-01-2015 11:55:00 3.2 C 5.54 g/m*3 3.2 C 4.8 km/h
525 07-01-2015 12:00:00 3.1 C 5.51 g/m*3 1.4 C 6.4 km/h
Sensor: Nr:Datum:Temp:Abs-Feuchte:Windchill:Wind:
Aussen-T/F 526 07-01-2015 12:05:00 3.1 C 5.51 g/m*3 3.1 C 4.8 km/h
527 07-01-2015 12:10:00 3.2 C 5.54 g/m*3 1.51 C 6.4 km/h
528 07-01-2015 12:15:00 3.1 C 5.51 g/m*3 1.4 C 6.4 km/h
529 07-01-2015 12:20:00 3.1 C 5.51 g/m*3 3.1 C 4.8 km/h
530 07-01-2015 12:25:00 3.1 C 5.51 g/m*3 0.1 C 11.3 km/h
531 07-01-2015 12:30:00 3.2 C 5.54 g/m*3 0.58 C 9.7 km/h
532 07-01-2015 12:35:00 3.2 C 5.48 g/m*3 1.51 C 6.4 km/h
533 07-01-2015 12:40:00 3.2 C 5.54 g/m*3 0.22 C 11.3 km/h
534 07-01-2015 12:45:00 3.3 C 5.52 g/m*3 0.34 C 11.3 km/h
535 07-01-2015 12:50:00 3.3 C 5.52 g/m*3 1.11 C 8.1 km/h
536 07-01-2015 12:55:00 3.4 C 5.56 g/m*3 0.46 C 11.3 km/h
537 07-01-2015 13:00:00 3.4 C 5.5 g/m*3 0.46 C 11.3 km/h
538 07-01-2015 13:05:00 3.4 C 5.5 g/m*3 0.46 C 11.3 km/h
539 07-01-2015 13:10:00 3.4 C 5.5 g/m*3 1.75 C 6.4 km/h
540 07-01-2015 13:15:00 3.4 C 5.5 g/m*3 1.23 C 8.1 km/h
541 07-01-2015 13:20:00 3.4 C 5.56 g/m*3 1.75 C 6.4 km/h
542 07-01-2015 13:25:00 3.4 C 5.56 g/m*3 0.46 C 11.3 km/h
543 07-01-2015 13:30:00 3.4 C 5.56 g/m*3 1.23 C 8.1 km/h
544 07-01-2015 13:35:00 3.4 C 5.56 g/m*3 0.82 C 9.7 km/h
545 07-01-2015 13:40:00 3.4 C 5.5 g/m*3 -0.14 C 14.5 km/h
546 07-01-2015 13:45:00 3.4 C 5.5 g/m*3 1.23 C 8.1 km/h
547 07-01-2015 13:50:00 3.4 C 5.5 g/m*3 0.14 C 12.9 km/h
548 07-01-2015 13:55:00 3.5 C 5.53 g/m*3 0.58 C 11.3 km/h
549 07-01-2015 14:00:00 3.5 C 5.53 g/m*3 0.94 C 9.7 km/h
550 07-01-2015 14:05:00 3.5 C 5.53 g/m*3 1.86 C 6.4 km/h
Sensor: Nr:Datum:Temp:Abs-Feuchte:Windchill:Wind:
Aussen-T/F 551 07-01-2015 14:10:00 3.5 C 5.53 g/m*3 0.94 C 9.7 km/h
552 07-01-2015 14:15:00 3.4 C 5.5 g/m*3 -0.4 C 16.1 km/h
553 07-01-2015 14:20:00 3.4 C 5.5 g/m*3 0.46 C 11.3 km/h
554 07-01-2015 14:25:00 3.4 C 5.5 g/m*3 0.82 C 9.7 km/h
555 07-01-2015 14:30:00 3.4 C 5.44 g/m*3 0.46 C 11.3 km/h
556 07-01-2015 14:35:00 3.4 C 5.44 g/m*3 0.82 C 9.7 km/h
557 07-01-2015 14:40:00 3.4 C 5.44 g/m*3 0.82 C 9.7 km/h
558 07-01-2015 14:45:00 3.4 C 5.44 g/m*3 0.82 C 9.7 km/h
559 07-01-2015 14:50:00 3.4 C 5.44 g/m*3 0.14 C 12.9 km/h
560 07-01-2015 14:55:00 3.4 C 5.44 g/m*3 0.46 C 11.3 km/h
561 07-01-2015 15:00:00 3.4 C 5.44 g/m*3 3.4 C 4.8 km/h
562 07-01-2015 15:05:00 3.4 C 5.37 g/m*3 3.4 C 4.8 km/h
563 07-01-2015 15:10:00 3.5 C 5.47 g/m*3 0.58 C 11.3 km/h
564 07-01-2015 15:15:00 3.5 C 5.47 g/m*3 1.86 C 6.4 km/h
565 07-01-2015 15:20:00 3.5 C 5.47 g/m*3 1.86 C 6.4 km/h
566 07-01-2015 15:25:00 3.5 C 5.41 g/m*3 3.5 C 4.8 km/h
567 07-01-2015 15:30:00 3.5 C 5.47 g/m*3 3.5 C 4.8 km/h
568 07-01-2015 15:35:00 3.4 C 5.44 g/m*3 0.82 C 9.7 km/h
569 07-01-2015 15:40:00 3.4 C 5.37 g/m*3 1.23 C 8.1 km/h
570 07-01-2015 15:45:00 3.3 C 5.34 g/m*3 0.7 C 9.7 km/h
571 07-01-2015 15:50:00 3.3 C 5.4 g/m*3 0.34 C 11.3 km/h
572 07-01-2015 15:55:00 3.3 C 5.4 g/m*3 0.7 C 9.7 km/h
573 07-01-2015 16:00:00 3.2 C 5.36 g/m*3 0.99 C 8.1 km/h
574 07-01-2015 16:05:00 3.2 C 5.36 g/m*3 3.2 C 4.8 km/h
575 07-01-2015 16:10:00 3.2 C 5.42 g/m*3 0.99 C 8.1 km/h
Sensor: Nr:Datum:Temp:Abs-Feuchte:Windchill:Wind:
Aussen-T/F 576 07-01-2015 16:15:00 3.2 C 5.36 g/m*3 0.58 C 9.7 km/h
577 07-01-2015 16:20:00 3.2 C 5.42 g/m*3 3.2 C 4.8 km/h
578 07-01-2015 16:25:00 3.2 C 5.42 g/m*3 3.2 C 3.2 km/h
579 07-01-2015 16:30:00 3.1 C 5.39 g/m*3 3.1 C 3.2 km/h
580 07-01-2015 16:35:00 3.1 C 5.39 g/m*3 3.1 C 4.8 km/h
581 07-01-2015 16:40:00 3.1 C 5.39 g/m*3 0.87 C 8.1 km/h
582 07-01-2015 16:45:00 3.1 C 5.39 g/m*3 1.4 C 6.4 km/h
583 07-01-2015 16:50:00 3.1 C 5.39 g/m*3 1.4 C 6.4 km/h
584 07-01-2015 16:55:00 3 C 5.35 g/m*3 3 C 4.8 km/h
585 07-01-2015 17:00:00 3 C 5.35 g/m*3 1.28 C 6.4 km/h
586 07-01-2015 17:05:00 2.9 C 5.32 g/m*3 2.9 C 3.2 km/h
587 07-01-2015 17:10:00 2.9 C 5.32 g/m*3 2.9 C 3.2 km/h
588 07-01-2015 17:15:00 2.9 C 5.32 g/m*3 0.22 C 9.7 km/h
589 07-01-2015 17:20:00 2.9 C 5.37 g/m*3 2.9 C 1.6 km/h
590 07-01-2015 17:25:00 2.8 C 5.34 g/m*3 2.8 C 0 km/h
591 07-01-2015 17:30:00 2.8 C 5.34 g/m*3 2.8 C 0 km/h
592 07-01-2015 17:35:00 2.8 C 5.34 g/m*3 2.8 C 0 km/h
593 07-01-2015 17:40:00 2.7 C 5.3 g/m*3 2.7 C 3.2 km/h
594 07-01-2015 17:45:00 2.7 C 5.3 g/m*3 0.4 C 8.1 km/h
595 07-01-2015 17:50:00 2.8 C 5.34 g/m*3 0.52 C 8.1 km/h
596 07-01-2015 17:55:00 2.8 C 5.34 g/m*3 1.05 C 6.4 km/h
597 07-01-2015 18:00:00 2.8 C 5.28 g/m*3 2.8 C 4.8 km/h
598 07-01-2015 18:05:00 2.8 C 5.28 g/m*3 0.1 C 9.7 km/h
599 07-01-2015 18:10:00 2.8 C 5.28 g/m*3 1.05 C 6.4 km/h
600 07-01-2015 18:15:00 2.8 C 5.28 g/m*3 2.8 C 3.2 km/h
Sensor: Nr:Datum:Temp:Abs-Feuchte:Windchill:Wind:
Aussen-T/F 601 07-01-2015 18:20:00 2.8 C 5.28 g/m*3 2.8 C 1.6 km/h
602 07-01-2015 18:25:00 2.8 C 5.28 g/m*3 2.8 C 3.2 km/h
603 07-01-2015 18:30:00 2.8 C 5.28 g/m*3 2.8 C 4.8 km/h
604 07-01-2015 18:35:00 2.8 C 5.28 g/m*3 2.8 C 3.2 km/h
605 07-01-2015 18:40:00 2.8 C 5.28 g/m*3 2.8 C 3.2 km/h
606 07-01-2015 18:45:00 2.8 C 5.34 g/m*3 2.8 C 0 km/h
607 07-01-2015 18:50:00 2.7 C 5.3 g/m*3 2.7 C 0 km/h
608 07-01-2015 18:55:00 2.7 C 5.3 g/m*3 2.7 C 1.6 km/h
609 07-01-2015 19:00:00 2.7 C 5.3 g/m*3 2.7 C 1.6 km/h
610 07-01-2015 19:05:00 2.7 C 5.3 g/m*3 2.7 C 0 km/h
611 07-01-2015 19:10:00 2.7 C 5.36 g/m*3 2.7 C 1.6 km/h
612 07-01-2015 19:15:00 2.6 C 5.32 g/m*3 2.6 C 0 km/h
613 07-01-2015 19:20:00 2.6 C 5.32 g/m*3 2.6 C 0 km/h
614 07-01-2015 19:25:00 2.6 C 5.32 g/m*3 2.6 C 1.6 km/h
615 07-01-2015 19:30:00 2.6 C 5.32 g/m*3 2.6 C 1.6 km/h
616 07-01-2015 19:35:00 2.5 C 5.35 g/m*3 2.5 C 1.6 km/h
617 07-01-2015 19:40:00 2.5 C 5.35 g/m*3 2.5 C 0 km/h
618 07-01-2015 19:45:00 2.5 C 5.35 g/m*3 2.5 C 0 km/h
619 07-01-2015 19:50:00 2.4 C 5.31 g/m*3 2.4 C 0 km/h
620 07-01-2015 19:55:00 2.4 C 5.31 g/m*3 2.4 C 3.2 km/h
621 07-01-2015 20:00:00 2.5 C 5.35 g/m*3 2.5 C 0 km/h
622 07-01-2015 20:05:00 2.5 C 5.35 g/m*3 2.5 C 0 km/h
623 07-01-2015 20:10:00 2.6 C 5.38 g/m*3 2.6 C 0 km/h
624 07-01-2015 20:15:00 2.6 C 5.38 g/m*3 2.6 C 0 km/h
625 07-01-2015 20:20:00 2.6 C 5.38 g/m*3 2.6 C 0 km/h
Sensor: Nr:Datum:Temp:Abs-Feuchte:Windchill:Wind:
Aussen-T/F 626 07-01-2015 20:25:00 2.6 C 5.38 g/m*3 2.6 C 0 km/h
627 07-01-2015 20:30:00 2.6 C 5.38 g/m*3 2.6 C 1.6 km/h
628 07-01-2015 20:35:00 2.6 C 5.32 g/m*3 2.6 C 4.8 km/h
629 07-01-2015 20:40:00 2.6 C 5.32 g/m*3 0.29 C 8.1 km/h
630 07-01-2015 20:45:00 2.7 C 5.36 g/m*3 0.94 C 6.4 km/h
631 07-01-2015 20:50:00 2.7 C 5.36 g/m*3 0.94 C 6.4 km/h
632 07-01-2015 20:55:00 2.7 C 5.36 g/m*3 2.7 C 3.2 km/h
633 07-01-2015 21:00:00 2.7 C 5.36 g/m*3 2.7 C 1.6 km/h
634 07-01-2015 21:05:00 2.7 C 5.36 g/m*3 2.7 C 1.6 km/h
635 07-01-2015 21:10:00 2.7 C 5.36 g/m*3 2.7 C 3.2 km/h
636 07-01-2015 21:15:00 2.6 C 5.32 g/m*3 2.6 C 3.2 km/h
637 07-01-2015 21:20:00 2.6 C 5.32 g/m*3 2.6 C 3.2 km/h
638 07-01-2015 21:25:00 2.6 C 5.27 g/m*3 2.6 C 3.2 km/h
639 07-01-2015 21:30:00 2.6 C 5.32 g/m*3 2.6 C 0 km/h
640 07-01-2015 21:35:00 2.6 C 5.32 g/m*3 2.6 C 1.6 km/h
641 07-01-2015 21:40:00 2.6 C 5.32 g/m*3 2.6 C 1.6 km/h
642 07-01-2015 21:45:00 2.5 C 5.29 g/m*3 2.5 C 0 km/h
643 07-01-2015 21:50:00 2.4 C 5.25 g/m*3 2.4 C 0 km/h
644 07-01-2015 21:55:00 2.4 C 5.31 g/m*3 2.4 C 0 km/h
645 07-01-2015 22:00:00 2.4 C 5.31 g/m*3 2.4 C 0 km/h
646 07-01-2015 22:05:00 2.4 C 5.31 g/m*3 2.4 C 0 km/h
647 07-01-2015 22:10:00 2.4 C 5.31 g/m*3 2.4 C 0 km/h
648 07-01-2015 22:15:00 2.4 C 5.31 g/m*3 2.4 C 0 km/h
649 07-01-2015 22:20:00 2.4 C 5.31 g/m*3 2.4 C 1.6 km/h
650 07-01-2015 22:25:00 2.4 C 5.25 g/m*3 2.4 C 1.6 km/h
Sensor: Nr:Datum:Temp:Abs-Feuchte:Windchill:Wind:
Aussen-T/F 651 07-01-2015 22:30:00 2.4 C 5.25 g/m*3 0.59 C 6.4 km/h
652 07-01-2015 22:35:00 2.4 C 5.2 g/m*3 2.4 C 3.2 km/h
653 07-01-2015 22:40:00 2.6 C 5.21 g/m*3 2.6 C 4.8 km/h
654 07-01-2015 22:45:00 2.6 C 5.15 g/m*3 2.6 C 3.2 km/h
655 07-01-2015 22:50:00 2.6 C 5.15 g/m*3 2.6 C 3.2 km/h
656 07-01-2015 22:55:00 2.7 C 5.19 g/m*3 2.7 C 1.6 km/h
657 07-01-2015 23:00:00 2.7 C 5.19 g/m*3 0.4 C 8.1 km/h
658 07-01-2015 23:05:00 2.7 C 5.13 g/m*3 0.94 C 6.4 km/h
659 07-01-2015 23:10:00 2.8 C 5.16 g/m*3 2.8 C 3.2 km/h
660 07-01-2015 23:15:00 2.8 C 5.16 g/m*3 2.8 C 0 km/h
661 07-01-2015 23:20:00 2.8 C 5.16 g/m*3 0.52 C 8.1 km/h
662 07-01-2015 23:25:00 2.8 C 5.16 g/m*3 2.8 C 3.2 km/h
663 07-01-2015 23:30:00 2.8 C 5.16 g/m*3 2.8 C 0 km/h
664 07-01-2015 23:35:00 2.8 C 5.16 g/m*3 2.8 C 3.2 km/h
665 07-01-2015 23:40:00 2.9 C 5.2 g/m*3 2.9 C 3.2 km/h
666 07-01-2015 23:45:00 2.9 C 5.2 g/m*3 2.9 C 0 km/h
667 07-01-2015 23:50:00 2.9 C 5.26 g/m*3 2.9 C 0 km/h
668 07-01-2015 23:55:00 2.8 C 5.22 g/m*3 2.8 C 0 km/h
669 08-01-2015 00:00:00 2.8 C 5.28 g/m*3 2.8 C 0 km/h
670 08-01-2015 00:05:00 2.7 C 5.3 g/m*3 2.7 C 3.2 km/h
671 08-01-2015 00:10:00 2.6 C 5.27 g/m*3 2.6 C 0 km/h
672 08-01-2015 00:15:00 2.6 C 5.32 g/m*3 2.6 C 0 km/h
673 08-01-2015 00:20:00 2.6 C 5.32 g/m*3 2.6 C 0 km/h
674 08-01-2015 00:25:00 2.6 C 5.32 g/m*3 2.6 C 1.6 km/h
675 08-01-2015 00:30:00 2.6 C 5.32 g/m*3 2.6 C 1.6 km/h
Sensor: Nr:Datum:Temp:Abs-Feuchte:Windchill:Wind:
Aussen-T/F 676 08-01-2015 00:35:00 2.6 C 5.32 g/m*3 2.6 C 0 km/h
677 08-01-2015 00:40:00 2.6 C 5.38 g/m*3 2.6 C 1.6 km/h
678 08-01-2015 00:45:00 2.6 C 5.38 g/m*3 2.6 C 1.6 km/h
679 08-01-2015 00:50:00 2.6 C 5.38 g/m*3 2.6 C 0 km/h
680 08-01-2015 00:55:00 2.6 C 5.38 g/m*3 2.6 C 1.6 km/h
681 08-01-2015 01:00:00 2.6 C 5.38 g/m*3 2.6 C 0 km/h
682 08-01-2015 01:05:00 2.6 C 5.38 g/m*3 2.6 C 0 km/h
683 08-01-2015 01:10:00 2.6 C 5.44 g/m*3 2.6 C 0 km/h
684 08-01-2015 01:15:00 2.6 C 5.44 g/m*3 2.6 C 0 km/h
685 08-01-2015 01:20:00 2.6 C 5.44 g/m*3 2.6 C 0 km/h
686 08-01-2015 01:25:00 2.6 C 5.44 g/m*3 2.6 C 0 km/h
687 08-01-2015 01:30:00 2.6 C 5.44 g/m*3 2.6 C 1.6 km/h
688 08-01-2015 01:35:00 2.6 C 5.44 g/m*3 2.6 C 0 km/h
689 08-01-2015 01:40:00 2.6 C 5.44 g/m*3 2.6 C 0 km/h
690 08-01-2015 01:45:00 2.7 C 5.48 g/m*3 2.7 C 0 km/h
691 08-01-2015 01:50:00 2.7 C 5.48 g/m*3 2.7 C 0 km/h
692 08-01-2015 01:55:00 2.7 C 5.48 g/m*3 2.7 C 0 km/h
693 08-01-2015 02:00:00 2.6 C 5.44 g/m*3 2.6 C 0 km/h
694 08-01-2015 02:05:00 2.7 C 5.48 g/m*3 2.7 C 0 km/h
695 08-01-2015 02:10:00 2.7 C 5.48 g/m*3 2.7 C 0 km/h
696 08-01-2015 02:15:00 2.7 C 5.48 g/m*3 2.7 C 0 km/h
697 08-01-2015 02:20:00 2.7 C 5.48 g/m*3 2.7 C 0 km/h
698 08-01-2015 02:25:00 2.7 C 5.48 g/m*3 2.7 C 0 km/h
699 08-01-2015 02:30:00 2.7 C 5.48 g/m*3 2.7 C 0 km/h
700 08-01-2015 02:35:00 2.8 C 5.51 g/m*3 2.8 C 0 km/h
Sensor: Nr:Datum:Temp:Abs-Feuchte:Windchill:Wind:
Aussen-T/F 701 08-01-2015 02:40:00 2.8 C 5.51 g/m*3 2.8 C 1.6 km/h
702 08-01-2015 02:45:00 2.9 C 5.55 g/m*3 2.9 C 0 km/h
703 08-01-2015 02:50:00 2.9 C 5.55 g/m*3 2.9 C 0 km/h
704 08-01-2015 02:55:00 3.2 C 5.66 g/m*3 1.51 C 6.4 km/h
705 08-01-2015 03:00:00 3.4 C 5.74 g/m*3 0.82 C 9.7 km/h
706 08-01-2015 03:05:00 3.8 C 5.9 g/m*3 0.35 C 14.5 km/h
707 08-01-2015 03:10:00 4 C 5.98 g/m*3 2.44 C 6.4 km/h
708 08-01-2015 03:15:00 4.2 C 5.99 g/m*3 1.43 C 11.3 km/h
709 08-01-2015 03:20:00 4.2 C 5.93 g/m*3 2.17 C 8.1 km/h
710 08-01-2015 03:25:00 4.3 C 5.97 g/m*3 1.24 C 12.9 km/h
711 08-01-2015 03:30:00 4.4 C 6.01 g/m*3 2.01 C 9.7 km/h
712 08-01-2015 03:35:00 4.5 C 6.05 g/m*3 1.48 C 12.9 km/h
713 08-01-2015 03:40:00 4.6 C 6.02 g/m*3 3.13 C 6.4 km/h
714 08-01-2015 03:45:00 4.7 C 6.06 g/m*3 2.37 C 9.7 km/h
715 08-01-2015 03:50:00 4.7 C 6.06 g/m*3 4.7 C 4.8 km/h
716 08-01-2015 03:55:00 4.6 C 6.02 g/m*3 3.13 C 6.4 km/h
717 08-01-2015 04:00:00 4.6 C 6.09 g/m*3 4.6 C 4.8 km/h
718 08-01-2015 04:05:00 4.5 C 6.05 g/m*3 4.5 C 4.8 km/h
719 08-01-2015 04:10:00 4.4 C 6.07 g/m*3 4.4 C 4.8 km/h
720 08-01-2015 04:15:00 4.4 C 6.14 g/m*3 4.4 C 4.8 km/h
721 08-01-2015 04:20:00 4.5 C 6.18 g/m*3 4.5 C 4.8 km/h
722 08-01-2015 04:25:00 4.5 C 6.18 g/m*3 4.5 C 0 km/h
723 08-01-2015 04:30:00 4.4 C 6.14 g/m*3 4.4 C 4.8 km/h
724 08-01-2015 04:35:00 4.3 C 6.16 g/m*3 4.3 C 0 km/h
725 08-01-2015 04:40:00 4.2 C 6.12 g/m*3 4.2 C 4.8 km/h
Sensor: Nr:Datum:Temp:Abs-Feuchte:Windchill:Wind:
Aussen-T/F 726 08-01-2015 04:45:00 4.2 C 6.12 g/m*3 4.2 C 3.2 km/h
727 08-01-2015 04:50:00 4.2 C 6.19 g/m*3 4.2 C 3.2 km/h
728 08-01-2015 04:55:00 4.2 C 6.19 g/m*3 4.2 C 3.2 km/h
729 08-01-2015 05:00:00 4.2 C 6.19 g/m*3 4.2 C 1.6 km/h
730 08-01-2015 05:05:00 4.3 C 6.23 g/m*3 4.3 C 1.6 km/h
731 08-01-2015 05:10:00 4.3 C 6.23 g/m*3 4.3 C 0 km/h
732 08-01-2015 05:15:00 4.2 C 6.19 g/m*3 4.2 C 0 km/h
733 08-01-2015 05:20:00 4.2 C 6.19 g/m*3 4.2 C 1.6 km/h
734 08-01-2015 05:25:00 4.3 C 6.23 g/m*3 4.3 C 3.2 km/h
735 08-01-2015 05:30:00 4.3 C 6.23 g/m*3 4.3 C 1.6 km/h
736 08-01-2015 05:35:00 4.3 C 6.23 g/m*3 4.3 C 1.6 km/h
737 08-01-2015 05:40:00 4.3 C 6.29 g/m*3 4.3 C 3.2 km/h
738 08-01-2015 05:45:00 4.3 C 6.23 g/m*3 4.3 C 4.8 km/h
739 08-01-2015 05:50:00 4.3 C 6.23 g/m*3 4.3 C 1.6 km/h
740 08-01-2015 05:55:00 4.3 C 6.23 g/m*3 4.3 C 0 km/h
741 08-01-2015 06:00:00 4.3 C 6.23 g/m*3 4.3 C 3.2 km/h
742 08-01-2015 06:05:00 4.3 C 6.29 g/m*3 4.3 C 1.6 km/h
743 08-01-2015 06:10:00 4.3 C 6.29 g/m*3 4.3 C 0 km/h
744 08-01-2015 06:15:00 4.2 C 6.25 g/m*3 4.2 C 1.6 km/h
745 08-01-2015 06:20:00 4.3 C 6.29 g/m*3 4.3 C 1.6 km/h
746 08-01-2015 06:25:00 4.3 C 6.29 g/m*3 4.3 C 0 km/h
747 08-01-2015 06:30:00 4.3 C 6.29 g/m*3 4.3 C 3.2 km/h
748 08-01-2015 06:35:00 4.3 C 6.29 g/m*3 4.3 C 1.6 km/h
749 08-01-2015 06:40:00 4.2 C 6.25 g/m*3 4.2 C 1.6 km/h
750 08-01-2015 06:45:00 4.3 C 6.29 g/m*3 4.3 C 0 km/h
Sensor: Nr:Datum:Temp:Abs-Feuchte:Windchill:Wind:
Aussen-T/F 751 08-01-2015 06:50:00 4.3 C 6.29 g/m*3 4.3 C 0 km/h
752 08-01-2015 06:55:00 4.3 C 6.29 g/m*3 4.3 C 0 km/h
753 08-01-2015 07:00:00 4.3 C 6.29 g/m*3 4.3 C 1.6 km/h
754 08-01-2015 07:05:00 4.4 C 6.33 g/m*3 4.4 C 1.6 km/h
755 08-01-2015 07:10:00 4.4 C 6.33 g/m*3 4.4 C 4.8 km/h
756 08-01-2015 07:15:00 4.5 C 6.38 g/m*3 4.5 C 3.2 km/h
757 08-01-2015 07:20:00 4.7 C 6.53 g/m*3 2.03 C 11.3 km/h
758 08-01-2015 07:25:00 4.9 C 6.62 g/m*3 2.99 C 8.1 km/h
759 08-01-2015 07:30:00 5.1 C 6.7 g/m*3 5.1 C 3.2 km/h
760 08-01-2015 07:35:00 5.2 C 6.68 g/m*3 3.34 C 8.1 km/h
761 08-01-2015 07:40:00 5.3 C 6.72 g/m*3 2.46 C 12.9 km/h
762 08-01-2015 07:45:00 5.4 C 6.77 g/m*3 2.08 C 16.1 km/h
763 08-01-2015 07:50:00 5.6 C 6.86 g/m*3 2.33 C 16.1 km/h
764 08-01-2015 07:55:00 5.6 C 6.79 g/m*3 2.11 C 17.7 km/h
765 08-01-2015 08:00:00 5.7 C 6.83 g/m*3 3.93 C 8.1 km/h
766 08-01-2015 08:05:00 5.6 C 6.79 g/m*3 5.6 C 4.8 km/h
767 08-01-2015 08:10:00 5.6 C 6.79 g/m*3 3.81 C 8.1 km/h
768 08-01-2015 08:15:00 5.7 C 6.83 g/m*3 3.56 C 9.7 km/h
769 08-01-2015 08:20:00 5.7 C 6.83 g/m*3 3.93 C 8.1 km/h
770 08-01-2015 08:25:00 5.7 C 6.83 g/m*3 4.4 C 6.4 km/h
771 08-01-2015 08:30:00 5.7 C 6.83 g/m*3 5.7 C 4.8 km/h
772 08-01-2015 08:35:00 5.6 C 6.79 g/m*3 5.6 C 1.6 km/h
773 08-01-2015 08:40:00 5.6 C 6.79 g/m*3 5.6 C 1.6 km/h
774 08-01-2015 08:45:00 5.6 C 6.79 g/m*3 5.6 C 0 km/h
775 08-01-2015 08:50:00 5.6 C 6.79 g/m*3 5.6 C 4.8 km/h
Sensor: Nr:Datum:Temp:Abs-Feuchte:Windchill:Wind:
Aussen-T/F 776 08-01-2015 08:55:00 5.5 C 6.74 g/m*3 5.5 C 3.2 km/h
777 08-01-2015 09:00:00 5.4 C 6.77 g/m*3 5.4 C 3.2 km/h
778 08-01-2015 09:05:00 5.4 C 6.77 g/m*3 5.4 C 3.2 km/h
779 08-01-2015 09:10:00 5.5 C 6.81 g/m*3 5.5 C 0 km/h
780 08-01-2015 09:15:00 5.5 C 6.81 g/m*3 5.5 C 1.6 km/h
781 08-01-2015 09:20:00 5.5 C 6.81 g/m*3 5.5 C 0 km/h
782 08-01-2015 09:25:00 5.5 C 6.81 g/m*3 5.5 C 0 km/h
783 08-01-2015 09:30:00 5.6 C 6.86 g/m*3 5.6 C 0 km/h
784 08-01-2015 09:35:00 5.6 C 6.86 g/m*3 5.6 C 3.2 km/h
785 08-01-2015 09:40:00 5.6 C 6.86 g/m*3 5.6 C 1.6 km/h
786 08-01-2015 09:45:00 5.7 C 6.97 g/m*3 5.7 C 1.6 km/h
787 08-01-2015 09:50:00 5.8 C 7.02 g/m*3 5.8 C 3.2 km/h
788 08-01-2015 09:55:00 5.9 C 7.07 g/m*3 5.9 C 1.6 km/h
789 08-01-2015 10:00:00 6 C 7.11 g/m*3 6 C 3.2 km/h
790 08-01-2015 10:05:00 6.1 C 7.16 g/m*3 6.1 C 3.2 km/h
791 08-01-2015 10:10:00 6.1 C 7.16 g/m*3 6.1 C 4.8 km/h
792 08-01-2015 10:15:00 6.2 C 7.21 g/m*3 6.2 C 1.6 km/h
793 08-01-2015 10:20:00 6.3 C 7.25 g/m*3 6.3 C 0 km/h
794 08-01-2015 10:25:00 6.4 C 7.3 g/m*3 6.4 C 3.2 km/h
795 08-01-2015 10:30:00 6.4 C 7.3 g/m*3 6.4 C 0 km/h
796 08-01-2015 10:35:00 6.6 C 7.4 g/m*3 6.6 C 4.8 km/h
797 08-01-2015 10:40:00 6.7 C 7.45 g/m*3 5.56 C 6.4 km/h
798 08-01-2015 10:45:00 6.8 C 7.5 g/m*3 6.8 C 1.6 km/h
799 08-01-2015 10:50:00 6.8 C 7.42 g/m*3 5.67 C 6.4 km/h
800 08-01-2015 10:55:00 6.9 C 7.47 g/m*3 4.68 C 11.3 km/h
Sensor: Nr:Datum:Temp:Abs-Feuchte:Windchill:Wind:
Aussen-T/F 801 08-01-2015 11:00:00 7.1 C 7.57 g/m*3 7.1 C 3.2 km/h
802 08-01-2015 11:05:00 7.1 C 7.57 g/m*3 7.1 C 4.8 km/h
803 08-01-2015 11:10:00 7.2 C 7.61 g/m*3 7.2 C 4.8 km/h
804 08-01-2015 11:15:00 7.2 C 7.61 g/m*3 7.2 C 4.8 km/h
805 08-01-2015 11:20:00 7.3 C 7.58 g/m*3 5.47 C 9.7 km/h
806 08-01-2015 11:25:00 7.4 C 7.63 g/m*3 5.93 C 8.1 km/h
807 08-01-2015 11:30:00 7.6 C 7.65 g/m*3 5.82 C 9.7 km/h
808 08-01-2015 11:35:00 7.7 C 7.7 g/m*3 6.28 C 8.1 km/h
809 08-01-2015 11:40:00 7.7 C 7.7 g/m*3 6.71 C 6.4 km/h
810 08-01-2015 11:45:00 7.8 C 7.75 g/m*3 6.06 C 9.7 km/h
811 08-01-2015 11:50:00 7.9 C 7.8 g/m*3 6.18 C 9.7 km/h
812 08-01-2015 11:55:00 8 C 7.85 g/m*3 6.3 C 9.7 km/h
813 08-01-2015 12:00:00 8.1 C 7.82 g/m*3 8.1 C 3.2 km/h
814 08-01-2015 12:05:00 8.1 C 7.82 g/m*3 8.1 C 3.2 km/h
815 08-01-2015 12:10:00 8.1 C 7.82 g/m*3 6.75 C 8.1 km/h
816 08-01-2015 12:15:00 8.1 C 7.82 g/m*3 6.75 C 8.1 km/h
817 08-01-2015 12:20:00 8.2 C 7.87 g/m*3 6.87 C 8.1 km/h
818 08-01-2015 12:25:00 8.2 C 7.87 g/m*3 6.87 C 8.1 km/h
819 08-01-2015 12:30:00 8.3 C 7.92 g/m*3 7.41 C 6.4 km/h
820 08-01-2015 12:35:00 8.4 C 7.89 g/m*3 6.49 C 11.3 km/h
821 08-01-2015 12:40:00 8.6 C 7.99 g/m*3 6.48 C 12.9 km/h
822 08-01-2015 12:45:00 8.7 C 7.96 g/m*3 7.46 C 8.1 km/h
823 08-01-2015 12:50:00 8.8 C 8.01 g/m*3 7.58 C 8.1 km/h
824 08-01-2015 12:55:00 8.9 C 8.06 g/m*3 6.85 C 12.9 km/h
825 08-01-2015 13:00:00 8.9 C 8.06 g/m*3 6.42 C 16.1 km/h
Sensor: Nr:Datum:Temp:Abs-Feuchte:Windchill:Wind:
Aussen-T/F 826 08-01-2015 13:05:00 8.9 C 8.06 g/m*3 6.42 C 16.1 km/h
827 08-01-2015 13:10:00 8.9 C 8.06 g/m*3 6.23 C 17.7 km/h
828 08-01-2015 13:15:00 8.9 C 8.06 g/m*3 5.6 C 24.1 km/h
829 08-01-2015 13:20:00 9 C 8.11 g/m*3 5.6 C 25.7 km/h
830 08-01-2015 13:25:00 9 C 8.11 g/m*3 5.73 C 24.1 km/h
831 08-01-2015 13:30:00 9.1 C 8.16 g/m*3 6.15 C 20.9 km/h
832 08-01-2015 13:35:00 9.1 C 8.16 g/m*3 5.73 C 25.7 km/h
833 08-01-2015 13:40:00 9.2 C 8.13 g/m*3 6.13 C 22.5 km/h
834 08-01-2015 13:45:00 9.2 C 8.13 g/m*3 5.86 C 25.7 km/h
835 08-01-2015 13:50:00 9.3 C 8.18 g/m*3 6.12 C 24.1 km/h
836 08-01-2015 13:55:00 9.3 C 8.18 g/m*3 5.98 C 25.7 km/h
837 08-01-2015 14:00:00 9.2 C 8.22 g/m*3 7.21 C 12.9 km/h
838 08-01-2015 14:05:00 9.2 C 8.22 g/m*3 6.61 C 17.7 km/h
839 08-01-2015 14:10:00 9.2 C 8.13 g/m*3 5.86 C 25.7 km/h
840 08-01-2015 14:15:00 9.3 C 8.18 g/m*3 6.73 C 17.7 km/h
841 08-01-2015 14:20:00 9.3 C 8.18 g/m*3 6.92 C 16.1 km/h
842 08-01-2015 14:25:00 9.4 C 8.23 g/m*3 7.04 C 16.1 km/h
843 08-01-2015 14:30:00 9.4 C 8.23 g/m*3 6.11 C 25.7 km/h
844 08-01-2015 14:35:00 9.5 C 8.28 g/m*3 6.82 C 19.3 km/h
845 08-01-2015 14:40:00 9.6 C 8.34 g/m*3 6.94 C 19.3 km/h
846 08-01-2015 14:45:00 9.6 C 8.24 g/m*3 6.79 C 20.9 km/h
847 08-01-2015 14:50:00 9.6 C 8.24 g/m*3 7.48 C 14.5 km/h
848 08-01-2015 14:55:00 9.7 C 8.3 g/m*3 7.23 C 17.7 km/h
849 08-01-2015 15:00:00 9.7 C 8.3 g/m*3 7.41 C 16.1 km/h
850 08-01-2015 15:05:00 9.8 C 8.35 g/m*3 7.19 C 19.3 km/h
Sensor: Nr:Datum:Temp:Abs-Feuchte:Windchill:Wind:
Aussen-T/F 851 08-01-2015 15:10:00 9.8 C 8.35 g/m*3 7.36 C 17.7 km/h
852 08-01-2015 15:15:00 9.7 C 8.39 g/m*3 9.02 C 6.4 km/h
853 08-01-2015 15:20:00 9.6 C 8.34 g/m*3 7.7 C 12.9 km/h
854 08-01-2015 15:25:00 9.5 C 8.37 g/m*3 8.4 C 8.1 km/h
855 08-01-2015 15:30:00 9.5 C 8.37 g/m*3 8.09 C 9.7 km/h
856 08-01-2015 15:35:00 9.6 C 8.34 g/m*3 7.29 C 16.1 km/h
857 08-01-2015 15:40:00 9.7 C 8.39 g/m*3 8.33 C 9.7 km/h
858 08-01-2015 15:45:00 9.7 C 8.39 g/m*3 6.5 C 25.7 km/h
859 08-01-2015 15:50:00 9.8 C 8.35 g/m*3 6.89 C 22.5 km/h
860 08-01-2015 15:55:00 9.8 C 8.35 g/m*3 7.54 C 16.1 km/h
861 08-01-2015 16:00:00 9.8 C 8.35 g/m*3 7.73 C 14.5 km/h
862 08-01-2015 16:05:00 9.8 C 8.26 g/m*3 6.17 C 32.2 km/h
863 08-01-2015 16:10:00 9.9 C 8.31 g/m*3 7.02 C 22.5 km/h
864 08-01-2015 16:15:00 9.9 C 8.31 g/m*3 7.66 C 16.1 km/h
865 08-01-2015 16:20:00 9.9 C 8.31 g/m*3 7.48 C 17.7 km/h
866 08-01-2015 16:25:00 9.8 C 8.26 g/m*3 7.73 C 14.5 km/h
867 08-01-2015 16:30:00 9.8 C 8.35 g/m*3 6.27 C 30.6 km/h
868 08-01-2015 16:35:00 9.8 C 8.35 g/m*3 6.89 C 22.5 km/h
869 08-01-2015 16:40:00 9.7 C 8.3 g/m*3 7.23 C 17.7 km/h
870 08-01-2015 16:45:00 9.7 C 8.3 g/m*3 7.41 C 16.1 km/h
871 08-01-2015 16:50:00 9.7 C 8.3 g/m*3 8.06 C 11.3 km/h
872 08-01-2015 16:55:00 9.6 C 8.34 g/m*3 7.7 C 12.9 km/h
873 08-01-2015 17:00:00 9.6 C 8.34 g/m*3 7.48 C 14.5 km/h
874 08-01-2015 17:05:00 9.6 C 8.34 g/m*3 6.94 C 19.3 km/h
875 08-01-2015 17:10:00 9.6 C 8.34 g/m*3 7.94 C 11.3 km/h
Sensor: Nr:Datum:Temp:Abs-Feuchte:Windchill:Wind:
Aussen-T/F 876 08-01-2015 17:15:00 9.6 C 8.34 g/m*3 7.11 C 17.7 km/h
877 08-01-2015 17:20:00 9.6 C 8.34 g/m*3 6.79 C 20.9 km/h
878 08-01-2015 17:25:00 9.7 C 8.39 g/m*3 7.41 C 16.1 km/h
879 08-01-2015 17:30:00 9.7 C 8.39 g/m*3 7.41 C 16.1 km/h
880 08-01-2015 17:35:00 9.7 C 8.39 g/m*3 7.23 C 17.7 km/h
881 08-01-2015 17:40:00 9.7 C 8.39 g/m*3 7.61 C 14.5 km/h
882 08-01-2015 17:45:00 9.7 C 8.39 g/m*3 7.41 C 16.1 km/h
883 08-01-2015 17:50:00 9.7 C 8.39 g/m*3 7.23 C 17.7 km/h
884 08-01-2015 17:55:00 9.7 C 8.39 g/m*3 7.82 C 12.9 km/h
885 08-01-2015 18:00:00 9.8 C 8.44 g/m*3 7.04 C 20.9 km/h
886 08-01-2015 18:05:00 9.8 C 8.44 g/m*3 7.36 C 17.7 km/h
887 08-01-2015 18:10:00 9.8 C 8.44 g/m*3 6.89 C 22.5 km/h
888 08-01-2015 18:15:00 9.8 C 8.44 g/m*3 7.36 C 17.7 km/h
889 08-01-2015 18:20:00 9.8 C 8.44 g/m*3 7.04 C 20.9 km/h
890 08-01-2015 18:25:00 9.8 C 8.44 g/m*3 7.19 C 19.3 km/h
891 08-01-2015 18:30:00 9.8 C 8.44 g/m*3 6.63 C 25.7 km/h
892 08-01-2015 18:35:00 9.8 C 8.44 g/m*3 6.76 C 24.1 km/h
893 08-01-2015 18:40:00 9.8 C 8.44 g/m*3 7.19 C 19.3 km/h
894 08-01-2015 18:45:00 9.7 C 8.48 g/m*3 7.82 C 12.9 km/h
895 08-01-2015 18:50:00 9.7 C 8.48 g/m*3 7.07 C 19.3 km/h
896 08-01-2015 18:55:00 9.7 C 8.48 g/m*3 7.07 C 19.3 km/h
897 08-01-2015 19:00:00 9.6 C 8.43 g/m*3 7.29 C 16.1 km/h
898 08-01-2015 19:05:00 9.6 C 8.43 g/m*3 5.61 C 37 km/h
899 08-01-2015 19:10:00 9.6 C 8.34 g/m*3 6.5 C 24.1 km/h
900 08-01-2015 19:15:00 9.5 C 8.01 g/m*3 6.37 C 24.1 km/h
Sensor: Nr:Datum:Temp:Abs-Feuchte:Windchill:Wind:
Aussen-T/F 901 08-01-2015 19:20:00 9.3 C 7.73 g/m*3 6.92 C 16.1 km/h
902 08-01-2015 19:25:00 9.1 C 7.54 g/m*3 6.67 C 16.1 km/h
903 08-01-2015 19:30:00 8.9 C 7.36 g/m*3 5.47 C 25.7 km/h
904 08-01-2015 19:35:00 8.9 C 7.45 g/m*3 6.85 C 12.9 km/h
905 08-01-2015 19:40:00 8.8 C 7.31 g/m*3 5.48 C 24.1 km/h
906 08-01-2015 19:45:00 8.7 C 7.26 g/m*3 4.62 C 33.8 km/h
907 08-01-2015 19:50:00 8.5 C 7.26 g/m*3 4.46 C 32.2 km/h
908 08-01-2015 19:55:00 8.3 C 7.16 g/m*3 4.84 C 24.1 km/h
909 08-01-2015 20:00:00 8.1 C 7.07 g/m*3 4.58 C 24.1 km/h
910 08-01-2015 20:05:00 8 C 7.11 g/m*3 6.3 C 9.7 km/h
911 08-01-2015 20:10:00 7.9 C 7.15 g/m*3 5.39 C 14.5 km/h
912 08-01-2015 20:15:00 7.8 C 7.1 g/m*3 4.86 C 17.7 km/h
913 08-01-2015 20:20:00 7.8 C 7.1 g/m*3 5.27 C 14.5 km/h
914 08-01-2015 20:25:00 7.7 C 7.14 g/m*3 5.38 C 12.9 km/h
915 08-01-2015 20:30:00 7.7 C 7.14 g/m*3 5.65 C 11.3 km/h
916 08-01-2015 20:35:00 7.6 C 7.09 g/m*3 4.81 C 16.1 km/h
917 08-01-2015 20:40:00 7.6 C 7.17 g/m*3 4.61 C 17.7 km/h
918 08-01-2015 20:45:00 7.5 C 7.12 g/m*3 5.7 C 9.7 km/h
919 08-01-2015 20:50:00 7.4 C 7.08 g/m*3 5.58 C 9.7 km/h
920 08-01-2015 20:55:00 7.4 C 7.16 g/m*3 5.02 C 12.9 km/h
921 08-01-2015 21:00:00 7.4 C 7.16 g/m*3 5.93 C 8.1 km/h
922 08-01-2015 21:05:00 7.3 C 7.11 g/m*3 4.9 C 12.9 km/h
923 08-01-2015 21:10:00 7.3 C 7.03 g/m*3 4.9 C 12.9 km/h
924 08-01-2015 21:15:00 7.3 C 7.03 g/m*3 5.16 C 11.3 km/h
925 08-01-2015 21:20:00 7.4 C 7.08 g/m*3 5.28 C 11.3 km/h
Sensor: Nr:Datum:Temp:Abs-Feuchte:Windchill:Wind:
Aussen-T/F 926 08-01-2015 21:25:00 7.3 C 7.03 g/m*3 5.47 C 9.7 km/h
927 08-01-2015 21:30:00 7.3 C 7.03 g/m*3 5.81 C 8.1 km/h
928 08-01-2015 21:35:00 7.3 C 7.03 g/m*3 6.25 C 6.4 km/h
929 08-01-2015 21:40:00 7.3 C 7.03 g/m*3 5.16 C 11.3 km/h
930 08-01-2015 21:45:00 7.3 C 7.03 g/m*3 5.47 C 9.7 km/h
931 08-01-2015 21:50:00 7.3 C 7.03 g/m*3 5.16 C 11.3 km/h
932 08-01-2015 21:55:00 7.3 C 6.95 g/m*3 5.47 C 9.7 km/h
933 08-01-2015 22:00:00 7.3 C 6.95 g/m*3 4.66 C 14.5 km/h
934 08-01-2015 22:05:00 7.3 C 6.95 g/m*3 4.9 C 12.9 km/h
935 08-01-2015 22:10:00 7.2 C 6.99 g/m*3 5.04 C 11.3 km/h
936 08-01-2015 22:15:00 7.2 C 6.91 g/m*3 4.53 C 14.5 km/h
937 08-01-2015 22:20:00 7.2 C 6.91 g/m*3 4.53 C 14.5 km/h
938 08-01-2015 22:25:00 7.2 C 6.91 g/m*3 4.53 C 14.5 km/h
939 08-01-2015 22:30:00 7.2 C 6.91 g/m*3 5.35 C 9.7 km/h
940 08-01-2015 22:35:00 7.1 C 6.86 g/m*3 7.1 C 4.8 km/h
941 08-01-2015 22:40:00 7.1 C 6.86 g/m*3 5.23 C 9.7 km/h
942 08-01-2015 22:45:00 7.1 C 6.86 g/m*3 4.65 C 12.9 km/h
943 08-01-2015 22:50:00 7 C 6.82 g/m*3 5.11 C 9.7 km/h
944 08-01-2015 22:55:00 7 C 6.9 g/m*3 5.46 C 8.1 km/h
945 08-01-2015 23:00:00 6.9 C 6.85 g/m*3 5.79 C 6.4 km/h
946 08-01-2015 23:05:00 6.8 C 6.81 g/m*3 5.67 C 6.4 km/h
947 08-01-2015 23:10:00 6.7 C 6.84 g/m*3 6.7 C 4.8 km/h
948 08-01-2015 23:15:00 6.6 C 6.79 g/m*3 4.99 C 8.1 km/h
949 08-01-2015 23:20:00 6.5 C 6.75 g/m*3 5.33 C 6.4 km/h
950 08-01-2015 23:25:00 6.4 C 6.78 g/m*3 3.8 C 12.9 km/h
Sensor: Nr:Datum:Temp:Abs-Feuchte:Windchill:Wind:
Aussen-T/F 951 08-01-2015 23:30:00 6.5 C 6.82 g/m*3 4.51 C 9.7 km/h
952 08-01-2015 23:35:00 6.6 C 6.87 g/m*3 4.32 C 11.3 km/h
953 08-01-2015 23:40:00 6.5 C 6.75 g/m*3 4.51 C 9.7 km/h
954 08-01-2015 23:45:00 6.5 C 6.82 g/m*3 5.33 C 6.4 km/h
955 08-01-2015 23:50:00 6.4 C 6.78 g/m*3 6.4 C 4.8 km/h
956 08-01-2015 23:55:00 6.5 C 6.75 g/m*3 4.2 C 11.3 km/h
957 09-01-2015 00:00:00 6.6 C 6.79 g/m*3 4.04 C 12.9 km/h
958 09-01-2015 00:05:00 6.5 C 6.75 g/m*3 4.87 C 8.1 km/h
959 09-01-2015 00:10:00 6.6 C 6.79 g/m*3 4.63 C 9.7 km/h
960 09-01-2015 00:15:00 6.5 C 6.75 g/m*3 5.33 C 6.4 km/h
961 09-01-2015 00:20:00 6.6 C 6.72 g/m*3 4.63 C 9.7 km/h
962 09-01-2015 00:25:00 6.5 C 6.67 g/m*3 6.5 C 4.8 km/h
963 09-01-2015 00:30:00 6.5 C 6.67 g/m*3 5.33 C 6.4 km/h
964 09-01-2015 00:35:00 6.4 C 6.63 g/m*3 4.39 C 9.7 km/h
965 09-01-2015 00:40:00 6.5 C 6.67 g/m*3 4.87 C 8.1 km/h
966 09-01-2015 00:45:00 6.6 C 6.72 g/m*3 4.99 C 8.1 km/h
967 09-01-2015 00:50:00 6.4 C 6.63 g/m*3 6.4 C 4.8 km/h
968 09-01-2015 00:55:00 6.3 C 6.66 g/m*3 3.96 C 11.3 km/h
969 09-01-2015 01:00:00 6.3 C 6.59 g/m*3 5.1 C 6.4 km/h
970 09-01-2015 01:05:00 6.3 C 6.59 g/m*3 4.64 C 8.1 km/h
971 09-01-2015 01:10:00 6.2 C 6.62 g/m*3 4.15 C 9.7 km/h
972 09-01-2015 01:15:00 6.2 C 6.62 g/m*3 3.84 C 11.3 km/h
973 09-01-2015 01:20:00 6.2 C 6.62 g/m*3 2.86 C 17.7 km/h
974 09-01-2015 01:25:00 6.3 C 6.66 g/m*3 3.96 C 11.3 km/h
975 09-01-2015 01:30:00 6.5 C 6.75 g/m*3 4.51 C 9.7 km/h
Sensor: Nr:Datum:Temp:Abs-Feuchte:Windchill:Wind:
Aussen-T/F 976 09-01-2015 01:35:00 6.6 C 6.72 g/m*3 3.17 C 19.3 km/h
977 09-01-2015 01:40:00 6.7 C 6.76 g/m*3 3.29 C 19.3 km/h
978 09-01-2015 01:45:00 6.7 C 6.69 g/m*3 4.44 C 11.3 km/h
979 09-01-2015 01:50:00 6.7 C 6.69 g/m*3 5.11 C 8.1 km/h
980 09-01-2015 01:55:00 6.7 C 6.69 g/m*3 3.92 C 14.5 km/h
981 09-01-2015 02:00:00 6.7 C 6.69 g/m*3 5.11 C 8.1 km/h
982 09-01-2015 02:05:00 6.7 C 6.69 g/m*3 5.11 C 8.1 km/h
983 09-01-2015 02:10:00 6.6 C 6.64 g/m*3 5.44 C 6.4 km/h
984 09-01-2015 02:15:00 6.5 C 6.6 g/m*3 5.33 C 6.4 km/h
985 09-01-2015 02:20:00 6.3 C 6.59 g/m*3 5.1 C 6.4 km/h
986 09-01-2015 02:25:00 6.4 C 6.63 g/m*3 5.21 C 6.4 km/h
987 09-01-2015 02:30:00 6.3 C 6.59 g/m*3 3.43 C 14.5 km/h
988 09-01-2015 02:35:00 6.3 C 6.59 g/m*3 5.1 C 6.4 km/h
989 09-01-2015 02:40:00 6.3 C 6.66 g/m*3 5.1 C 6.4 km/h
990 09-01-2015 02:45:00 6.3 C 6.66 g/m*3 5.1 C 6.4 km/h
991 09-01-2015 02:50:00 6.3 C 6.66 g/m*3 5.1 C 6.4 km/h
992 09-01-2015 02:55:00 6.4 C 6.71 g/m*3 5.21 C 6.4 km/h
993 09-01-2015 03:00:00 6.4 C 6.71 g/m*3 5.21 C 6.4 km/h
994 09-01-2015 03:05:00 6.7 C 6.76 g/m*3 4.17 C 12.9 km/h
995 09-01-2015 03:10:00 7 C 6.9 g/m*3 5.46 C 8.1 km/h
996 09-01-2015 03:15:00 7.2 C 6.83 g/m*3 3.92 C 19.3 km/h
997 09-01-2015 03:20:00 7.3 C 6.87 g/m*3 4.66 C 14.5 km/h
998 09-01-2015 03:25:00 7.4 C 6.84 g/m*3 5.02 C 12.9 km/h
999 09-01-2015 03:30:00 7.4 C 6.84 g/m*3 4.56 C 16.1 km/h
1000 09-01-2015 03:35:00 7.4 C 6.84 g/m*3 4.78 C 14.5 km/h
Sensor: Nr:Datum:Temp:Abs-Feuchte:Windchill:Wind:
Aussen-T/F 1001 09-01-2015 03:40:00 7.5 C 6.88 g/m*3 5.41 C 11.3 km/h
1002 09-01-2015 03:45:00 7.5 C 6.88 g/m*3 4.9 C 14.5 km/h
1003 09-01-2015 03:50:00 7.5 C 6.88 g/m*3 6.48 C 6.4 km/h
1004 09-01-2015 03:55:00 7.5 C 6.88 g/m*3 6.48 C 6.4 km/h
1005 09-01-2015 04:00:00 7.4 C 6.92 g/m*3 7.4 C 4.8 km/h
1006 09-01-2015 04:05:00 7.4 C 6.92 g/m*3 5.93 C 8.1 km/h
1007 09-01-2015 04:10:00 7.4 C 6.92 g/m*3 7.4 C 4.8 km/h
1008 09-01-2015 04:15:00 7.4 C 6.92 g/m*3 6.37 C 6.4 km/h
1009 09-01-2015 04:20:00 7.4 C 6.92 g/m*3 4.36 C 17.7 km/h
1010 09-01-2015 04:25:00 7.5 C 6.96 g/m*3 6.05 C 8.1 km/h
1011 09-01-2015 04:30:00 7.5 C 6.96 g/m*3 6.05 C 8.1 km/h
1012 09-01-2015 04:35:00 7.4 C 6.92 g/m*3 5.93 C 8.1 km/h
1013 09-01-2015 04:40:00 7.4 C 7 g/m*3 7.4 C 4.8 km/h
1014 09-01-2015 04:45:00 7.3 C 7.03 g/m*3 7.3 C 1.6 km/h
1015 09-01-2015 04:50:00 7.2 C 6.99 g/m*3 5.69 C 8.1 km/h
1016 09-01-2015 04:55:00 7.2 C 6.99 g/m*3 7.2 C 1.6 km/h
1017 09-01-2015 05:00:00 7.2 C 6.99 g/m*3 7.2 C 3.2 km/h
1018 09-01-2015 05:05:00 7.2 C 6.99 g/m*3 5.69 C 8.1 km/h
1019 09-01-2015 05:10:00 7.2 C 6.99 g/m*3 5.69 C 8.1 km/h
1020 09-01-2015 05:15:00 7.3 C 6.95 g/m*3 6.25 C 6.4 km/h
1021 09-01-2015 05:20:00 7.4 C 7 g/m*3 7.4 C 4.8 km/h
1022 09-01-2015 05:25:00 7.6 C 7.01 g/m*3 5.26 C 12.9 km/h
1023 09-01-2015 05:30:00 7.6 C 6.93 g/m*3 5.02 C 14.5 km/h
1024 09-01-2015 05:35:00 7.7 C 6.97 g/m*3 6.28 C 8.1 km/h
1025 09-01-2015 05:40:00 7.7 C 6.89 g/m*3 5.15 C 14.5 km/h
Sensor: Nr:Datum:Temp:Abs-Feuchte:Windchill:Wind:
Aussen-T/F 1026 09-01-2015 05:45:00 7.8 C 6.94 g/m*3 5.77 C 11.3 km/h
1027 09-01-2015 05:50:00 7.7 C 6.89 g/m*3 5.65 C 11.3 km/h
1028 09-01-2015 05:55:00 7.7 C 6.89 g/m*3 5.94 C 9.7 km/h
1029 09-01-2015 06:00:00 7.7 C 6.89 g/m*3 6.71 C 6.4 km/h
1030 09-01-2015 06:05:00 7.7 C 6.89 g/m*3 4.93 C 16.1 km/h
1031 09-01-2015 06:10:00 7.8 C 6.86 g/m*3 5.06 C 16.1 km/h
1032 09-01-2015 06:15:00 7.9 C 6.9 g/m*3 4.8 C 19.3 km/h
1033 09-01-2015 06:20:00 8.1 C 6.91 g/m*3 4.58 C 24.1 km/h
1034 09-01-2015 06:25:00 8.1 C 6.91 g/m*3 5.43 C 16.1 km/h
1035 09-01-2015 06:30:00 8.1 C 6.91 g/m*3 4.44 C 25.7 km/h
1036 09-01-2015 06:35:00 8.1 C 6.91 g/m*3 5.05 C 19.3 km/h
1037 09-01-2015 06:40:00 8.2 C 6.95 g/m*3 4.86 C 22.5 km/h
1038 09-01-2015 06:45:00 8.2 C 6.95 g/m*3 5.18 C 19.3 km/h
1039 09-01-2015 06:50:00 8.2 C 6.95 g/m*3 5.01 C 20.9 km/h
1040 09-01-2015 06:55:00 8.2 C 6.95 g/m*3 5.36 C 17.7 km/h
1041 09-01-2015 07:00:00 8.2 C 6.95 g/m*3 5.01 C 20.9 km/h
1042 09-01-2015 07:05:00 8.3 C 6.91 g/m*3 4.98 C 22.5 km/h
1043 09-01-2015 07:10:00 8.3 C 6.91 g/m*3 5.89 C 14.5 km/h
1044 09-01-2015 07:15:00 8.3 C 6.91 g/m*3 6.12 C 12.9 km/h
1045 09-01-2015 07:20:00 8.4 C 6.96 g/m*3 5.8 C 16.1 km/h
1046 09-01-2015 07:25:00 8.4 C 6.96 g/m*3 5.27 C 20.9 km/h
1047 09-01-2015 07:30:00 8.4 C 7.04 g/m*3 5.8 C 16.1 km/h
1048 09-01-2015 07:35:00 8.4 C 7.04 g/m*3 5.61 C 17.7 km/h
1049 09-01-2015 07:40:00 8.4 C 7.04 g/m*3 5.43 C 19.3 km/h
1050 09-01-2015 07:45:00 8.4 C 7.04 g/m*3 6.01 C 14.5 km/h
Sensor: Nr:Datum:Temp:Abs-Feuchte:Windchill:Wind:
Aussen-T/F 1051 09-01-2015 07:50:00 8.5 C 7.09 g/m*3 5.73 C 17.7 km/h
1052 09-01-2015 07:55:00 8.6 C 7.13 g/m*3 5.86 C 17.7 km/h
1053 09-01-2015 08:00:00 8.6 C 7.05 g/m*3 5.22 C 24.1 km/h
1054 09-01-2015 08:05:00 8.7 C 7.09 g/m*3 5.98 C 17.7 km/h
1055 09-01-2015 08:10:00 8.7 C 7.09 g/m*3 5.81 C 19.3 km/h
1056 09-01-2015 08:15:00 8.7 C 7.09 g/m*3 6.17 C 16.1 km/h
1057 09-01-2015 08:20:00 8.7 C 7.09 g/m*3 5.65 C 20.9 km/h
1058 09-01-2015 08:25:00 8.7 C 7.09 g/m*3 5.65 C 20.9 km/h
1059 09-01-2015 08:30:00 8.7 C 7.09 g/m*3 5.81 C 19.3 km/h
1060 09-01-2015 08:35:00 8.7 C 7.09 g/m*3 5.35 C 24.1 km/h
1061 09-01-2015 08:40:00 8.8 C 7.14 g/m*3 5.77 C 20.9 km/h
1062 09-01-2015 08:45:00 8.8 C 7.14 g/m*3 5.34 C 25.7 km/h
1063 09-01-2015 08:50:00 8.8 C 7.14 g/m*3 5.48 C 24.1 km/h
1064 09-01-2015 08:55:00 8.9 C 7.18 g/m*3 7.09 C 11.3 km/h
1065 09-01-2015 09:00:00 8.9 C 7.18 g/m*3 5.75 C 22.5 km/h
1066 09-01-2015 09:05:00 9 C 7.14 g/m*3 5.34 C 29 km/h
1067 09-01-2015 09:10:00 9.1 C 7.19 g/m*3 5.86 C 24.1 km/h
1068 09-01-2015 09:15:00 9.1 C 7.19 g/m*3 5.86 C 24.1 km/h
1069 09-01-2015 09:20:00 9.1 C 7.19 g/m*3 6.67 C 16.1 km/h
1070 09-01-2015 09:25:00 9.1 C 7.28 g/m*3 6.15 C 20.9 km/h
1071 09-01-2015 09:30:00 9.1 C 7.28 g/m*3 6.87 C 14.5 km/h
1072 09-01-2015 09:35:00 9.1 C 7.28 g/m*3 5.25 C 32.2 km/h
1073 09-01-2015 09:40:00 9.1 C 7.28 g/m*3 7.33 C 11.3 km/h
1074 09-01-2015 09:45:00 9.1 C 7.28 g/m*3 6.67 C 16.1 km/h
1075 09-01-2015 09:50:00 9.1 C 7.28 g/m*3 5.86 C 24.1 km/h
Sensor: Nr:Datum:Temp:Abs-Feuchte:Windchill:Wind:
Aussen-T/F 1076 09-01-2015 09:55:00 9.1 C 7.28 g/m*3 6.48 C 17.7 km/h
1077 09-01-2015 10:00:00 9 C 7.32 g/m*3 6.03 C 20.9 km/h
1078 09-01-2015 10:05:00 9 C 7.32 g/m*3 6.36 C 17.7 km/h
1079 09-01-2015 10:10:00 9 C 7.32 g/m*3 6.36 C 17.7 km/h
1080 09-01-2015 10:15:00 9 C 7.32 g/m*3 5.6 C 25.7 km/h
1081 09-01-2015 10:20:00 8.9 C 7.36 g/m*3 6.62 C 14.5 km/h
1082 09-01-2015 10:25:00 8.9 C 7.36 g/m*3 6.42 C 16.1 km/h
1083 09-01-2015 10:30:00 8.8 C 7.31 g/m*3 6.3 C 16.1 km/h
1084 09-01-2015 10:35:00 8.9 C 7.36 g/m*3 5.21 C 29 km/h
1085 09-01-2015 10:40:00 8.9 C 7.36 g/m*3 5.75 C 22.5 km/h
1086 09-01-2015 10:45:00 8.9 C 7.36 g/m*3 5.1 C 30.6 km/h
1087 09-01-2015 10:50:00 8.9 C 7.36 g/m*3 5.9 C 20.9 km/h
1088 09-01-2015 10:55:00 8.9 C 7.36 g/m*3 5.33 C 27.4 km/h
1089 09-01-2015 11:00:00 9 C 7.41 g/m*3 5.87 C 22.5 km/h
1090 09-01-2015 11:05:00 9.1 C 7.45 g/m*3 6 C 22.5 km/h
1091 09-01-2015 11:10:00 9.1 C 7.36 g/m*3 5.25 C 32.2 km/h
1092 09-01-2015 11:15:00 9.1 C 7.45 g/m*3 5.47 C 29 km/h
1093 09-01-2015 11:20:00 9.1 C 7.45 g/m*3 5.59 C 27.4 km/h
1094 09-01-2015 11:25:00 9.2 C 7.5 g/m*3 5.27 C 33.8 km/h
1095 09-01-2015 11:30:00 9.2 C 7.5 g/m*3 6.44 C 19.3 km/h
1096 09-01-2015 11:35:00 9.2 C 7.5 g/m*3 6.28 C 20.9 km/h
1097 09-01-2015 11:40:00 9.2 C 7.5 g/m*3 5.6 C 29 km/h
1098 09-01-2015 11:45:00 9.2 C 7.5 g/m*3 5.6 C 29 km/h
1099 09-01-2015 11:50:00 9.2 C 7.59 g/m*3 5.17 C 35.4 km/h
1100 09-01-2015 11:55:00 9.3 C 7.64 g/m*3 5.98 C 25.7 km/h
Sensor: Nr:Datum:Temp:Abs-Feuchte:Windchill:Wind:
Aussen-T/F 1101 09-01-2015 12:00:00 9.3 C 7.64 g/m*3 5.41 C 33.8 km/h
1102 09-01-2015 12:05:00 9.3 C 7.64 g/m*3 5.73 C 29 km/h
1103 09-01-2015 12:10:00 9.3 C 7.64 g/m*3 5.98 C 25.7 km/h
1104 09-01-2015 12:15:00 9.3 C 7.64 g/m*3 5.62 C 30.6 km/h
1105 09-01-2015 12:20:00 9.3 C 7.64 g/m*3 5.12 C 38.6 km/h
1106 09-01-2015 12:25:00 9.3 C 7.73 g/m*3 5.03 C 40.2 km/h
1107 09-01-2015 12:30:00 9.3 C 7.73 g/m*3 5.98 C 25.7 km/h
1108 09-01-2015 12:35:00 9.4 C 7.78 g/m*3 5.86 C 29 km/h
1109 09-01-2015 12:40:00 9.4 C 7.78 g/m*3 6.38 C 22.5 km/h
1110 09-01-2015 12:45:00 9.4 C 7.78 g/m*3 6.38 C 22.5 km/h
1111 09-01-2015 12:50:00 9.4 C 7.78 g/m*3 6.25 C 24.1 km/h
1112 09-01-2015 12:55:00 9.4 C 7.78 g/m*3 5.98 C 27.4 km/h
1113 09-01-2015 13:00:00 9.5 C 7.83 g/m*3 5.57 C 35.4 km/h
1114 09-01-2015 13:05:00 9.6 C 7.97 g/m*3 6.5 C 24.1 km/h
1115 09-01-2015 13:10:00 9.6 C 7.97 g/m*3 5.8 C 33.8 km/h
1116 09-01-2015 13:15:00 9.6 C 7.97 g/m*3 6.5 C 24.1 km/h
1117 09-01-2015 13:20:00 9.7 C 7.93 g/m*3 5.93 C 33.8 km/h
1118 09-01-2015 13:25:00 9.7 C 8.02 g/m*3 5.93 C 33.8 km/h
1119 09-01-2015 13:30:00 9.7 C 8.02 g/m*3 6.25 C 29 km/h
1120 09-01-2015 13:35:00 9.7 C 8.02 g/m*3 6.77 C 22.5 km/h
1121 09-01-2015 13:40:00 9.8 C 8.07 g/m*3 6.89 C 22.5 km/h
1122 09-01-2015 13:45:00 9.8 C 8.07 g/m*3 6.38 C 29 km/h
1123 09-01-2015 13:50:00 9.8 C 8.07 g/m*3 6.5 C 27.4 km/h
1124 09-01-2015 13:55:00 9.9 C 8.12 g/m*3 6.89 C 24.1 km/h
1125 09-01-2015 14:00:00 9.9 C 8.12 g/m*3 7.16 C 20.9 km/h
Sensor: Nr:Datum:Temp:Abs-Feuchte:Windchill:Wind:
Aussen-T/F 1126 09-01-2015 14:05:00 10.1 C 8.23 g/m*3 6.77 C 29 km/h
1127 09-01-2015 14:10:00 10.1 C 8.23 g/m*3 7.28 C 22.5 km/h
1128 09-01-2015 14:15:00 10.2 C 8.28 g/m*3 7.4 C 22.5 km/h
1129 09-01-2015 14:20:00 10.2 C 8.28 g/m*3 6.8 C 30.6 km/h
1130 09-01-2015 14:25:00 10.3 C 8.33 g/m*3 6.93 C 30.6 km/h
1131 09-01-2015 14:30:00 10.3 C 8.33 g/m*3 7.98 C 17.7 km/h
1132 09-01-2015 14:35:00 10.4 C 8.38 g/m*3 7.53 C 24.1 km/h
1133 09-01-2015 14:40:00 10.5 C 8.44 g/m*3 6.99 C 33.8 km/h
1134 09-01-2015 14:45:00 10.6 C 8.49 g/m*3 8.05 C 20.9 km/h
1135 09-01-2015 14:50:00 10.6 C 8.49 g/m*3 7.54 C 27.4 km/h
1136 09-01-2015 14:55:00 10.8 C 8.5 g/m*3 8.17 C 22.5 km/h
1137 09-01-2015 15:00:00 10.8 C 8.5 g/m*3 8.04 C 24.1 km/h
1138 09-01-2015 15:05:00 10.9 C 8.55 g/m*3 8.43 C 20.9 km/h
1139 09-01-2015 15:10:00 11.1 C 8.66 g/m*3 11.1 C 27.4 km/h
1140 09-01-2015 15:15:00 11.2 C 8.62 g/m*3 11.2 C 27.4 km/h
1141 09-01-2015 15:20:00 11.2 C 8.62 g/m*3 11.2 C 24.1 km/h
1142 09-01-2015 15:25:00 11.3 C 8.67 g/m*3 11.3 C 25.7 km/h
1143 09-01-2015 15:30:00 11.3 C 8.67 g/m*3 11.3 C 16.1 km/h
1144 09-01-2015 15:35:00 11.3 C 8.67 g/m*3 11.3 C 37 km/h
1145 09-01-2015 15:40:00 11.3 C 8.57 g/m*3 11.3 C 19.3 km/h
1146 09-01-2015 15:45:00 11.4 C 8.62 g/m*3 11.4 C 25.7 km/h
1147 09-01-2015 15:50:00 11.4 C 8.62 g/m*3 11.4 C 20.9 km/h
1148 09-01-2015 15:55:00 11.5 C 8.68 g/m*3 11.5 C 27.4 km/h
1149 09-01-2015 16:00:00 11.5 C 8.68 g/m*3 11.5 C 27.4 km/h
1150 09-01-2015 16:05:00 11.6 C 8.63 g/m*3 11.6 C 32.2 km/h
Sensor: Nr:Datum:Temp:Abs-Feuchte:Windchill:Wind:
Aussen-T/F 1151 09-01-2015 16:10:00 11.6 C 8.63 g/m*3 11.6 C 27.4 km/h
1152 09-01-2015 16:15:00 11.6 C 8.63 g/m*3 11.6 C 22.5 km/h
1153 09-01-2015 16:20:00 11.6 C 8.63 g/m*3 11.6 C 24.1 km/h
1154 09-01-2015 16:25:00 11.6 C 8.63 g/m*3 11.6 C 29 km/h
1155 09-01-2015 16:30:00 11.7 C 8.68 g/m*3 11.7 C 22.5 km/h
1156 09-01-2015 16:35:00 11.7 C 8.68 g/m*3 11.7 C 16.1 km/h
1157 09-01-2015 16:40:00 11.7 C 8.58 g/m*3 11.7 C 14.5 km/h
1158 09-01-2015 16:45:00 11.7 C 8.58 g/m*3 11.7 C 20.9 km/h
1159 09-01-2015 16:50:00 11.7 C 8.58 g/m*3 11.7 C 20.9 km/h
1160 09-01-2015 16:55:00 11.7 C 8.58 g/m*3 11.7 C 22.5 km/h
1161 09-01-2015 17:00:00 11.7 C 8.58 g/m*3 11.7 C 27.4 km/h
1162 09-01-2015 17:05:00 11.8 C 8.53 g/m*3 11.8 C 19.3 km/h
1163 09-01-2015 17:10:00 11.8 C 8.63 g/m*3 11.8 C 12.9 km/h
1164 09-01-2015 17:15:00 11.8 C 8.63 g/m*3 11.8 C 20.9 km/h
1165 09-01-2015 17:20:00 11.7 C 8.58 g/m*3 11.7 C 12.9 km/h
1166 09-01-2015 17:25:00 11.7 C 8.58 g/m*3 11.7 C 16.1 km/h
1167 09-01-2015 17:30:00 11.7 C 8.58 g/m*3 11.7 C 16.1 km/h
1168 09-01-2015 17:35:00 11.7 C 8.58 g/m*3 11.7 C 20.9 km/h
1169 09-01-2015 17:40:00 11.7 C 8.58 g/m*3 11.7 C 16.1 km/h
1170 09-01-2015 17:45:00 11.7 C 8.58 g/m*3 11.7 C 17.7 km/h
1171 09-01-2015 17:50:00 11.7 C 8.47 g/m*3 11.7 C 17.7 km/h
1172 09-01-2015 17:55:00 11.7 C 8.47 g/m*3 11.7 C 17.7 km/h
1173 09-01-2015 18:00:00 11.7 C 8.47 g/m*3 11.7 C 11.3 km/h
1174 09-01-2015 18:05:00 11.7 C 8.37 g/m*3 11.7 C 14.5 km/h
1175 09-01-2015 18:10:00 11.8 C 8.31 g/m*3 11.8 C 17.7 km/h
Sensor: Nr:Datum:Temp:Abs-Feuchte:Windchill:Wind:
Aussen-T/F 1176 09-01-2015 18:15:00 11.8 C 8.31 g/m*3 11.8 C 20.9 km/h
1177 09-01-2015 18:20:00 11.8 C 8.31 g/m*3 11.8 C 9.7 km/h
1178 09-01-2015 18:25:00 11.8 C 8.21 g/m*3 11.8 C 14.5 km/h
1179 09-01-2015 18:30:00 11.8 C 8.1 g/m*3 11.8 C 16.1 km/h
1180 09-01-2015 18:35:00 11.7 C 7.84 g/m*3 11.7 C 14.5 km/h
1181 09-01-2015 18:40:00 11.4 C 7.8 g/m*3 11.4 C 17.7 km/h
1182 09-01-2015 18:45:00 11.3 C 7.96 g/m*3 11.3 C 19.3 km/h
1183 09-01-2015 18:50:00 11.1 C 7.86 g/m*3 11.1 C 9.7 km/h
1184 09-01-2015 18:55:00 11.1 C 8.26 g/m*3 11.1 C 6.4 km/h
1185 09-01-2015 19:00:00 10.7 C 8.05 g/m*3 10.7 C 4.8 km/h
1186 09-01-2015 19:05:00 10.7 C 8.05 g/m*3 10.7 C 4.8 km/h
1187 09-01-2015 19:10:00 10.7 C 8.05 g/m*3 10.18 C 6.4 km/h
1188 09-01-2015 21:15:00 10 C 9.02 g/m*3 8.19 C 12.9 km/h
1189 09-01-2015 21:20:00 10.2 C 9.14 g/m*3 7.86 C 17.7 km/h
1190 09-01-2015 21:25:00 10.3 C 9.1 g/m*3 7.82 C 19.3 km/h
1191 09-01-2015 21:30:00 10.5 C 9.21 g/m*3 8.8 C 12.9 km/h
1192 09-01-2015 21:35:00 10.6 C 9.27 g/m*3 8.53 C 16.1 km/h
1193 09-01-2015 21:40:00 10.7 C 9.33 g/m*3 8.84 C 14.5 km/h
1194 09-01-2015 21:45:00 10.9 C 9.35 g/m*3 9.08 C 14.5 km/h
1195 09-01-2015 21:50:00 10.9 C 9.35 g/m*3 9.08 C 14.5 km/h
1196 09-01-2015 21:55:00 11 C 9.41 g/m*3 8.7 C 19.3 km/h
1197 09-01-2015 22:00:00 11.1 C 9.47 g/m*3 11.1 C 12.9 km/h
1198 09-01-2015 22:05:00 11.2 C 9.53 g/m*3 11.2 C 22.5 km/h
1199 09-01-2015 22:10:00 11.3 C 9.59 g/m*3 11.3 C 16.1 km/h
1200 09-01-2015 22:15:00 11.5 C 9.61 g/m*3 11.5 C 20.9 km/h
Sensor: Nr:Datum:Temp:Abs-Feuchte:Windchill:Wind:
Aussen-T/F 1201 09-01-2015 22:20:00 11.7 C 9.73 g/m*3 11.7 C 17.7 km/h
1202 09-01-2015 22:25:00 11.7 C 9.73 g/m*3 11.7 C 16.1 km/h
1203 09-01-2015 22:30:00 11.7 C 9.73 g/m*3 11.7 C 19.3 km/h
1204 09-01-2015 22:35:00 11.8 C 9.79 g/m*3 11.8 C 16.1 km/h
1205 09-01-2015 22:40:00 11.8 C 9.79 g/m*3 11.8 C 19.3 km/h
1206 09-01-2015 22:45:00 11.8 C 9.79 g/m*3 11.8 C 14.5 km/h
1207 09-01-2015 22:50:00 11.9 C 9.85 g/m*3 11.9 C 25.7 km/h
1208 09-01-2015 22:55:00 11.9 C 9.85 g/m*3 11.9 C 20.9 km/h
1209 09-01-2015 23:00:00 12 C 9.91 g/m*3 12 C 24.1 km/h
1210 09-01-2015 23:05:00 12.1 C 9.97 g/m*3 12.1 C 25.7 km/h
1211 09-01-2015 23:10:00 12.2 C 9.93 g/m*3 12.2 C 17.7 km/h
1212 09-01-2015 23:15:00 12.3 C 9.99 g/m*3 12.3 C 25.7 km/h
1213 09-01-2015 23:20:00 12.4 C 9.94 g/m*3 12.4 C 29 km/h
1214 09-01-2015 23:25:00 12.6 C 10.07 g/m*3 12.6 C 16.1 km/h
1215 09-01-2015 23:30:00 12.6 C 10.07 g/m*3 12.6 C 17.7 km/h
1216 09-01-2015 23:35:00 12.8 C 10.08 g/m*3 12.8 C 33.8 km/h
1217 09-01-2015 23:40:00 12.9 C 10.14 g/m*3 12.9 C 25.7 km/h
1218 09-01-2015 23:45:00 12.9 C 10.14 g/m*3 12.9 C 27.4 km/h
1219 09-01-2015 23:50:00 13 C 10.21 g/m*3 13 C 29 km/h
1220 09-01-2015 23:55:00 13.1 C 10.27 g/m*3 13.1 C 38.6 km/h
1221 10-01-2015 00:00:00 13 C 10.21 g/m*3 13 C 22.5 km/h
1222 10-01-2015 00:05:00 13 C 10.21 g/m*3 13 C 22.5 km/h
1223 10-01-2015 00:10:00 12.9 C 10.26 g/m*3 12.9 C 20.9 km/h
1224 10-01-2015 00:15:00 12.9 C 10.26 g/m*3 12.9 C 25.7 km/h
1225 10-01-2015 00:20:00 12.9 C 10.26 g/m*3 12.9 C 25.7 km/h
Sensor: Nr:Datum:Temp:Abs-Feuchte:Windchill:Wind:
Aussen-T/F 1226 10-01-2015 00:25:00 12.9 C 10.26 g/m*3 12.9 C 20.9 km/h
1227 10-01-2015 00:30:00 12.9 C 10.26 g/m*3 12.9 C 19.3 km/h
1228 10-01-2015 00:35:00 12.9 C 10.26 g/m*3 12.9 C 25.7 km/h
1229 10-01-2015 00:40:00 12.9 C 10.26 g/m*3 12.9 C 20.9 km/h
1230 10-01-2015 00:45:00 12.9 C 10.26 g/m*3 12.9 C 11.3 km/h
1231 10-01-2015 00:50:00 12.9 C 10.26 g/m*3 12.9 C 12.9 km/h
1232 10-01-2015 00:55:00 12.9 C 10.26 g/m*3 12.9 C 14.5 km/h
1233 10-01-2015 01:00:00 13.2 C 10.33 g/m*3 13.2 C 16.1 km/h
1234 10-01-2015 01:05:00 13.2 C 10.33 g/m*3 13.2 C 14.5 km/h
1235 10-01-2015 01:10:00 13.3 C 10.4 g/m*3 13.3 C 17.7 km/h
1236 10-01-2015 01:15:00 13.3 C 10.4 g/m*3 13.3 C 17.7 km/h
1237 10-01-2015 01:20:00 13.3 C 10.4 g/m*3 13.3 C 20.9 km/h
1238 10-01-2015 01:25:00 13.4 C 10.46 g/m*3 13.4 C 19.3 km/h
1239 10-01-2015 01:30:00 13.4 C 10.46 g/m*3 13.4 C 14.5 km/h
1240 10-01-2015 02:40:00 14 C 12.06 g/m*3 14 C 17.7 km/h
1241 10-01-2015 02:45:00 14 C 12.06 g/m*3 14 C 8.1 km/h
1242 10-01-2015 04:15:00 15.2 C 10.9 g/m*3 15.2 C 16.1 km/h
1243 10-01-2015 04:20:00 15.2 C 10.9 g/m*3 15.2 C 17.7 km/h
1244 10-01-2015 04:25:00 15.2 C 10.9 g/m*3 15.2 C 19.3 km/h
1245 10-01-2015 04:30:00 15.3 C 10.97 g/m*3 15.3 C 16.1 km/h
1246 10-01-2015 04:35:00 15.3 C 10.97 g/m*3 15.3 C 20.9 km/h
1247 10-01-2015 04:40:00 15.3 C 10.97 g/m*3 15.3 C 22.5 km/h
1248 10-01-2015 04:45:00 15.3 C 10.97 g/m*3 15.3 C 17.7 km/h
1249 10-01-2015 04:50:00 15.3 C 10.71 g/m*3 15.3 C 22.5 km/h
1250 10-01-2015 04:55:00 15.4 C 10.77 g/m*3 15.4 C 14.5 km/h
Sensor: Nr:Datum:Temp:Abs-Feuchte:Windchill:Wind:
Aussen-T/F 1251 10-01-2015 05:00:00 15.4 C 10.77 g/m*3 15.4 C 29 km/h
1252 10-01-2015 05:05:00 15.4 C 10.77 g/m*3 15.4 C 22.5 km/h
1253 10-01-2015 05:10:00 15.4 C 10.77 g/m*3 15.4 C 14.5 km/h
1254 10-01-2015 05:15:00 15.3 C 10.84 g/m*3 15.3 C 20.9 km/h
1255 10-01-2015 05:20:00 15.3 C 10.84 g/m*3 15.3 C 22.5 km/h
1256 10-01-2015 05:25:00 15.3 C 10.84 g/m*3 15.3 C 17.7 km/h
1257 10-01-2015 05:30:00 15.3 C 10.84 g/m*3 15.3 C 22.5 km/h
1258 10-01-2015 05:35:00 15.3 C 10.97 g/m*3 15.3 C 22.5 km/h
1259 10-01-2015 05:40:00 15.2 C 10.9 g/m*3 15.2 C 24.1 km/h
1260 10-01-2015 05:45:00 15.1 C 10.97 g/m*3 15.1 C 32.2 km/h
1261 10-01-2015 05:50:00 15 C 11.03 g/m*3 15 C 20.9 km/h
1262 10-01-2015 05:55:00 14.9 C 10.96 g/m*3 14.9 C 14.5 km/h
1263 10-01-2015 06:00:00 14.8 C 11.02 g/m*3 14.8 C 27.4 km/h
1264 10-01-2015 06:05:00 14.8 C 11.02 g/m*3 14.8 C 14.5 km/h
1265 10-01-2015 06:35:00 14.7 C 12.59 g/m*3 14.7 C 22.5 km/h
1266 10-01-2015 06:40:00 14.7 C 10.95 g/m*3 14.7 C 25.7 km/h
1267 10-01-2015 06:45:00 14.8 C 11.02 g/m*3 14.8 C 24.1 km/h
1268 10-01-2015 06:50:00 14.8 C 10.89 g/m*3 14.8 C 22.5 km/h
1269 10-01-2015 06:55:00 14.9 C 10.83 g/m*3 14.9 C 30.6 km/h
1270 10-01-2015 07:00:00 15 C 10.64 g/m*3 15 C 30.6 km/h
1271 10-01-2015 07:05:00 15.1 C 10.45 g/m*3 15.1 C 32.2 km/h
1272 10-01-2015 07:10:00 15.1 C 10.32 g/m*3 15.1 C 32.2 km/h
1273 10-01-2015 07:15:00 15.1 C 10.32 g/m*3 15.1 C 17.7 km/h
1274 10-01-2015 07:20:00 15.1 C 10.32 g/m*3 15.1 C 19.3 km/h
1275 10-01-2015 07:25:00 14.7 C 10.45 g/m*3 14.7 C 12.9 km/h
Sensor: Nr:Datum:Temp:Abs-Feuchte:Windchill:Wind:
Aussen-T/F 1276 10-01-2015 07:30:00 14.7 C 10.45 g/m*3 14.7 C 20.9 km/h
1277 10-01-2015 07:35:00 14.7 C 10.58 g/m*3 14.7 C 16.1 km/h
1278 10-01-2015 07:40:00 14.6 C 10.51 g/m*3 14.6 C 22.5 km/h
1279 10-01-2015 07:45:00 14.6 C 10.51 g/m*3 14.6 C 20.9 km/h
1280 10-01-2015 07:50:00 14.6 C 10.39 g/m*3 14.6 C 16.1 km/h
1281 10-01-2015 07:55:00 14.6 C 10.39 g/m*3 14.6 C 22.5 km/h
1282 10-01-2015 08:00:00 14.6 C 10.39 g/m*3 14.6 C 19.3 km/h
1283 10-01-2015 08:05:00 14.6 C 10.39 g/m*3 14.6 C 20.9 km/h
1284 10-01-2015 08:10:00 14.5 C 10.2 g/m*3 14.5 C 22.5 km/h
1285 10-01-2015 08:15:00 14.4 C 10.26 g/m*3 14.4 C 19.3 km/h
1286 10-01-2015 08:20:00 14.5 C 10.2 g/m*3 14.5 C 30.6 km/h
1287 10-01-2015 08:25:00 14.4 C 10.14 g/m*3 14.4 C 19.3 km/h
1288 10-01-2015 08:30:00 14.4 C 10.14 g/m*3 14.4 C 22.5 km/h
1289 10-01-2015 08:35:00 14.5 C 10.2 g/m*3 14.5 C 33.8 km/h
1290 10-01-2015 08:40:00 14.5 C 10.07 g/m*3 14.5 C 27.4 km/h
1291 10-01-2015 08:45:00 14.5 C 10.07 g/m*3 14.5 C 22.5 km/h
1292 10-01-2015 08:50:00 14.4 C 10.01 g/m*3 14.4 C 22.5 km/h
1293 10-01-2015 08:55:00 14.5 C 10.07 g/m*3 14.5 C 24.1 km/h
1294 10-01-2015 09:00:00 14.5 C 10.07 g/m*3 14.5 C 16.1 km/h
1295 10-01-2015 09:05:00 14.6 C 10.14 g/m*3 14.6 C 29 km/h
1296 10-01-2015 09:10:00 14.7 C 10.07 g/m*3 14.7 C 24.1 km/h
1297 10-01-2015 09:15:00 14.7 C 10.07 g/m*3 14.7 C 27.4 km/h
1298 10-01-2015 09:20:00 14.7 C 9.95 g/m*3 14.7 C 33.8 km/h
1299 10-01-2015 09:25:00 14.7 C 9.95 g/m*3 14.7 C 33.8 km/h
1300 10-01-2015 09:30:00 14.7 C 9.95 g/m*3 14.7 C 24.1 km/h
Sensor: Nr:Datum:Temp:Abs-Feuchte:Windchill:Wind:
Aussen-T/F 1301 10-01-2015 09:35:00 14.7 C 9.95 g/m*3 14.7 C 32.2 km/h
1302 10-01-2015 09:40:00 14.7 C 9.95 g/m*3 14.7 C 24.1 km/h
1303 10-01-2015 09:45:00 14.7 C 9.95 g/m*3 14.7 C 19.3 km/h
1304 10-01-2015 09:50:00 14.7 C 9.95 g/m*3 14.7 C 32.2 km/h
1305 10-01-2015 09:55:00 14.7 C 9.95 g/m*3 14.7 C 25.7 km/h
1306 10-01-2015 10:00:00 14.7 C 9.82 g/m*3 14.7 C 19.3 km/h
1307 10-01-2015 10:05:00 14.7 C 9.82 g/m*3 14.7 C 27.4 km/h
1308 10-01-2015 10:10:00 14.7 C 9.82 g/m*3 14.7 C 20.9 km/h
1309 10-01-2015 10:15:00 14.6 C 9.76 g/m*3 14.6 C 20.9 km/h
1310 10-01-2015 10:20:00 14.6 C 9.76 g/m*3 14.6 C 17.7 km/h
1311 10-01-2015 10:25:00 14.6 C 9.76 g/m*3 14.6 C 20.9 km/h
1312 10-01-2015 10:30:00 14.6 C 9.76 g/m*3 14.6 C 22.5 km/h
1313 10-01-2015 10:35:00 14.6 C 9.76 g/m*3 14.6 C 22.5 km/h
1314 10-01-2015 10:40:00 14.6 C 9.76 g/m*3 14.6 C 24.1 km/h
1315 10-01-2015 10:45:00 14.4 C 9.64 g/m*3 14.4 C 22.5 km/h
1316 10-01-2015 10:50:00 14.4 C 9.52 g/m*3 14.4 C 20.9 km/h
1317 10-01-2015 10:55:00 14.5 C 9.58 g/m*3 14.5 C 25.7 km/h
1318 10-01-2015 11:00:00 14.4 C 9.52 g/m*3 14.4 C 24.1 km/h
1319 10-01-2015 11:05:00 14.4 C 9.52 g/m*3 14.4 C 19.3 km/h
1320 10-01-2015 11:10:00 14.4 C 9.52 g/m*3 14.4 C 22.5 km/h
1321 10-01-2015 11:15:00 14.3 C 9.46 g/m*3 14.3 C 17.7 km/h
1322 10-01-2015 11:20:00 14.3 C 9.46 g/m*3 14.3 C 20.9 km/h
1323 10-01-2015 11:25:00 14.3 C 9.46 g/m*3 14.3 C 17.7 km/h
1324 10-01-2015 11:30:00 14.2 C 9.52 g/m*3 14.2 C 17.7 km/h
1325 10-01-2015 11:35:00 14.2 C 9.52 g/m*3 14.2 C 11.3 km/h
Sensor: Nr:Datum:Temp:Abs-Feuchte:Windchill:Wind:
Aussen-T/F 1326 10-01-2015 11:40:00 14.2 C 9.52 g/m*3 14.2 C 17.7 km/h
1327 10-01-2015 11:45:00 14.2 C 9.52 g/m*3 14.2 C 24.1 km/h
1328 10-01-2015 11:50:00 14.2 C 9.52 g/m*3 14.2 C 17.7 km/h
1329 10-01-2015 11:55:00 14.2 C 9.52 g/m*3 14.2 C 14.5 km/h
1330 10-01-2015 12:00:00 14.2 C 9.52 g/m*3 14.2 C 12.9 km/h
1331 10-01-2015 12:05:00 14.2 C 9.52 g/m*3 14.2 C 19.3 km/h
1332 10-01-2015 12:10:00 14.2 C 9.52 g/m*3 14.2 C 19.3 km/h
1333 10-01-2015 12:15:00 14.2 C 9.52 g/m*3 14.2 C 22.5 km/h
1334 10-01-2015 12:20:00 14.3 C 9.46 g/m*3 14.3 C 29 km/h
1335 10-01-2015 12:25:00 14.3 C 9.46 g/m*3 14.3 C 19.3 km/h
1336 10-01-2015 12:30:00 14.4 C 9.52 g/m*3 14.4 C 22.5 km/h
1337 10-01-2015 12:35:00 14.4 C 9.39 g/m*3 14.4 C 29 km/h
1338 10-01-2015 12:40:00 14.4 C 9.39 g/m*3 14.4 C 20.9 km/h
1339 10-01-2015 12:45:00 14.4 C 9.39 g/m*3 14.4 C 22.5 km/h
1340 10-01-2015 12:50:00 14.4 C 9.39 g/m*3 14.4 C 19.3 km/h
1341 10-01-2015 12:55:00 14.2 C 9.4 g/m*3 14.2 C 14.5 km/h
1342 10-01-2015 13:00:00 14.2 C 9.52 g/m*3 14.2 C 16.1 km/h
1343 10-01-2015 13:05:00 14.1 C 9.47 g/m*3 14.1 C 19.3 km/h
1344 10-01-2015 13:10:00 14 C 9.41 g/m*3 14 C 20.9 km/h
1345 10-01-2015 13:15:00 14 C 9.41 g/m*3 14 C 20.9 km/h
1346 10-01-2015 13:20:00 13.9 C 9.35 g/m*3 13.9 C 20.9 km/h
1347 10-01-2015 13:25:00 13.9 C 9.35 g/m*3 13.9 C 14.5 km/h
1348 10-01-2015 13:30:00 13.9 C 9.35 g/m*3 13.9 C 17.7 km/h
1349 10-01-2015 13:35:00 13.9 C 9.35 g/m*3 13.9 C 16.1 km/h
1350 10-01-2015 13:40:00 13.9 C 9.35 g/m*3 13.9 C 16.1 km/h
Sensor: Nr:Datum:Temp:Abs-Feuchte:Windchill:Wind:
Aussen-T/F 1351 10-01-2015 13:45:00 13.9 C 9.35 g/m*3 13.9 C 11.3 km/h
1352 10-01-2015 13:50:00 13.9 C 9.23 g/m*3 13.9 C 22.5 km/h
1353 10-01-2015 13:55:00 14 C 9.29 g/m*3 14 C 20.9 km/h
1354 10-01-2015 14:00:00 14.1 C 9.34 g/m*3 14.1 C 25.7 km/h
1355 10-01-2015 14:05:00 14.1 C 9.34 g/m*3 14.1 C 30.6 km/h
1356 10-01-2015 14:10:00 14 C 9.29 g/m*3 14 C 22.5 km/h
1357 10-01-2015 14:15:00 14 C 9.29 g/m*3 14 C 17.7 km/h
1358 10-01-2015 14:20:00 14 C 9.29 g/m*3 14 C 17.7 km/h
1359 10-01-2015 14:25:00 13.9 C 9.23 g/m*3 13.9 C 12.9 km/h
1360 10-01-2015 14:30:00 13.9 C 9.23 g/m*3 13.9 C 17.7 km/h
1361 10-01-2015 14:35:00 13.9 C 9.35 g/m*3 13.9 C 12.9 km/h
1362 10-01-2015 14:40:00 13.8 C 9.41 g/m*3 13.8 C 14.5 km/h
1363 10-01-2015 14:45:00 13.7 C 9.35 g/m*3 13.7 C 20.9 km/h
1364 10-01-2015 14:50:00 13.7 C 9.35 g/m*3 13.7 C 16.1 km/h
1365 10-01-2015 14:55:00 13.7 C 9.47 g/m*3 13.7 C 11.3 km/h
1366 10-01-2015 15:00:00 13.6 C 9.42 g/m*3 13.6 C 11.3 km/h
1367 10-01-2015 15:05:00 13.6 C 9.42 g/m*3 13.6 C 16.1 km/h
1368 10-01-2015 15:10:00 13.6 C 9.42 g/m*3 13.6 C 19.3 km/h
1369 10-01-2015 15:15:00 13.6 C 9.42 g/m*3 13.6 C 16.1 km/h
1370 10-01-2015 15:55:00 13.2 C 9.53 g/m*3 13.2 C 14.5 km/h
1371 10-01-2015 16:00:00 13.2 C 9.53 g/m*3 13.2 C 17.7 km/h
1372 10-01-2015 16:05:00 13.1 C 9.47 g/m*3 13.1 C 14.5 km/h
1373 10-01-2015 16:10:00 13.1 C 9.59 g/m*3 13.1 C 16.1 km/h
1374 10-01-2015 16:15:00 13 C 9.53 g/m*3 13 C 17.7 km/h
1375 10-01-2015 16:20:00 12.9 C 9.58 g/m*3 12.9 C 19.3 km/h
Sensor: Nr:Datum:Temp:Abs-Feuchte:Windchill:Wind:
Aussen-T/F 1376 10-01-2015 16:25:00 12.9 C 9.58 g/m*3 12.9 C 17.7 km/h
1377 10-01-2015 16:30:00 12.9 C 9.58 g/m*3 12.9 C 16.1 km/h
1378 10-01-2015 16:35:00 12.8 C 9.52 g/m*3 12.8 C 17.7 km/h
1379 10-01-2015 16:40:00 12.7 C 9.46 g/m*3 12.7 C 11.3 km/h
1380 10-01-2015 16:45:00 12.7 C 9.68 g/m*3 12.7 C 17.7 km/h
1381 10-01-2015 16:50:00 12.6 C 9.62 g/m*3 12.6 C 22.5 km/h
1382 10-01-2015 16:55:00 12.6 C 9.62 g/m*3 12.6 C 14.5 km/h
1383 10-01-2015 17:00:00 12.4 C 9.62 g/m*3 12.4 C 20.9 km/h
1384 10-01-2015 17:05:00 12.3 C 9.66 g/m*3 12.3 C 14.5 km/h
1385 10-01-2015 17:10:00 12.3 C 9.66 g/m*3 12.3 C 12.9 km/h
1386 10-01-2015 17:15:00 12.1 C 9.54 g/m*3 12.1 C 14.5 km/h
1387 10-01-2015 17:20:00 12 C 9.7 g/m*3 12 C 16.1 km/h
1388 10-01-2015 17:25:00 11.9 C 9.74 g/m*3 11.9 C 12.9 km/h
1389 10-01-2015 17:30:00 11.8 C 9.58 g/m*3 11.8 C 20.9 km/h
1390 10-01-2015 17:35:00 11.9 C 9.64 g/m*3 11.9 C 12.9 km/h
1391 10-01-2015 17:40:00 12 C 9.59 g/m*3 12 C 14.5 km/h
1392 10-01-2015 17:45:00 12.1 C 9.65 g/m*3 12.1 C 16.1 km/h
1393 10-01-2015 17:50:00 12.1 C 9.65 g/m*3 12.1 C 9.7 km/h
1394 10-01-2015 17:55:00 12.2 C 9.5 g/m*3 12.2 C 20.9 km/h
1395 10-01-2015 18:00:00 12.6 C 9.29 g/m*3 12.6 C 20.9 km/h
1396 10-01-2015 18:05:00 11.8 C 8.42 g/m*3 11.8 C 33.8 km/h
1397 10-01-2015 18:10:00 10.9 C 8.16 g/m*3 8.58 C 19.3 km/h
1398 10-01-2015 18:15:00 10.4 C 8.19 g/m*3 7.8 C 20.9 km/h
1399 10-01-2015 18:20:00 9.9 C 8.03 g/m*3 6.4 C 30.6 km/h
1400 10-01-2015 18:25:00 9.6 C 8.06 g/m*3 7.11 C 17.7 km/h
Sensor: Nr:Datum:Temp:Abs-Feuchte:Windchill:Wind:
Aussen-T/F 1401 10-01-2015 18:30:00 9.6 C 7.97 g/m*3 6.5 C 24.1 km/h
1402 10-01-2015 18:35:00 9.6 C 7.97 g/m*3 7.11 C 17.7 km/h
1403 10-01-2015 18:40:00 9.1 C 7.45 g/m*3 6 C 22.5 km/h
1404 10-01-2015 18:45:00 8.9 C 7.27 g/m*3 5.33 C 27.4 km/h
1405 10-01-2015 18:50:00 8.8 C 7.31 g/m*3 5.08 C 29 km/h
1406 10-01-2015 18:55:00 8.8 C 7.31 g/m*3 6.3 C 16.1 km/h
1407 10-01-2015 19:00:00 8.7 C 7.26 g/m*3 5.98 C 17.7 km/h
1408 10-01-2015 19:05:00 8.7 C 7.26 g/m*3 6.17 C 16.1 km/h
1409 10-01-2015 19:10:00 8.7 C 7.26 g/m*3 5.81 C 19.3 km/h
1410 10-01-2015 19:15:00 8.7 C 7.09 g/m*3 5.98 C 17.7 km/h
1411 10-01-2015 19:20:00 8.7 C 7.01 g/m*3 5.49 C 22.5 km/h
1412 10-01-2015 19:25:00 8.7 C 7.01 g/m*3 6.17 C 16.1 km/h
1413 10-01-2015 20:05:00 8.8 C 8.7 g/m*3 5.62 C 22.5 km/h
1414 10-01-2015 20:10:00 8.8 C 8.7 g/m*3 6.11 C 17.7 km/h
1415 10-01-2015 20:15:00 8.8 C 8.7 g/m*3 6.97 C 11.3 km/h
1416 11-01-2015 01:45:00 5.1 C 6.84 g/m*3 3.71 C 6.4 km/h
1417 11-01-2015 01:50:00 5.1 C 5.27 g/m*3 3.71 C 6.4 km/h
1418 11-01-2015 01:55:00 5 C 5.23 g/m*3 2.72 C 9.7 km/h
1419 11-01-2015 02:00:00 5 C 5.23 g/m*3 3.11 C 8.1 km/h
1420 11-01-2015 02:05:00 5 C 5.23 g/m*3 3.11 C 8.1 km/h
1421 11-01-2015 02:25:00 4.8 C 5.23 g/m*3 4.8 C 4.8 km/h
1422 11-01-2015 02:30:00 4.7 C 5.13 g/m*3 4.7 C 3.2 km/h
1423 11-01-2015 02:35:00 4.5 C 5.13 g/m*3 4.5 C 4.8 km/h
1424 11-01-2015 02:40:00 4.4 C 5.09 g/m*3 4.4 C 4.8 km/h
1425 11-01-2015 02:45:00 4.4 C 5.09 g/m*3 4.4 C 3.2 km/h
Sensor: Nr:Datum:Temp:Abs-Feuchte:Windchill:Wind:
Aussen-T/F 1426 11-01-2015 02:50:00 4.4 C 5.09 g/m*3 4.4 C 4.8 km/h
1427 11-01-2015 02:55:00 4.4 C 5.09 g/m*3 4.4 C 4.8 km/h
1428 11-01-2015 03:00:00 4.3 C 5.06 g/m*3 4.3 C 4.8 km/h
1429 11-01-2015 03:05:00 4.2 C 5.03 g/m*3 4.2 C 4.8 km/h
1430 11-01-2015 03:10:00 4.2 C 5.15 g/m*3 4.2 C 4.8 km/h
1431 11-01-2015 03:15:00 3.8 C 5.14 g/m*3 3.8 C 4.8 km/h
1432 11-01-2015 03:20:00 3.9 C 5.18 g/m*3 3.9 C 3.2 km/h
1433 11-01-2015 03:25:00 3.9 C 5.18 g/m*3 3.9 C 4.8 km/h
1434 11-01-2015 05:45:00 3.4 C 6.11 g/m*3 1.23 C 8.1 km/h
1435 11-01-2015 05:50:00 3.4 C 6.11 g/m*3 1.75 C 6.4 km/h
1436 11-01-2015 08:30:00 3.8 C 6.27 g/m*3 0.35 C 14.5 km/h
1437 11-01-2015 08:35:00 3.8 C 4.83 g/m*3 -1.57 C 30.6 km/h
1438 11-01-2015 08:40:00 3.8 C 4.83 g/m*3 -1.57 C 30.6 km/h
1439 11-01-2015 08:45:00 3.8 C 4.83 g/m*3 0.94 C 11.3 km/h
1440 11-01-2015 08:50:00 4.1 C 4.86 g/m*3 0.72 C 14.5 km/h
1441 11-01-2015 08:55:00 4.2 C 4.9 g/m*3 1.43 C 11.3 km/h
1442 11-01-2015 09:00:00 4.2 C 4.9 g/m*3 1.43 C 11.3 km/h
1443 11-01-2015 09:05:00 4.2 C 4.9 g/m*3 1.77 C 9.7 km/h
1444 11-01-2015 11:15:00 4.9 C 5.47 g/m*3 1.97 C 12.9 km/h
1445 11-01-2015 11:20:00 5 C 5.44 g/m*3 1.15 C 19.3 km/h
1446 11-01-2015 11:25:00 5.1 C 5.4 g/m*3 1.95 C 14.5 km/h
1447 11-01-2015 11:30:00 5.1 C 5.4 g/m*3 1.71 C 16.1 km/h
1448 11-01-2015 11:35:00 5.2 C 5.44 g/m*3 1.83 C 16.1 km/h
1449 11-01-2015 11:40:00 5.2 C 5.44 g/m*3 2.34 C 12.9 km/h
1450 11-01-2015 11:45:00 5.2 C 5.44 g/m*3 1.83 C 16.1 km/h
Sensor: Nr:Datum:Temp:Abs-Feuchte:Windchill:Wind:
Aussen-T/F 1451 11-01-2015 11:50:00 5.2 C 5.37 g/m*3 2.07 C 14.5 km/h
1452 11-01-2015 11:55:00 5.2 C 5.37 g/m*3 1.83 C 16.1 km/h
1453 11-01-2015 12:00:00 5.2 C 5.37 g/m*3 2.07 C 14.5 km/h
1454 11-01-2015 12:05:00 5.2 C 5.37 g/m*3 1.4 C 19.3 km/h
1455 11-01-2015 12:10:00 5.2 C 5.37 g/m*3 2.07 C 14.5 km/h
1456 11-01-2015 12:15:00 5.3 C 5.41 g/m*3 1.96 C 16.1 km/h
1457 11-01-2015 12:20:00 5.5 C 5.41 g/m*3 1.59 C 20.9 km/h
1458 11-01-2015 12:25:00 5.6 C 5.23 g/m*3 1.54 C 22.5 km/h
1459 11-01-2015 12:30:00 5.6 C 5.16 g/m*3 2.57 C 14.5 km/h
1460 11-01-2015 12:35:00 5.6 C 5.16 g/m*3 1.91 C 19.3 km/h
1461 11-01-2015 12:40:00 5.6 C 5.16 g/m*3 1.91 C 19.3 km/h
1462 11-01-2015 12:45:00 5.7 C 5.19 g/m*3 2.24 C 17.7 km/h
1463 11-01-2015 12:50:00 5.7 C 5.19 g/m*3 1.35 C 25.7 km/h
1464 11-01-2015 12:55:00 5.8 C 5.16 g/m*3 1.32 C 27.4 km/h
1465 11-01-2015 13:00:00 5.9 C 5.12 g/m*3 2.29 C 19.3 km/h
1466 11-01-2015 13:05:00 6.1 C 5.19 g/m*3 2.18 C 22.5 km/h
1467 11-01-2015 13:10:00 6 C 5.15 g/m*3 1.44 C 29 km/h
1468 11-01-2015 13:15:00 6 C 5.08 g/m*3 2.41 C 19.3 km/h
1469 11-01-2015 13:20:00 6 C 5.15 g/m*3 2.41 C 19.3 km/h
1470 11-01-2015 13:25:00 6 C 5.08 g/m*3 1.31 C 30.6 km/h
1471 11-01-2015 13:30:00 6.1 C 5.11 g/m*3 2.02 C 24.1 km/h
1472 11-01-2015 13:35:00 6.1 C 5.04 g/m*3 1.86 C 25.7 km/h
1473 11-01-2015 13:40:00 6.1 C 5.04 g/m*3 1.71 C 27.4 km/h
1474 11-01-2015 13:45:00 6.1 C 5.11 g/m*3 2.18 C 22.5 km/h
1475 11-01-2015 13:50:00 6 C 5.08 g/m*3 2.61 C 17.7 km/h
Sensor: Nr:Datum:Temp:Abs-Feuchte:Windchill:Wind:
Aussen-T/F 1476 11-01-2015 13:55:00 6 C 5.15 g/m*3 2.41 C 19.3 km/h
1477 11-01-2015 14:00:00 6.1 C 5.19 g/m*3 2.35 C 20.9 km/h
1478 11-01-2015 14:05:00 6.1 C 5.04 g/m*3 2.35 C 20.9 km/h
1479 11-01-2015 14:10:00 6.2 C 5.07 g/m*3 2.48 C 20.9 km/h
1480 11-01-2015 14:15:00 6.2 C 5.07 g/m*3 2.48 C 20.9 km/h
1481 11-01-2015 14:20:00 6.2 C 5.07 g/m*3 1.7 C 29 km/h
1482 11-01-2015 14:25:00 6.2 C 5.15 g/m*3 2.66 C 19.3 km/h
1483 11-01-2015 14:30:00 6.1 C 5.11 g/m*3 2.95 C 16.1 km/h
1484 11-01-2015 14:35:00 6.1 C 5.11 g/m*3 2.73 C 17.7 km/h
1485 11-01-2015 14:40:00 6.1 C 5.11 g/m*3 2.35 C 20.9 km/h
1486 11-01-2015 15:00:00 6.1 C 5.11 g/m*3 2.35 C 20.9 km/h
1487 11-01-2015 15:05:00 6.2 C 5.07 g/m*3 2.66 C 19.3 km/h
1488 11-01-2015 15:10:00 6.2 C 5.15 g/m*3 2.86 C 17.7 km/h
1489 11-01-2015 15:15:00 6.1 C 5.11 g/m*3 1.44 C 30.6 km/h
1490 11-01-2015 15:20:00 6.1 C 5.11 g/m*3 2.54 C 19.3 km/h
1491 11-01-2015 15:25:00 6.1 C 5.04 g/m*3 2.02 C 24.1 km/h
1492 11-01-2015 15:30:00 6.1 C 5.04 g/m*3 1.31 C 32.2 km/h
1493 11-01-2015 15:35:00 6.1 C 5.04 g/m*3 1.31 C 32.2 km/h
1494 11-01-2015 15:40:00 6 C 5.08 g/m*3 2.23 C 20.9 km/h
1495 11-01-2015 15:45:00 5.9 C 5.12 g/m*3 2.48 C 17.7 km/h
1496 11-01-2015 15:50:00 5.8 C 5.16 g/m*3 2.58 C 16.1 km/h
1497 11-01-2015 15:55:00 5.8 C 5.16 g/m*3 2.36 C 17.7 km/h
1498 11-01-2015 16:00:00 5.8 C 5.16 g/m*3 2.36 C 17.7 km/h
1499 11-01-2015 16:05:00 5.7 C 5.12 g/m*3 2.45 C 16.1 km/h
1500 11-01-2015 16:10:00 5.7 C 5.12 g/m*3 2.45 C 16.1 km/h
Sensor: Nr:Datum:Temp:Abs-Feuchte:Windchill:Wind:
Aussen-T/F 1501 11-01-2015 16:15:00 5.7 C 5.05 g/m*3 2.24 C 17.7 km/h
1502 11-01-2015 16:20:00 5.7 C 5.12 g/m*3 2.45 C 16.1 km/h
1503 11-01-2015 16:25:00 5.7 C 5.12 g/m*3 2.45 C 16.1 km/h
1504 11-01-2015 16:30:00 5.7 C 5.12 g/m*3 2.69 C 14.5 km/h
1505 11-01-2015 16:35:00 5.6 C 5.09 g/m*3 3.44 C 9.7 km/h
1506 11-01-2015 16:40:00 5.6 C 5.09 g/m*3 3.11 C 11.3 km/h
1507 11-01-2015 16:45:00 5.6 C 5.09 g/m*3 1.91 C 19.3 km/h
1508 11-01-2015 17:05:00 5.5 C 7.02 g/m*3 2.7 C 12.9 km/h
1509 11-01-2015 17:10:00 5.5 C 7.02 g/m*3 1.78 C 19.3 km/h
1510 11-01-2015 17:15:00 5.5 C 7.02 g/m*3 2.7 C 12.9 km/h
1511 11-01-2015 17:20:00 5.5 C 7.02 g/m*3 2.7 C 12.9 km/h
1512 11-01-2015 17:25:00 5.4 C 6.98 g/m*3 2.32 C 14.5 km/h
1513 11-01-2015 17:30:00 5.5 C 7.02 g/m*3 2.7 C 12.9 km/h
1514 11-01-2015 17:35:00 5.5 C 7.02 g/m*3 2.44 C 14.5 km/h
1515 11-01-2015 18:15:00 5.6 C 7.07 g/m*3 2.33 C 16.1 km/h
1516 11-01-2015 18:20:00 5.6 C 7.07 g/m*3 3.11 C 11.3 km/h
1517 11-01-2015 18:25:00 5.6 C 5.02 g/m*3 3.44 C 9.7 km/h
1518 11-01-2015 18:30:00 5.6 C 5.02 g/m*3 3.11 C 11.3 km/h
1519 11-01-2015 18:35:00 5.5 C 5.06 g/m*3 4.17 C 6.4 km/h
1520 11-01-2015 18:40:00 5.4 C 5.02 g/m*3 2.58 C 12.9 km/h
1521 11-01-2015 18:45:00 5.5 C 5.06 g/m*3 3.32 C 9.7 km/h
1522 11-01-2015 18:50:00 5.4 C 5.09 g/m*3 3.58 C 8.1 km/h
1523 11-01-2015 18:55:00 5.4 C 5.09 g/m*3 2.87 C 11.3 km/h
1524 11-01-2015 19:00:00 5.5 C 5.13 g/m*3 1.78 C 19.3 km/h
1525 11-01-2015 19:05:00 5.6 C 5.16 g/m*3 3.11 C 11.3 km/h
Sensor: Nr:Datum:Temp:Abs-Feuchte:Windchill:Wind:
Aussen-T/F 1526 11-01-2015 19:10:00 5.5 C 5.13 g/m*3 2.99 C 11.3 km/h
1527 11-01-2015 19:15:00 5.5 C 5.13 g/m*3 1.99 C 17.7 km/h
1528 11-01-2015 19:20:00 5.6 C 5.16 g/m*3 3.44 C 9.7 km/h
1529 11-01-2015 19:25:00 5.6 C 5.16 g/m*3 2.57 C 14.5 km/h
1530 11-01-2015 19:30:00 5.6 C 5.16 g/m*3 2.57 C 14.5 km/h
1531 11-01-2015 19:35:00 5.6 C 5.16 g/m*3 3.81 C 8.1 km/h
1532 11-01-2015 19:40:00 5.7 C 5.19 g/m*3 2.69 C 14.5 km/h
1533 11-01-2015 19:45:00 5.7 C 5.19 g/m*3 2.45 C 16.1 km/h
1534 11-01-2015 19:50:00 5.8 C 5.23 g/m*3 1.8 C 22.5 km/h
1535 11-01-2015 19:55:00 5.8 C 5.23 g/m*3 3.07 C 12.9 km/h
1536 11-01-2015 20:00:00 5.8 C 5.23 g/m*3 2.81 C 14.5 km/h
1537 11-01-2015 20:05:00 5.8 C 5.23 g/m*3 3.07 C 12.9 km/h
1538 11-01-2015 20:10:00 5.8 C 5.23 g/m*3 2.81 C 14.5 km/h
1539 11-01-2015 20:15:00 5.8 C 5.23 g/m*3 3.07 C 12.9 km/h
1540 11-01-2015 20:20:00 5.8 C 5.23 g/m*3 3.68 C 9.7 km/h
1541 11-01-2015 20:25:00 5.7 C 5.19 g/m*3 3.23 C 11.3 km/h
1542 11-01-2015 20:30:00 5.7 C 5.19 g/m*3 2.24 C 17.7 km/h
1543 11-01-2015 20:35:00 5.7 C 5.27 g/m*3 3.56 C 9.7 km/h
1544 11-01-2015 20:40:00 5.7 C 5.27 g/m*3 3.56 C 9.7 km/h
1545 11-01-2015 20:45:00 5.7 C 5.27 g/m*3 3.23 C 11.3 km/h
1546 11-01-2015 20:50:00 5.7 C 5.27 g/m*3 2.69 C 14.5 km/h
1547 11-01-2015 20:55:00 5.8 C 5.3 g/m*3 3.07 C 12.9 km/h
1548 11-01-2015 21:00:00 5.8 C 5.3 g/m*3 3.36 C 11.3 km/h
1549 11-01-2015 21:05:00 5.9 C 5.34 g/m*3 4.17 C 8.1 km/h
1550 11-01-2015 21:10:00 5.9 C 5.34 g/m*3 2.7 C 16.1 km/h
Sensor: Nr:Datum:Temp:Abs-Feuchte:Windchill:Wind:
Aussen-T/F 1551 11-01-2015 21:15:00 5.9 C 5.34 g/m*3 3.48 C 11.3 km/h
1552 11-01-2015 21:20:00 5.9 C 5.41 g/m*3 3.19 C 12.9 km/h
1553 11-01-2015 21:25:00 5.9 C 5.48 g/m*3 2.1 C 20.9 km/h
1554 11-01-2015 21:30:00 5.8 C 5.44 g/m*3 3.36 C 11.3 km/h
1555 11-01-2015 21:35:00 5.8 C 5.44 g/m*3 3.07 C 12.9 km/h
1556 11-01-2015 21:40:00 5.8 C 5.44 g/m*3 3.36 C 11.3 km/h
1557 11-01-2015 21:45:00 5.8 C 5.44 g/m*3 2.58 C 16.1 km/h
1558 11-01-2015 21:50:00 5.8 C 5.44 g/m*3 3.07 C 12.9 km/h
1559 11-01-2015 21:55:00 5.8 C 5.44 g/m*3 3.36 C 11.3 km/h
1560 11-01-2015 22:00:00 5.8 C 5.52 g/m*3 3.36 C 11.3 km/h
1561 11-01-2015 22:05:00 5.8 C 5.52 g/m*3 3.68 C 9.7 km/h
1562 11-01-2015 22:10:00 5.8 C 5.52 g/m*3 3.07 C 12.9 km/h
1563 11-01-2015 22:15:00 5.8 C 5.52 g/m*3 3.36 C 11.3 km/h
1564 12-01-2015 00:10:00 5.8 C 5.95 g/m*3 2.16 C 19.3 km/h
1565 12-01-2015 00:15:00 5.8 C 5.95 g/m*3 3.07 C 12.9 km/h
1566 12-01-2015 00:20:00 5.6 C 5.87 g/m*3 2.57 C 14.5 km/h
1567 12-01-2015 00:25:00 5.6 C 5.87 g/m*3 1.54 C 22.5 km/h
1568 12-01-2015 00:30:00 5.6 C 5.94 g/m*3 1.54 C 22.5 km/h
1569 12-01-2015 00:35:00 5.6 C 5.94 g/m*3 2.83 C 12.9 km/h
1570 12-01-2015 00:40:00 5.6 C 6.01 g/m*3 1.54 C 22.5 km/h
1571 12-01-2015 00:45:00 5.6 C 6.08 g/m*3 1.72 C 20.9 km/h
1572 12-01-2015 00:50:00 5.6 C 6.08 g/m*3 1.38 C 24.1 km/h
1573 12-01-2015 00:55:00 5.6 C 6.08 g/m*3 1.38 C 24.1 km/h
1574 12-01-2015 01:00:00 5.5 C 6.11 g/m*3 2.7 C 12.9 km/h
1575 12-01-2015 01:05:00 5.5 C 6.11 g/m*3 2.7 C 12.9 km/h
Sensor: Nr:Datum:Temp:Abs-Feuchte:Windchill:Wind:
Aussen-T/F 1576 12-01-2015 01:10:00 5.4 C 6.07 g/m*3 2.32 C 14.5 km/h
1577 12-01-2015 01:15:00 5.3 C 6.03 g/m*3 1.74 C 17.7 km/h
1578 12-01-2015 01:20:00 5.3 C 6.17 g/m*3 2.46 C 12.9 km/h
1579 12-01-2015 01:25:00 5.3 C 6.17 g/m*3 1.53 C 19.3 km/h
1580 12-01-2015 01:30:00 5.2 C 6.2 g/m*3 1.83 C 16.1 km/h
1581 12-01-2015 01:35:00 5.2 C 6.2 g/m*3 1.83 C 16.1 km/h
1582 12-01-2015 01:40:00 5.1 C 6.16 g/m*3 1.28 C 19.3 km/h
1583 12-01-2015 01:45:00 5.2 C 6.2 g/m*3 1.61 C 17.7 km/h
1584 12-01-2015 01:50:00 5.2 C 6.2 g/m*3 1.83 C 16.1 km/h
1585 12-01-2015 01:55:00 5.2 C 6.2 g/m*3 1.61 C 17.7 km/h
1586 12-01-2015 02:00:00 5.3 C 6.24 g/m*3 1.96 C 16.1 km/h
1587 12-01-2015 02:05:00 5.3 C 6.24 g/m*3 1.74 C 17.7 km/h
1588 12-01-2015 02:10:00 5.3 C 6.17 g/m*3 2.46 C 12.9 km/h
1589 12-01-2015 02:15:00 5.4 C 6.21 g/m*3 1.86 C 17.7 km/h
1590 12-01-2015 02:20:00 5.4 C 6.21 g/m*3 2.32 C 14.5 km/h
1591 12-01-2015 02:25:00 5.4 C 6.21 g/m*3 2.08 C 16.1 km/h
1592 12-01-2015 02:30:00 5.4 C 6.21 g/m*3 2.87 C 11.3 km/h
1593 12-01-2015 02:35:00 5.7 C 6.26 g/m*3 2.95 C 12.9 km/h
1594 12-01-2015 02:40:00 5.7 C 6.26 g/m*3 2.69 C 14.5 km/h
1595 12-01-2015 02:45:00 5.8 C 6.3 g/m*3 2.81 C 14.5 km/h
1596 12-01-2015 02:50:00 5.8 C 6.3 g/m*3 3.07 C 12.9 km/h
1597 12-01-2015 02:55:00 5.8 C 6.3 g/m*3 2.81 C 14.5 km/h
1598 12-01-2015 03:00:00 5.8 C 6.3 g/m*3 3.36 C 11.3 km/h
1599 12-01-2015 03:05:00 5.8 C 6.3 g/m*3 3.36 C 11.3 km/h
1600 12-01-2015 03:10:00 5.9 C 6.35 g/m*3 3.8 C 9.7 km/h
Sensor: Nr:Datum:Temp:Abs-Feuchte:Windchill:Wind:
Aussen-T/F 1601 12-01-2015 03:15:00 5.9 C 6.35 g/m*3 2.48 C 17.7 km/h
1602 12-01-2015 03:20:00 6 C 6.31 g/m*3 3.6 C 11.3 km/h
1603 12-01-2015 03:25:00 6 C 6.31 g/m*3 3.92 C 9.7 km/h
1604 12-01-2015 03:30:00 6.1 C 6.36 g/m*3 2.54 C 19.3 km/h
1605 12-01-2015 03:35:00 6.1 C 6.36 g/m*3 3.43 C 12.9 km/h
1606 12-01-2015 03:40:00 6.1 C 6.36 g/m*3 3.72 C 11.3 km/h
1607 12-01-2015 03:45:00 6.1 C 6.43 g/m*3 3.72 C 11.3 km/h
1608 12-01-2015 03:50:00 6.1 C 6.43 g/m*3 3.72 C 11.3 km/h
1609 12-01-2015 03:55:00 6.1 C 6.43 g/m*3 2.73 C 17.7 km/h
1610 12-01-2015 04:00:00 6.1 C 6.43 g/m*3 3.18 C 14.5 km/h
1611 12-01-2015 04:05:00 6.1 C 6.43 g/m*3 2.73 C 17.7 km/h
1612 12-01-2015 04:10:00 6.1 C 6.43 g/m*3 3.72 C 11.3 km/h
1613 12-01-2015 04:15:00 6.1 C 6.5 g/m*3 3.18 C 14.5 km/h
1614 12-01-2015 04:20:00 6 C 6.46 g/m*3 3.31 C 12.9 km/h
1615 12-01-2015 04:25:00 6 C 6.46 g/m*3 3.92 C 9.7 km/h
1616 12-01-2015 04:30:00 6 C 6.46 g/m*3 3.31 C 12.9 km/h
1617 12-01-2015 04:35:00 6 C 6.46 g/m*3 3.92 C 9.7 km/h
1618 12-01-2015 04:40:00 6.1 C 6.5 g/m*3 2.73 C 17.7 km/h
1619 12-01-2015 04:45:00 6.1 C 6.5 g/m*3 2.95 C 16.1 km/h
1620 12-01-2015 04:50:00 6.1 C 6.5 g/m*3 3.43 C 12.9 km/h
1621 12-01-2015 04:55:00 6.2 C 6.55 g/m*3 4.52 C 8.1 km/h
1622 12-01-2015 05:00:00 6.2 C 6.47 g/m*3 4.52 C 8.1 km/h
1623 12-01-2015 05:05:00 6.2 C 6.55 g/m*3 6.2 C 4.8 km/h
1624 12-01-2015 05:10:00 6.2 C 6.55 g/m*3 4.98 C 6.4 km/h
1625 12-01-2015 05:15:00 6.2 C 6.55 g/m*3 3.56 C 12.9 km/h
Sensor: Nr:Datum:Temp:Abs-Feuchte:Windchill:Wind:
Aussen-T/F 1626 12-01-2015 05:20:00 6.2 C 6.55 g/m*3 4.52 C 8.1 km/h
1627 12-01-2015 05:25:00 6.2 C 6.55 g/m*3 3.84 C 11.3 km/h
1628 12-01-2015 05:30:00 6.2 C 6.55 g/m*3 4.15 C 9.7 km/h
1629 12-01-2015 05:35:00 6.2 C 6.55 g/m*3 3.56 C 12.9 km/h
1630 12-01-2015 05:40:00 6.2 C 6.47 g/m*3 3.56 C 12.9 km/h
1631 12-01-2015 05:45:00 6.3 C 6.44 g/m*3 3.43 C 14.5 km/h
1632 12-01-2015 05:50:00 6.3 C 6.44 g/m*3 3.43 C 14.5 km/h
1633 12-01-2015 05:55:00 6.3 C 6.44 g/m*3 3.43 C 14.5 km/h
1634 12-01-2015 06:00:00 6.3 C 6.44 g/m*3 3.68 C 12.9 km/h
1635 12-01-2015 06:05:00 6.4 C 6.41 g/m*3 2.91 C 19.3 km/h
1636 12-01-2015 06:10:00 6.4 C 6.41 g/m*3 3.8 C 12.9 km/h
1637 12-01-2015 06:15:00 6.4 C 6.41 g/m*3 4.08 C 11.3 km/h
1638 12-01-2015 06:20:00 6.5 C 6.45 g/m*3 3.23 C 17.7 km/h
1639 12-01-2015 06:25:00 6.6 C 6.42 g/m*3 2.82 C 22.5 km/h
1640 12-01-2015 06:30:00 6.6 C 6.42 g/m*3 3.17 C 19.3 km/h
1641 12-01-2015 06:35:00 6.6 C 6.42 g/m*3 3.57 C 16.1 km/h
1642 12-01-2015 06:40:00 6.6 C 6.42 g/m*3 3.57 C 16.1 km/h
1643 12-01-2015 06:45:00 6.5 C 6.45 g/m*3 4.2 C 11.3 km/h
1644 12-01-2015 06:50:00 6.5 C 6.45 g/m*3 3.92 C 12.9 km/h
1645 12-01-2015 06:55:00 6.5 C 6.37 g/m*3 3.92 C 12.9 km/h
1646 12-01-2015 07:00:00 6.5 C 6.45 g/m*3 4.2 C 11.3 km/h
1647 12-01-2015 07:05:00 6.4 C 6.33 g/m*3 3.11 C 17.7 km/h
1648 12-01-2015 07:10:00 6.4 C 6.33 g/m*3 4.08 C 11.3 km/h
1649 12-01-2015 07:15:00 6.5 C 6.45 g/m*3 3.92 C 12.9 km/h
1650 12-01-2015 07:20:00 6.5 C 6.37 g/m*3 3.44 C 16.1 km/h
Sensor: Nr:Datum:Temp:Abs-Feuchte:Windchill:Wind:
Aussen-T/F 1651 12-01-2015 07:25:00 6.5 C 6.37 g/m*3 3.92 C 12.9 km/h
1652 12-01-2015 07:30:00 6.5 C 6.37 g/m*3 3.04 C 19.3 km/h
1653 12-01-2015 07:35:00 6.6 C 6.34 g/m*3 3.79 C 14.5 km/h
1654 12-01-2015 07:40:00 6.6 C 6.34 g/m*3 2.99 C 20.9 km/h
1655 12-01-2015 07:45:00 6.6 C 6.34 g/m*3 3.57 C 16.1 km/h
1656 12-01-2015 07:50:00 6.7 C 6.38 g/m*3 2.64 C 25.7 km/h
1657 12-01-2015 07:55:00 6.7 C 6.38 g/m*3 3.92 C 14.5 km/h
1658 12-01-2015 08:00:00 6.7 C 6.38 g/m*3 4.17 C 12.9 km/h
1659 12-01-2015 08:05:00 6.6 C 6.27 g/m*3 3.57 C 16.1 km/h
1660 12-01-2015 08:10:00 6.6 C 6.27 g/m*3 3.79 C 14.5 km/h
1661 12-01-2015 08:15:00 6.7 C 6.31 g/m*3 2.79 C 24.1 km/h
1662 12-01-2015 08:20:00 6.7 C 6.31 g/m*3 3.92 C 14.5 km/h
1663 12-01-2015 08:25:00 6.7 C 6.31 g/m*3 4.17 C 12.9 km/h
1664 12-01-2015 08:30:00 6.7 C 6.31 g/m*3 4.17 C 12.9 km/h
1665 12-01-2015 08:35:00 6.7 C 6.31 g/m*3 3.69 C 16.1 km/h
1666 12-01-2015 08:40:00 6.7 C 6.31 g/m*3 3.29 C 19.3 km/h
1667 12-01-2015 08:45:00 6.7 C 6.31 g/m*3 4.17 C 12.9 km/h
1668 12-01-2015 08:50:00 6.7 C 6.31 g/m*3 4.17 C 12.9 km/h
1669 12-01-2015 08:55:00 6.7 C 6.31 g/m*3 4.44 C 11.3 km/h
1670 12-01-2015 09:00:00 6.7 C 6.23 g/m*3 3.11 C 20.9 km/h
1671 12-01-2015 09:05:00 6.7 C 6.23 g/m*3 4.17 C 12.9 km/h
1672 12-01-2015 09:10:00 6.8 C 6.27 g/m*3 3.61 C 17.7 km/h
1673 12-01-2015 09:15:00 6.8 C 6.27 g/m*3 3.61 C 17.7 km/h
1674 12-01-2015 09:20:00 6.8 C 6.27 g/m*3 3.61 C 17.7 km/h
1675 12-01-2015 09:25:00 6.8 C 6.19 g/m*3 3.61 C 17.7 km/h
Sensor: Nr:Datum:Temp:Abs-Feuchte:Windchill:Wind:
Aussen-T/F 1676 12-01-2015 09:30:00 6.8 C 6.19 g/m*3 4.04 C 14.5 km/h
1677 12-01-2015 09:35:00 6.9 C 6.24 g/m*3 3.94 C 16.1 km/h
1678 12-01-2015 09:40:00 6.8 C 6.19 g/m*3 4.87 C 9.7 km/h
1679 12-01-2015 09:45:00 6.8 C 6.19 g/m*3 4.04 C 14.5 km/h
1680 12-01-2015 09:50:00 6.8 C 6.19 g/m*3 4.56 C 11.3 km/h
1681 12-01-2015 09:55:00 6.9 C 6.24 g/m*3 4.41 C 12.9 km/h
1682 12-01-2015 10:00:00 6.9 C 6.24 g/m*3 4.16 C 14.5 km/h
1683 12-01-2015 10:05:00 6.9 C 6.24 g/m*3 4.99 C 9.7 km/h
1684 12-01-2015 10:10:00 6.9 C 6.24 g/m*3 3.2 C 22.5 km/h
1685 12-01-2015 10:15:00 6.9 C 6.24 g/m*3 4.16 C 14.5 km/h
1686 12-01-2015 10:20:00 7 C 6.28 g/m*3 4.29 C 14.5 km/h
1687 12-01-2015 10:25:00 7.1 C 6.24 g/m*3 3.62 C 20.9 km/h
1688 12-01-2015 10:30:00 7.1 C 6.24 g/m*3 4.19 C 16.1 km/h
1689 12-01-2015 10:35:00 7.1 C 6.24 g/m*3 4.19 C 16.1 km/h
1690 12-01-2015 10:40:00 7.1 C 6.24 g/m*3 4.19 C 16.1 km/h
1691 12-01-2015 10:45:00 7.1 C 6.32 g/m*3 4.41 C 14.5 km/h
1692 12-01-2015 10:50:00 7.1 C 6.32 g/m*3 5.58 C 8.1 km/h
1693 12-01-2015 10:55:00 7 C 6.28 g/m*3 3.86 C 17.7 km/h
1694 12-01-2015 11:00:00 7 C 6.35 g/m*3 3.49 C 20.9 km/h
1695 12-01-2015 11:05:00 6.9 C 6.31 g/m*3 4.41 C 12.9 km/h
1696 12-01-2015 11:10:00 6.9 C 6.39 g/m*3 3.54 C 19.3 km/h
1697 12-01-2015 11:15:00 6.8 C 6.35 g/m*3 3.82 C 16.1 km/h
1698 12-01-2015 11:20:00 6.8 C 6.42 g/m*3 4.56 C 11.3 km/h
1699 12-01-2015 11:25:00 6.7 C 6.38 g/m*3 3.92 C 14.5 km/h
1700 12-01-2015 11:30:00 6.7 C 6.46 g/m*3 4.75 C 9.7 km/h
Sensor: Nr:Datum:Temp:Abs-Feuchte:Windchill:Wind:
Aussen-T/F 1701 12-01-2015 11:35:00 6.6 C 6.42 g/m*3 4.04 C 12.9 km/h
1702 12-01-2015 11:40:00 6.6 C 6.42 g/m*3 3.57 C 16.1 km/h
1703 12-01-2015 11:45:00 6.6 C 6.42 g/m*3 4.04 C 12.9 km/h
1704 12-01-2015 11:50:00 6.6 C 6.42 g/m*3 3.57 C 16.1 km/h
1705 12-01-2015 11:55:00 6.7 C 6.46 g/m*3 3.92 C 14.5 km/h
1706 12-01-2015 12:00:00 6.7 C 6.46 g/m*3 5.11 C 8.1 km/h
1707 12-01-2015 12:05:00 6.7 C 6.38 g/m*3 3.92 C 14.5 km/h
1708 12-01-2015 12:10:00 6.8 C 6.42 g/m*3 5.22 C 8.1 km/h
1709 12-01-2015 12:15:00 6.8 C 6.42 g/m*3 3.61 C 17.7 km/h
1710 12-01-2015 12:20:00 6.8 C 6.42 g/m*3 3.82 C 16.1 km/h
1711 12-01-2015 12:25:00 6.8 C 6.42 g/m*3 4.29 C 12.9 km/h
1712 12-01-2015 12:30:00 6.9 C 6.47 g/m*3 4.68 C 11.3 km/h
1713 12-01-2015 12:35:00 6.9 C 6.47 g/m*3 4.68 C 11.3 km/h
1714 12-01-2015 13:10:00 7.3 C 7.9 g/m*3 5.47 C 9.7 km/h
1715 12-01-2015 13:15:00 7.3 C 6.48 g/m*3 4.9 C 12.9 km/h
1716 12-01-2015 13:20:00 7.3 C 6.4 g/m*3 5.81 C 8.1 km/h
1717 12-01-2015 13:25:00 7.3 C 6.4 g/m*3 5.47 C 9.7 km/h
1718 12-01-2015 13:30:00 7.3 C 6.4 g/m*3 4.66 C 14.5 km/h
1719 12-01-2015 13:35:00 7.4 C 6.44 g/m*3 4.78 C 14.5 km/h
1720 12-01-2015 13:40:00 7.4 C 6.44 g/m*3 5.28 C 11.3 km/h
1721 12-01-2015 13:45:00 7.4 C 6.44 g/m*3 4.56 C 16.1 km/h
1722 12-01-2015 13:50:00 7.4 C 6.44 g/m*3 4.56 C 16.1 km/h
1723 12-01-2015 13:55:00 7.5 C 6.48 g/m*3 5.14 C 12.9 km/h
1724 12-01-2015 14:00:00 7.5 C 6.48 g/m*3 5.14 C 12.9 km/h
1725 12-01-2015 14:05:00 7.6 C 6.53 g/m*3 4.61 C 17.7 km/h
Sensor: Nr:Datum:Temp:Abs-Feuchte:Windchill:Wind:
Aussen-T/F 1726 12-01-2015 14:10:00 7.6 C 6.53 g/m*3 4.81 C 16.1 km/h
1727 12-01-2015 14:15:00 7.6 C 6.53 g/m*3 5.26 C 12.9 km/h
1728 12-01-2015 14:20:00 7.6 C 6.53 g/m*3 4.81 C 16.1 km/h
1729 12-01-2015 14:25:00 7.6 C 6.53 g/m*3 4.81 C 16.1 km/h
1730 12-01-2015 14:30:00 7.6 C 6.53 g/m*3 4.81 C 16.1 km/h
1731 12-01-2015 14:35:00 7.6 C 6.53 g/m*3 5.02 C 14.5 km/h
1732 12-01-2015 14:40:00 7.6 C 6.53 g/m*3 4.81 C 16.1 km/h
1733 12-01-2015 14:45:00 7.6 C 6.53 g/m*3 5.82 C 9.7 km/h
1734 12-01-2015 14:50:00 7.6 C 6.53 g/m*3 5.53 C 11.3 km/h
1735 12-01-2015 14:55:00 7.6 C 6.53 g/m*3 4.25 C 20.9 km/h
1736 12-01-2015 15:20:00 7.5 C 6.56 g/m*3 4.9 C 14.5 km/h
1737 12-01-2015 15:25:00 7.4 C 6.52 g/m*3 5.02 C 12.9 km/h
1738 12-01-2015 15:30:00 7.4 C 6.6 g/m*3 5.28 C 11.3 km/h
1739 12-01-2015 15:35:00 7.4 C 6.6 g/m*3 5.02 C 12.9 km/h
1740 12-01-2015 15:40:00 7.4 C 6.6 g/m*3 4.78 C 14.5 km/h
1741 12-01-2015 15:45:00 7.3 C 6.64 g/m*3 3.71 C 22.5 km/h
1742 12-01-2015 15:50:00 7.3 C 6.64 g/m*3 4.9 C 12.9 km/h
1743 12-01-2015 15:55:00 7.2 C 6.59 g/m*3 5.35 C 9.7 km/h
1744 12-01-2015 16:00:00 7.2 C 6.59 g/m*3 4.11 C 17.7 km/h
1745 12-01-2015 16:05:00 7.2 C 6.59 g/m*3 3.75 C 20.9 km/h
1746 12-01-2015 16:10:00 7.2 C 6.59 g/m*3 4.77 C 12.9 km/h
1747 12-01-2015 16:15:00 7.1 C 6.55 g/m*3 3.8 C 19.3 km/h
1748 12-01-2015 16:20:00 7.1 C 6.55 g/m*3 4.65 C 12.9 km/h
1749 12-01-2015 16:25:00 7.1 C 6.55 g/m*3 4.41 C 14.5 km/h
1750 12-01-2015 16:45:00 7.1 C 7.8 g/m*3 2.62 C 32.2 km/h
Sensor: Nr:Datum:Temp:Abs-Feuchte:Windchill:Wind:
Aussen-T/F 1751 12-01-2015 16:50:00 7.1 C 6.63 g/m*3 2.62 C 32.2 km/h
1752 12-01-2015 16:55:00 7.1 C 6.63 g/m*3 3.15 C 25.7 km/h
1753 12-01-2015 17:00:00 7.1 C 6.63 g/m*3 3.98 C 17.7 km/h
1754 12-01-2015 17:05:00 7.1 C 6.63 g/m*3 3.98 C 17.7 km/h
1755 12-01-2015 17:10:00 7.1 C 6.63 g/m*3 4.19 C 16.1 km/h
1756 12-01-2015 17:15:00 7.1 C 6.63 g/m*3 3.3 C 24.1 km/h
1757 12-01-2015 17:20:00 7.1 C 6.63 g/m*3 3.8 C 19.3 km/h
1758 12-01-2015 17:25:00 7.1 C 6.63 g/m*3 3.8 C 19.3 km/h
1759 12-01-2015 17:30:00 7.1 C 6.55 g/m*3 4.19 C 16.1 km/h
1760 12-01-2015 17:35:00 7.1 C 6.55 g/m*3 4.65 C 12.9 km/h
1761 12-01-2015 17:40:00 7.1 C 6.55 g/m*3 4.19 C 16.1 km/h
1762 12-01-2015 17:45:00 7.1 C 6.55 g/m*3 4.41 C 14.5 km/h
1763 12-01-2015 17:50:00 7.1 C 6.47 g/m*3 3.62 C 20.9 km/h
1764 12-01-2015 17:55:00 7.2 C 6.52 g/m*3 4.53 C 14.5 km/h
1765 12-01-2015 18:00:00 7.2 C 6.52 g/m*3 5.04 C 11.3 km/h
1766 12-01-2015 18:05:00 7.2 C 6.44 g/m*3 5.04 C 11.3 km/h
1767 12-01-2015 18:10:00 7.2 C 6.44 g/m*3 4.77 C 12.9 km/h
1768 12-01-2015 18:15:00 7.3 C 6.48 g/m*3 3.71 C 22.5 km/h
1769 12-01-2015 18:20:00 7.3 C 6.4 g/m*3 4.44 C 16.1 km/h
1770 12-01-2015 18:25:00 7.4 C 6.44 g/m*3 4.78 C 14.5 km/h
1771 12-01-2015 18:30:00 7.5 C 6.4 g/m*3 4.13 C 20.9 km/h
1772 12-01-2015 18:35:00 7.6 C 6.44 g/m*3 5.02 C 14.5 km/h
1773 12-01-2015 18:40:00 7.6 C 6.44 g/m*3 4.61 C 17.7 km/h
1774 12-01-2015 18:45:00 7.6 C 6.44 g/m*3 4.61 C 17.7 km/h
1775 12-01-2015 18:50:00 7.7 C 6.49 g/m*3 4.93 C 16.1 km/h
Sensor: Nr:Datum:Temp:Abs-Feuchte:Windchill:Wind:
Aussen-T/F 1776 12-01-2015 18:55:00 7.7 C 6.49 g/m*3 3.92 C 25.7 km/h
1777 12-01-2015 19:00:00 7.7 C 6.49 g/m*3 5.94 C 9.7 km/h
1778 12-01-2015 19:05:00 7.7 C 6.49 g/m*3 5.38 C 12.9 km/h
1779 12-01-2015 19:10:00 7.7 C 6.49 g/m*3 5.15 C 14.5 km/h
1780 12-01-2015 19:15:00 7.7 C 6.49 g/m*3 5.65 C 11.3 km/h
1781 12-01-2015 19:20:00 7.7 C 6.57 g/m*3 5.15 C 14.5 km/h
1782 12-01-2015 19:25:00 7.7 C 6.57 g/m*3 4.73 C 17.7 km/h
1783 12-01-2015 19:30:00 7.8 C 6.61 g/m*3 5.51 C 12.9 km/h
1784 12-01-2015 19:35:00 7.8 C 6.61 g/m*3 5.06 C 16.1 km/h
1785 12-01-2015 19:40:00 7.8 C 6.61 g/m*3 5.27 C 14.5 km/h
1786 12-01-2015 19:45:00 7.8 C 6.61 g/m*3 5.51 C 12.9 km/h
1787 12-01-2015 19:50:00 7.8 C 6.61 g/m*3 6.06 C 9.7 km/h
1788 12-01-2015 19:55:00 7.8 C 6.61 g/m*3 5.51 C 12.9 km/h
1789 12-01-2015 20:00:00 7.9 C 6.65 g/m*3 5.39 C 14.5 km/h
1790 12-01-2015 20:05:00 7.9 C 6.65 g/m*3 5.39 C 14.5 km/h
1791 12-01-2015 20:10:00 7.9 C 6.65 g/m*3 5.89 C 11.3 km/h
1792 12-01-2015 20:15:00 8 C 6.7 g/m*3 6.01 C 11.3 km/h
1793 12-01-2015 20:20:00 8.1 C 6.66 g/m*3 5.64 C 14.5 km/h
1794 12-01-2015 20:25:00 8.1 C 6.66 g/m*3 6.42 C 9.7 km/h
1795 12-01-2015 20:30:00 8.2 C 6.7 g/m*3 5.01 C 20.9 km/h
1796 12-01-2015 20:35:00 8.3 C 6.74 g/m*3 5.89 C 14.5 km/h
1797 12-01-2015 20:40:00 8.3 C 6.74 g/m*3 6.12 C 12.9 km/h
1798 12-01-2015 20:45:00 8.3 C 6.74 g/m*3 5.14 C 20.9 km/h
1799 12-01-2015 20:50:00 8.3 C 6.74 g/m*3 5.89 C 14.5 km/h
1800 12-01-2015 21:15:00 8.4 C 6.62 g/m*3 5.27 C 20.9 km/h
Sensor: Nr:Datum:Temp:Abs-Feuchte:Windchill:Wind:
Aussen-T/F 1801 12-01-2015 21:20:00 8.4 C 6.62 g/m*3 5.27 C 20.9 km/h
1802 12-01-2015 21:25:00 8.4 C 6.53 g/m*3 5.43 C 19.3 km/h
1803 12-01-2015 21:30:00 8.5 C 6.57 g/m*3 5.56 C 19.3 km/h
1804 12-01-2015 21:35:00 8.5 C 6.57 g/m*3 5.73 C 17.7 km/h
1805 12-01-2015 21:40:00 8.4 C 6.53 g/m*3 5.11 C 22.5 km/h
1806 12-01-2015 21:45:00 8.5 C 6.49 g/m*3 5.39 C 20.9 km/h
1807 12-01-2015 21:50:00 8.5 C 6.49 g/m*3 4.95 C 25.7 km/h
1808 12-01-2015 21:55:00 8.4 C 6.45 g/m*3 5.43 C 19.3 km/h
1809 12-01-2015 22:00:00 8.4 C 6.45 g/m*3 5.43 C 19.3 km/h
1810 12-01-2015 22:05:00 8.4 C 6.45 g/m*3 5.27 C 20.9 km/h
1811 12-01-2015 22:10:00 8.3 C 6.41 g/m*3 5.68 C 16.1 km/h
1812 12-01-2015 22:15:00 8.3 C 6.41 g/m*3 6.37 C 11.3 km/h
1813 12-01-2015 22:20:00 8.3 C 6.41 g/m*3 5.48 C 17.7 km/h
1814 12-01-2015 22:25:00 8.3 C 6.41 g/m*3 5.48 C 17.7 km/h
1815 12-01-2015 22:30:00 8.3 C 6.41 g/m*3 5.48 C 17.7 km/h
1816 12-01-2015 22:35:00 8.3 C 6.41 g/m*3 4.7 C 25.7 km/h
1817 12-01-2015 22:40:00 8.3 C 6.41 g/m*3 5.31 C 19.3 km/h
1818 12-01-2015 22:45:00 8.3 C 6.41 g/m*3 5.68 C 16.1 km/h
1819 12-01-2015 23:10:00 8.6 C 6.44 g/m*3 5.22 C 24.1 km/h
1820 12-01-2015 23:15:00 8.6 C 6.44 g/m*3 5.22 C 24.1 km/h
1821 12-01-2015 23:20:00 8.6 C 6.44 g/m*3 5.68 C 19.3 km/h
1822 12-01-2015 23:25:00 8.6 C 6.44 g/m*3 5.86 C 17.7 km/h
1823 12-01-2015 23:30:00 8.6 C 6.44 g/m*3 6.05 C 16.1 km/h
1824 12-01-2015 23:35:00 8.6 C 6.44 g/m*3 5.68 C 19.3 km/h
1825 12-01-2015 23:40:00 8.7 C 6.49 g/m*3 6.6 C 12.9 km/h
Sensor: Nr:Datum:Temp:Abs-Feuchte:Windchill:Wind:
Aussen-T/F 1826 12-01-2015 23:45:00 8.7 C 6.49 g/m*3 5.98 C 17.7 km/h
1827 12-01-2015 23:50:00 8.7 C 6.49 g/m*3 5.81 C 19.3 km/h
1828 12-01-2015 23:55:00 8.7 C 6.49 g/m*3 5.81 C 19.3 km/h
1829 13-01-2015 00:00:00 8.7 C 6.57 g/m*3 5.81 C 19.3 km/h
1830 13-01-2015 00:05:00 8.7 C 6.57 g/m*3 5.65 C 20.9 km/h
1831 13-01-2015 00:10:00 8.7 C 6.57 g/m*3 5.65 C 20.9 km/h
1832 13-01-2015 00:15:00 8.8 C 6.61 g/m*3 6.11 C 17.7 km/h
1833 13-01-2015 00:20:00 8.8 C 6.61 g/m*3 5.2 C 27.4 km/h
1834 13-01-2015 00:25:00 8.8 C 6.61 g/m*3 5.2 C 27.4 km/h
1835 13-01-2015 00:30:00 8.8 C 6.61 g/m*3 5.93 C 19.3 km/h
1836 13-01-2015 00:35:00 8.8 C 6.61 g/m*3 5.62 C 22.5 km/h
1837 13-01-2015 00:40:00 8.8 C 6.7 g/m*3 5.34 C 25.7 km/h
1838 13-01-2015 00:45:00 8.9 C 6.66 g/m*3 6.23 C 17.7 km/h
1839 13-01-2015 00:50:00 8.9 C 6.75 g/m*3 5.75 C 22.5 km/h
1840 13-01-2015 00:55:00 8.9 C 6.66 g/m*3 5.6 C 24.1 km/h
1841 13-01-2015 01:00:00 8.9 C 6.66 g/m*3 5.9 C 20.9 km/h
1842 13-01-2015 01:05:00 8.9 C 6.66 g/m*3 6.42 C 16.1 km/h
1843 13-01-2015 01:10:00 8.9 C 6.66 g/m*3 5.9 C 20.9 km/h
1844 13-01-2015 01:15:00 9 C 6.7 g/m*3 5.46 C 27.4 km/h
1845 13-01-2015 01:20:00 8.9 C 6.66 g/m*3 5.9 C 20.9 km/h
1846 13-01-2015 01:25:00 8.9 C 6.66 g/m*3 6.42 C 16.1 km/h
1847 13-01-2015 01:30:00 8.9 C 6.66 g/m*3 5.6 C 24.1 km/h
1848 13-01-2015 01:35:00 8.9 C 6.75 g/m*3 6.23 C 17.7 km/h
1849 13-01-2015 01:40:00 8.9 C 6.75 g/m*3 5.9 C 20.9 km/h
1850 13-01-2015 01:45:00 8.9 C 6.75 g/m*3 6.42 C 16.1 km/h
Sensor: Nr:Datum:Temp:Abs-Feuchte:Windchill:Wind:
Aussen-T/F 1851 13-01-2015 01:50:00 8.9 C 6.75 g/m*3 5.6 C 24.1 km/h
1852 13-01-2015 01:55:00 9 C 6.79 g/m*3 6.19 C 19.3 km/h
1853 13-01-2015 02:00:00 9.1 C 6.74 g/m*3 6.15 C 20.9 km/h
1854 13-01-2015 02:05:00 9.1 C 6.74 g/m*3 6 C 22.5 km/h
1855 13-01-2015 02:10:00 9.1 C 6.74 g/m*3 6.67 C 16.1 km/h
1856 13-01-2015 02:15:00 8.9 C 6.75 g/m*3 5.9 C 20.9 km/h
1857 13-01-2015 02:20:00 8.9 C 6.75 g/m*3 5.75 C 22.5 km/h
1858 13-01-2015 02:25:00 8.9 C 6.75 g/m*3 6.42 C 16.1 km/h
1859 13-01-2015 02:30:00 8.9 C 6.75 g/m*3 6.23 C 17.7 km/h
1860 13-01-2015 02:35:00 8.9 C 6.75 g/m*3 5.75 C 22.5 km/h
1861 13-01-2015 02:40:00 8.9 C 6.75 g/m*3 6.06 C 19.3 km/h
1862 13-01-2015 02:45:00 8.9 C 6.75 g/m*3 6.06 C 19.3 km/h
1863 13-01-2015 02:50:00 8.9 C 6.75 g/m*3 6.23 C 17.7 km/h
1864 13-01-2015 02:55:00 8.9 C 6.75 g/m*3 5.9 C 20.9 km/h
1865 13-01-2015 03:00:00 8.8 C 6.79 g/m*3 6.5 C 14.5 km/h
1866 13-01-2015 03:05:00 8.8 C 6.79 g/m*3 6.11 C 17.7 km/h
1867 13-01-2015 03:10:00 8.9 C 6.75 g/m*3 5.9 C 20.9 km/h
1868 13-01-2015 03:15:00 8.8 C 6.79 g/m*3 6.3 C 16.1 km/h
1869 13-01-2015 03:20:00 8.9 C 6.83 g/m*3 6.62 C 14.5 km/h
1870 13-01-2015 03:25:00 8.9 C 6.75 g/m*3 6.85 C 12.9 km/h
1871 13-01-2015 03:30:00 8.9 C 6.83 g/m*3 6.06 C 19.3 km/h
1872 13-01-2015 03:35:00 8.9 C 6.83 g/m*3 6.42 C 16.1 km/h
1873 13-01-2015 03:40:00 8.9 C 6.83 g/m*3 7.37 C 9.7 km/h
1874 13-01-2015 03:45:00 8.9 C 6.83 g/m*3 7.37 C 9.7 km/h
1875 13-01-2015 03:50:00 8.9 C 6.83 g/m*3 7.09 C 11.3 km/h
Sensor: Nr:Datum:Temp:Abs-Feuchte:Windchill:Wind:
Aussen-T/F 1876 13-01-2015 03:55:00 8.9 C 6.83 g/m*3 7.69 C 8.1 km/h
1877 13-01-2015 04:00:00 8.9 C 6.75 g/m*3 7.69 C 8.1 km/h
1878 13-01-2015 04:05:00 9.1 C 6.83 g/m*3 7.33 C 11.3 km/h
1879 13-01-2015 04:10:00 9.1 C 6.74 g/m*3 7.09 C 12.9 km/h
1880 13-01-2015 04:15:00 9.1 C 6.74 g/m*3 7.61 C 9.7 km/h
1881 13-01-2015 04:20:00 9.1 C 6.74 g/m*3 7.33 C 11.3 km/h
1882 13-01-2015 04:25:00 9.1 C 6.74 g/m*3 7.33 C 11.3 km/h
1883 13-01-2015 04:30:00 9.2 C 6.7 g/m*3 7.21 C 12.9 km/h
1884 13-01-2015 04:35:00 9.3 C 6.65 g/m*3 7.12 C 14.5 km/h
1885 13-01-2015 04:40:00 9.3 C 6.65 g/m*3 7.58 C 11.3 km/h
1886 13-01-2015 04:45:00 9.3 C 6.65 g/m*3 6.56 C 19.3 km/h
1887 13-01-2015 04:50:00 9.4 C 6.6 g/m*3 7.24 C 14.5 km/h
1888 13-01-2015 04:55:00 9.4 C 6.6 g/m*3 7.46 C 12.9 km/h
1889 13-01-2015 05:00:00 9.4 C 6.6 g/m*3 6.86 C 17.7 km/h
1890 13-01-2015 05:05:00 9.4 C 6.51 g/m*3 7.24 C 14.5 km/h
1891 13-01-2015 05:10:00 9.4 C 6.51 g/m*3 7.24 C 14.5 km/h
1892 13-01-2015 05:15:00 9.4 C 6.51 g/m*3 7.7 C 11.3 km/h
1893 13-01-2015 05:20:00 9.2 C 6.52 g/m*3 7.46 C 11.3 km/h
1894 13-01-2015 05:25:00 9.1 C 6.57 g/m*3 8.33 C 6.4 km/h
1895 13-01-2015 05:30:00 9 C 6.52 g/m*3 7.21 C 11.3 km/h
1896 13-01-2015 05:35:00 9.1 C 6.48 g/m*3 8.33 C 6.4 km/h
1897 13-01-2015 05:40:00 9.1 C 6.57 g/m*3 7.93 C 8.1 km/h
1898 13-01-2015 05:45:00 9.1 C 6.57 g/m*3 8.33 C 6.4 km/h
1899 13-01-2015 05:50:00 9.1 C 6.65 g/m*3 9.1 C 4.8 km/h
1900 13-01-2015 05:55:00 9 C 6.52 g/m*3 8.21 C 6.4 km/h
Sensor: Nr:Datum:Temp:Abs-Feuchte:Windchill:Wind:
Aussen-T/F 1901 13-01-2015 06:00:00 9.1 C 6.48 g/m*3 9.1 C 3.2 km/h
1902 13-01-2015 06:05:00 9.2 C 6.43 g/m*3 7.46 C 11.3 km/h
1903 13-01-2015 06:10:00 9.4 C 6.42 g/m*3 8.68 C 6.4 km/h
1904 13-01-2015 06:15:00 9.3 C 6.47 g/m*3 8.56 C 6.4 km/h
1905 13-01-2015 06:20:00 9.3 C 6.38 g/m*3 8.56 C 6.4 km/h
1906 13-01-2015 06:25:00 9.4 C 6.42 g/m*3 7.7 C 11.3 km/h
1907 13-01-2015 06:30:00 9.4 C 6.51 g/m*3 9.4 C 4.8 km/h
1908 13-01-2015 06:35:00 9.4 C 6.42 g/m*3 8.68 C 6.4 km/h
1909 13-01-2015 06:40:00 9.4 C 6.33 g/m*3 9.4 C 4.8 km/h
1910 13-01-2015 06:45:00 9.3 C 6.29 g/m*3 9.3 C 4.8 km/h
1911 13-01-2015 06:50:00 9.2 C 6.34 g/m*3 9.2 C 3.2 km/h
1912 13-01-2015 06:55:00 9.2 C 6.34 g/m*3 9.2 C 4.8 km/h
1913 13-01-2015 07:00:00 8.9 C 6.39 g/m*3 8.9 C 1.6 km/h
1914 13-01-2015 07:05:00 8.7 C 6.31 g/m*3 8.7 C 4.8 km/h
1915 13-01-2015 07:10:00 8.6 C 6.27 g/m*3 7.75 C 6.4 km/h
1916 13-01-2015 07:15:00 8.6 C 6.19 g/m*3 8.6 C 4.8 km/h
1917 13-01-2015 07:20:00 8.6 C 6.19 g/m*3 8.6 C 3.2 km/h
1918 13-01-2015 07:25:00 8.4 C 6.45 g/m*3 7.52 C 6.4 km/h
1919 13-01-2015 07:30:00 8.2 C 6.62 g/m*3 8.2 C 3.2 km/h
1920 13-01-2015 07:35:00 8.3 C 6.41 g/m*3 6.66 C 9.7 km/h
1921 13-01-2015 07:40:00 8.7 C 6.4 g/m*3 7.87 C 6.4 km/h
1922 13-01-2015 07:45:00 8.8 C 6.61 g/m*3 8.8 C 3.2 km/h
1923 13-01-2015 07:50:00 8.8 C 6.61 g/m*3 8.8 C 3.2 km/h
1924 13-01-2015 08:05:00 9 C 8.82 g/m*3 7.81 C 8.1 km/h
1925 13-01-2015 08:10:00 9 C 8.82 g/m*3 7.81 C 8.1 km/h
Sensor: Nr:Datum:Temp:Abs-Feuchte:Windchill:Wind:
Aussen-T/F 1926 13-01-2015 12:10:00 11.2 C 10.14 g/m*3 11.2 C 20.9 km/h
1927 13-01-2015 12:15:00 11.2 C 6.59 g/m*3 11.2 C 22.5 km/h
1928 13-01-2015 12:20:00 11.3 C 6.63 g/m*3 11.3 C 9.7 km/h
1929 13-01-2015 12:25:00 11.3 C 6.63 g/m*3 11.3 C 14.5 km/h
1930 13-01-2015 12:30:00 11.4 C 6.57 g/m*3 11.4 C 16.1 km/h
1931 13-01-2015 12:35:00 11.3 C 6.63 g/m*3 11.3 C 11.3 km/h
1932 13-01-2015 12:40:00 11.3 C 6.53 g/m*3 11.3 C 17.7 km/h
1933 13-01-2015 12:45:00 11.6 C 6.65 g/m*3 11.6 C 16.1 km/h
1934 13-01-2015 12:50:00 11.7 C 6.59 g/m*3 11.7 C 20.9 km/h
1935 13-01-2015 12:55:00 11.8 C 6.63 g/m*3 11.8 C 19.3 km/h
1936 13-01-2015 13:00:00 11.9 C 6.57 g/m*3 11.9 C 17.7 km/h
1937 13-01-2015 13:05:00 11.9 C 6.67 g/m*3 11.9 C 14.5 km/h
1938 13-01-2015 13:10:00 12.2 C 6.69 g/m*3 12.2 C 20.9 km/h
1939 13-01-2015 13:15:00 12.4 C 6.56 g/m*3 12.4 C 22.5 km/h
1940 13-01-2015 13:20:00 12.6 C 6.53 g/m*3 12.6 C 24.1 km/h
1941 13-01-2015 13:25:00 12.8 C 6.61 g/m*3 12.8 C 16.1 km/h
1942 13-01-2015 13:30:00 12.9 C 6.65 g/m*3 12.9 C 17.7 km/h
1943 13-01-2015 13:35:00 13.1 C 6.62 g/m*3 13.1 C 14.5 km/h
1944 13-01-2015 13:40:00 13.2 C 6.66 g/m*3 13.2 C 14.5 km/h
1945 13-01-2015 13:45:00 13.2 C 6.66 g/m*3 13.2 C 20.9 km/h
1946 13-01-2015 13:50:00 13.2 C 6.54 g/m*3 13.2 C 19.3 km/h
1947 13-01-2015 13:55:00 13.3 C 6.59 g/m*3 13.3 C 25.7 km/h
1948 13-01-2015 14:00:00 13.3 C 6.47 g/m*3 13.3 C 17.7 km/h
1949 13-01-2015 14:05:00 13.3 C 6.59 g/m*3 13.3 C 27.4 km/h
1950 13-01-2015 14:10:00 13.4 C 6.51 g/m*3 13.4 C 25.7 km/h
Sensor: Nr:Datum:Temp:Abs-Feuchte:Windchill:Wind:
Aussen-T/F 1951 13-01-2015 14:15:00 13.3 C 6.47 g/m*3 13.3 C 25.7 km/h
1952 13-01-2015 14:20:00 13.4 C 6.51 g/m*3 13.4 C 20.9 km/h
1953 13-01-2015 14:25:00 13.6 C 6.71 g/m*3 13.6 C 20.9 km/h
1954 13-01-2015 14:30:00 13.6 C 6.59 g/m*3 13.6 C 22.5 km/h
1955 13-01-2015 14:35:00 13.6 C 6.59 g/m*3 13.6 C 24.1 km/h
1956 13-01-2015 14:40:00 13.6 C 6.59 g/m*3 13.6 C 17.7 km/h
1957 13-01-2015 14:45:00 13.6 C 6.59 g/m*3 13.6 C 14.5 km/h
1958 13-01-2015 14:50:00 13.5 C 6.55 g/m*3 13.5 C 24.1 km/h
1959 13-01-2015 14:55:00 13.5 C 6.55 g/m*3 13.5 C 20.9 km/h
1960 13-01-2015 15:00:00 13.4 C 6.63 g/m*3 13.4 C 24.1 km/h
1961 13-01-2015 15:05:00 13.4 C 6.63 g/m*3 13.4 C 19.3 km/h
1962 13-01-2015 15:10:00 13.5 C 6.78 g/m*3 13.5 C 16.1 km/h
1963 13-01-2015 15:15:00 13.5 C 6.78 g/m*3 13.5 C 14.5 km/h
1964 13-01-2015 15:20:00 13.4 C 6.74 g/m*3 13.4 C 25.7 km/h
1965 13-01-2015 15:25:00 13.4 C 6.74 g/m*3 13.4 C 14.5 km/h
1966 13-01-2015 15:30:00 13.4 C 6.74 g/m*3 13.4 C 11.3 km/h
1967 13-01-2015 15:35:00 13.1 C 6.62 g/m*3 13.1 C 16.1 km/h
1968 13-01-2015 15:40:00 13.1 C 6.62 g/m*3 13.1 C 12.9 km/h
1969 13-01-2015 16:10:00 11.9 C 7.84 g/m*3 11.9 C 19.3 km/h
1970 13-01-2015 16:15:00 11.9 C 7.84 g/m*3 11.9 C 17.7 km/h
1971 13-01-2015 16:20:00 11.9 C 7.94 g/m*3 11.9 C 20.9 km/h
1972 13-01-2015 16:25:00 11.8 C 8 g/m*3 11.8 C 11.3 km/h
1973 13-01-2015 16:30:00 11.7 C 7.95 g/m*3 11.7 C 22.5 km/h
1974 13-01-2015 16:35:00 11.7 C 8.05 g/m*3 11.7 C 16.1 km/h
1975 13-01-2015 16:40:00 11.7 C 8.05 g/m*3 11.7 C 32.2 km/h
Sensor: Nr:Datum:Temp:Abs-Feuchte:Windchill:Wind:
Aussen-T/F 1976 13-01-2015 16:45:00 11.7 C 8.05 g/m*3 11.7 C 19.3 km/h
1977 13-01-2015 16:50:00 11.6 C 8.11 g/m*3 11.6 C 19.3 km/h
1978 13-01-2015 16:55:00 11.5 C 8.06 g/m*3 11.5 C 22.5 km/h
1979 13-01-2015 17:00:00 11.4 C 8.11 g/m*3 11.4 C 11.3 km/h
1980 13-01-2015 17:05:00 11.4 C 8.21 g/m*3 11.4 C 17.7 km/h
1981 13-01-2015 17:10:00 11.3 C 8.16 g/m*3 11.3 C 14.5 km/h
1982 13-01-2015 17:15:00 11.3 C 8.26 g/m*3 11.3 C 19.3 km/h
1983 13-01-2015 17:20:00 11.2 C 8.21 g/m*3 11.2 C 14.5 km/h
1984 13-01-2015 17:25:00 11.2 C 8.21 g/m*3 11.2 C 32.2 km/h
1985 13-01-2015 17:30:00 11.1 C 8.16 g/m*3 11.1 C 17.7 km/h
1986 13-01-2015 17:35:00 11.1 C 8.16 g/m*3 11.1 C 17.7 km/h
1987 13-01-2015 17:40:00 11.1 C 8.16 g/m*3 11.1 C 22.5 km/h
1988 13-01-2015 17:45:00 11.1 C 8.26 g/m*3 11.1 C 11.3 km/h
1989 13-01-2015 17:50:00 11 C 8.21 g/m*3 9.02 C 16.1 km/h
1990 13-01-2015 17:55:00 10.9 C 8.26 g/m*3 8.73 C 17.7 km/h
1991 13-01-2015 18:00:00 10.8 C 8.2 g/m*3 8.61 C 17.7 km/h
1992 13-01-2015 18:05:00 10.8 C 8.2 g/m*3 8.61 C 17.7 km/h
1993 13-01-2015 18:10:00 10.8 C 8.2 g/m*3 8.78 C 16.1 km/h
1994 13-01-2015 18:15:00 10.8 C 8.2 g/m*3 8.3 C 20.9 km/h
1995 13-01-2015 18:20:00 10.8 C 8.11 g/m*3 8.3 C 20.9 km/h
1996 13-01-2015 18:25:00 10.8 C 8.2 g/m*3 8.45 C 19.3 km/h
1997 13-01-2015 18:30:00 10.8 C 8.11 g/m*3 8.3 C 20.9 km/h
1998 13-01-2015 18:35:00 10.8 C 8.11 g/m*3 8.04 C 24.1 km/h
1999 13-01-2015 18:40:00 10.8 C 8.11 g/m*3 7.68 C 29 km/h
2000 13-01-2015 18:45:00 10.7 C 8.15 g/m*3 8.18 C 20.9 km/h
Sensor: Nr:Datum:Temp:Abs-Feuchte:Windchill:Wind:
Aussen-T/F 2001 13-01-2015 18:50:00 10.6 C 8.1 g/m*3 7.66 C 25.7 km/h
2002 13-01-2015 18:55:00 10.4 C 8.19 g/m*3 7.16 C 29 km/h
2003 13-01-2015 19:00:00 10.3 C 8.14 g/m*3 7.98 C 17.7 km/h
2004 13-01-2015 19:05:00 10.2 C 8.09 g/m*3 7.4 C 22.5 km/h
2005 13-01-2015 19:10:00 10.2 C 8.09 g/m*3 7.02 C 27.4 km/h
2006 13-01-2015 19:15:00 10.2 C 8.09 g/m*3 7.4 C 22.5 km/h
2007 13-01-2015 19:20:00 10.1 C 8.04 g/m*3 7.42 C 20.9 km/h
2008 13-01-2015 19:25:00 10.1 C 8.04 g/m*3 7.42 C 20.9 km/h
2009 13-01-2015 19:30:00 10.2 C 7.99 g/m*3 7.02 C 27.4 km/h
2010 13-01-2015 19:35:00 10.1 C 8.04 g/m*3 7.91 C 16.1 km/h
2011 13-01-2015 19:40:00 10.1 C 8.04 g/m*3 7.91 C 16.1 km/h
2012 13-01-2015 19:45:00 10.1 C 8.04 g/m*3 8.1 C 14.5 km/h
2013 13-01-2015 19:50:00 10.1 C 8.04 g/m*3 7.91 C 16.1 km/h
2014 13-01-2015 19:55:00 9.9 C 8.03 g/m*3 7.16 C 20.9 km/h
2015 13-01-2015 20:00:00 9.9 C 8.03 g/m*3 7.32 C 19.3 km/h
2016 13-01-2015 20:05:00 9.9 C 8.03 g/m*3 7.48 C 17.7 km/h
2017 13-01-2015 20:10:00 9.8 C 7.98 g/m*3 7.73 C 14.5 km/h
2018 13-01-2015 20:15:00 9.6 C 8.06 g/m*3 6.94 C 19.3 km/h
2019 13-01-2015 20:20:00 9.6 C 8.06 g/m*3 7.94 C 11.3 km/h
2020 13-01-2015 20:25:00 9.5 C 8.01 g/m*3 8.4 C 8.1 km/h
2021 13-01-2015 20:30:00 9.5 C 8.01 g/m*3 7.82 C 11.3 km/h
2022 13-01-2015 21:40:00 8.9 C 7.36 g/m*3 8.1 C 6.4 km/h
2023 13-01-2015 21:45:00 8.9 C 7.36 g/m*3 7.09 C 11.3 km/h
2024 13-01-2015 21:50:00 8.7 C 7.26 g/m*3 8.7 C 4.8 km/h
2025 13-01-2015 21:55:00 8.6 C 7.3 g/m*3 7.01 C 9.7 km/h
Sensor: Nr:Datum:Temp:Abs-Feuchte:Windchill:Wind:
Aussen-T/F 2026 13-01-2015 22:00:00 8.7 C 7.35 g/m*3 8.7 C 4.8 km/h
2027 13-01-2015 22:05:00 8.7 C 7.35 g/m*3 7.13 C 9.7 km/h
2028 13-01-2015 22:10:00 8.8 C 7.4 g/m*3 7.25 C 9.7 km/h
2029 13-01-2015 22:15:00 8.8 C 7.31 g/m*3 7.58 C 8.1 km/h
2030 13-01-2015 22:20:00 8.8 C 7.31 g/m*3 7.25 C 9.7 km/h
2031 13-01-2015 22:25:00 8.8 C 7.31 g/m*3 6.97 C 11.3 km/h
2032 13-01-2015 22:30:00 8.9 C 7.36 g/m*3 7.09 C 11.3 km/h
2033 13-01-2015 22:35:00 8.8 C 7.31 g/m*3 6.97 C 11.3 km/h
2034 13-01-2015 22:40:00 8.8 C 7.31 g/m*3 7.58 C 8.1 km/h
2035 13-01-2015 22:45:00 8.8 C 7.31 g/m*3 8.8 C 4.8 km/h
2036 13-01-2015 22:50:00 8.7 C 7.35 g/m*3 7.87 C 6.4 km/h
2037 13-01-2015 22:55:00 8.5 C 7.34 g/m*3 8.5 C 4.8 km/h
2038 13-01-2015 23:00:00 8.4 C 7.3 g/m*3 8.4 C 4.8 km/h
2039 13-01-2015 23:05:00 8.3 C 7.25 g/m*3 8.3 C 3.2 km/h
2040 13-01-2015 23:10:00 8.3 C 7.25 g/m*3 8.3 C 4.8 km/h
2041 13-01-2015 23:15:00 8.3 C 7.25 g/m*3 6.37 C 11.3 km/h
2042 13-01-2015 23:20:00 8.3 C 7.25 g/m*3 6.66 C 9.7 km/h
2043 13-01-2015 23:25:00 8.3 C 7.25 g/m*3 7.41 C 6.4 km/h
2044 13-01-2015 23:30:00 8.4 C 7.3 g/m*3 8.4 C 4.8 km/h
2045 13-01-2015 23:35:00 8.4 C 7.3 g/m*3 7.52 C 6.4 km/h
2046 13-01-2015 23:40:00 8.5 C 7.34 g/m*3 8.5 C 4.8 km/h
2047 13-01-2015 23:45:00 8.4 C 7.3 g/m*3 8.4 C 4.8 km/h
2048 13-01-2015 23:50:00 8.4 C 7.3 g/m*3 6.78 C 9.7 km/h
2049 13-01-2015 23:55:00 8.4 C 7.3 g/m*3 8.4 C 4.8 km/h
2050 14-01-2015 00:00:00 8.4 C 7.3 g/m*3 7.52 C 6.4 km/h
Sensor: Nr:Datum:Temp:Abs-Feuchte:Windchill:Wind:
Aussen-T/F 2051 14-01-2015 00:05:00 8.3 C 7.25 g/m*3 8.3 C 3.2 km/h
2052 14-01-2015 00:10:00 8.3 C 7.33 g/m*3 8.3 C 4.8 km/h
2053 14-01-2015 00:15:00 8.3 C 7.33 g/m*3 7.41 C 6.4 km/h
2054 14-01-2015 00:20:00 8.4 C 7.3 g/m*3 8.4 C 4.8 km/h
2055 14-01-2015 00:25:00 8.5 C 7.34 g/m*3 7.64 C 6.4 km/h
2056 14-01-2015 00:30:00 8.5 C 7.34 g/m*3 7.22 C 8.1 km/h
2057 14-01-2015 00:35:00 8.6 C 7.39 g/m*3 6.73 C 11.3 km/h
2058 14-01-2015 00:40:00 8.6 C 7.39 g/m*3 6.73 C 11.3 km/h
2059 14-01-2015 00:45:00 8.6 C 7.39 g/m*3 7.75 C 6.4 km/h
2060 14-01-2015 00:50:00 8.6 C 7.39 g/m*3 8.6 C 4.8 km/h
2061 14-01-2015 00:55:00 8.4 C 7.3 g/m*3 7.52 C 6.4 km/h
2062 14-01-2015 01:00:00 8.4 C 7.3 g/m*3 8.4 C 4.8 km/h
2063 14-01-2015 01:05:00 8.4 C 7.3 g/m*3 8.4 C 3.2 km/h
2064 14-01-2015 01:10:00 8.3 C 7.33 g/m*3 8.3 C 4.8 km/h
2065 14-01-2015 01:15:00 8.2 C 7.29 g/m*3 8.2 C 3.2 km/h
2066 14-01-2015 01:20:00 8.2 C 7.37 g/m*3 8.2 C 4.8 km/h
2067 14-01-2015 01:25:00 8.1 C 7.32 g/m*3 8.1 C 1.6 km/h
2068 14-01-2015 01:30:00 8 C 7.36 g/m*3 8 C 1.6 km/h
2069 14-01-2015 01:35:00 7.9 C 7.31 g/m*3 7.9 C 1.6 km/h
2070 14-01-2015 01:40:00 8 C 7.36 g/m*3 7.06 C 6.4 km/h
2071 14-01-2015 01:45:00 8.1 C 7.32 g/m*3 7.17 C 6.4 km/h
2072 14-01-2015 01:50:00 8.3 C 7.33 g/m*3 6.66 C 9.7 km/h
2073 14-01-2015 01:55:00 8.3 C 7.25 g/m*3 6.99 C 8.1 km/h
2074 14-01-2015 02:00:00 8.3 C 7.25 g/m*3 6.66 C 9.7 km/h
2075 14-01-2015 02:05:00 8.2 C 7.2 g/m*3 7.29 C 6.4 km/h
Sensor: Nr:Datum:Temp:Abs-Feuchte:Windchill:Wind:
Aussen-T/F 2076 14-01-2015 02:10:00 8.2 C 7.2 g/m*3 6.87 C 8.1 km/h
2077 14-01-2015 02:15:00 8.2 C 7.2 g/m*3 7.29 C 6.4 km/h
2078 14-01-2015 02:20:00 8.1 C 7.16 g/m*3 7.17 C 6.4 km/h
2079 14-01-2015 02:25:00 8.2 C 7.2 g/m*3 8.2 C 3.2 km/h
2080 14-01-2015 02:30:00 8.2 C 7.2 g/m*3 8.2 C 3.2 km/h
2081 14-01-2015 02:35:00 8 C 7.11 g/m*3 7.06 C 6.4 km/h
2082 14-01-2015 02:40:00 8.1 C 7.16 g/m*3 5.87 C 12.9 km/h
2083 14-01-2015 02:45:00 8.3 C 7.08 g/m*3 5.68 C 16.1 km/h
2084 14-01-2015 02:50:00 8.5 C 7 g/m*3 5.09 C 24.1 km/h
2085 14-01-2015 02:55:00 8.6 C 6.96 g/m*3 5.37 C 22.5 km/h
2086 14-01-2015 03:00:00 8.6 C 6.87 g/m*3 6.73 C 11.3 km/h
2087 14-01-2015 03:05:00 8.6 C 6.79 g/m*3 5.37 C 22.5 km/h
2088 14-01-2015 03:10:00 8.7 C 6.83 g/m*3 6.17 C 16.1 km/h
2089 14-01-2015 03:15:00 8.7 C 6.83 g/m*3 7.13 C 9.7 km/h
2090 14-01-2015 03:20:00 8.7 C 6.83 g/m*3 5.98 C 17.7 km/h
2091 14-01-2015 03:25:00 8.7 C 6.75 g/m*3 5.49 C 22.5 km/h
2092 14-01-2015 03:30:00 8.7 C 6.75 g/m*3 6.17 C 16.1 km/h
2093 14-01-2015 03:35:00 8.7 C 6.83 g/m*3 6.17 C 16.1 km/h
2094 14-01-2015 03:40:00 8.8 C 6.79 g/m*3 5.48 C 24.1 km/h
2095 14-01-2015 03:45:00 8.7 C 6.75 g/m*3 6.6 C 12.9 km/h
2096 14-01-2015 03:50:00 8.7 C 6.66 g/m*3 5.35 C 24.1 km/h
2097 14-01-2015 03:55:00 8.8 C 6.61 g/m*3 4.75 C 33.8 km/h
2098 14-01-2015 04:00:00 8.8 C 6.53 g/m*3 4.97 C 30.6 km/h
2099 14-01-2015 04:05:00 8.8 C 6.53 g/m*3 5.77 C 20.9 km/h
2100 14-01-2015 04:10:00 8.8 C 6.53 g/m*3 5.62 C 22.5 km/h
Sensor: Nr:Datum:Temp:Abs-Feuchte:Windchill:Wind:
Aussen-T/F 2101 14-01-2015 04:15:00 8.8 C 6.53 g/m*3 5.62 C 22.5 km/h
2102 14-01-2015 04:20:00 8.8 C 6.44 g/m*3 5.62 C 22.5 km/h
2103 14-01-2015 04:25:00 8.7 C 6.49 g/m*3 5.81 C 19.3 km/h
2104 14-01-2015 04:30:00 8.7 C 6.49 g/m*3 5.81 C 19.3 km/h
2105 14-01-2015 04:35:00 8.8 C 6.61 g/m*3 4.45 C 38.6 km/h
2106 14-01-2015 04:40:00 8.6 C 6.79 g/m*3 5.52 C 20.9 km/h
2107 14-01-2015 04:45:00 8.4 C 6.7 g/m*3 6.24 C 12.9 km/h
2108 14-01-2015 04:50:00 8.4 C 6.87 g/m*3 6.24 C 12.9 km/h
2109 14-01-2015 04:55:00 7.8 C 6.94 g/m*3 4.51 C 20.9 km/h
2110 14-01-2015 05:00:00 7.4 C 6.92 g/m*3 3.68 C 24.1 km/h
2111 14-01-2015 05:05:00 7 C 6.66 g/m*3 3.17 C 24.1 km/h
2112 14-01-2015 05:10:00 6.7 C 6.46 g/m*3 3.29 C 19.3 km/h
2113 14-01-2015 05:15:00 6.6 C 6.34 g/m*3 2.36 C 27.4 km/h
2114 14-01-2015 05:20:00 6.3 C 6.22 g/m*3 3.68 C 12.9 km/h
2115 14-01-2015 05:25:00 6.2 C 6.25 g/m*3 3.84 C 11.3 km/h
2116 14-01-2015 05:30:00 6.1 C 6.28 g/m*3 4.04 C 9.7 km/h
2117 14-01-2015 05:35:00 6.1 C 6.28 g/m*3 4.04 C 9.7 km/h
2118 14-01-2015 05:40:00 5.9 C 6.06 g/m*3 2.1 C 20.9 km/h
2119 14-01-2015 05:45:00 5.9 C 6.06 g/m*3 3.8 C 9.7 km/h
2120 14-01-2015 05:50:00 5.9 C 6.06 g/m*3 3.48 C 11.3 km/h
2121 14-01-2015 05:55:00 5.8 C 6.09 g/m*3 4.05 C 8.1 km/h
2122 14-01-2015 06:00:00 5.6 C 6.08 g/m*3 4.29 C 6.4 km/h
2123 14-01-2015 06:05:00 5.4 C 6 g/m*3 3.58 C 8.1 km/h
2124 14-01-2015 06:10:00 5.4 C 6 g/m*3 4.06 C 6.4 km/h
2125 14-01-2015 06:15:00 5.3 C 6.03 g/m*3 3.46 C 8.1 km/h
Sensor: Nr:Datum:Temp:Abs-Feuchte:Windchill:Wind:
Aussen-T/F 2126 14-01-2015 06:20:00 5.3 C 5.96 g/m*3 3.46 C 8.1 km/h
2127 14-01-2015 06:25:00 5.3 C 5.96 g/m*3 2.46 C 12.9 km/h
2128 14-01-2015 06:30:00 5.3 C 5.89 g/m*3 2.75 C 11.3 km/h
2129 14-01-2015 06:35:00 5.3 C 5.89 g/m*3 5.3 C 3.2 km/h
2130 14-01-2015 06:40:00 5.3 C 5.89 g/m*3 5.3 C 4.8 km/h
2131 14-01-2015 06:45:00 5.2 C 5.85 g/m*3 2.96 C 9.7 km/h
2132 14-01-2015 06:50:00 5.2 C 5.85 g/m*3 2.96 C 9.7 km/h
2133 14-01-2015 06:55:00 5.3 C 5.82 g/m*3 2.46 C 12.9 km/h
2134 14-01-2015 07:00:00 5.3 C 5.75 g/m*3 3.94 C 6.4 km/h
2135 14-01-2015 07:05:00 5.3 C 5.75 g/m*3 3.08 C 9.7 km/h
2136 14-01-2015 07:10:00 5.4 C 5.79 g/m*3 2.58 C 12.9 km/h
2137 14-01-2015 07:15:00 5.4 C 5.79 g/m*3 2.58 C 12.9 km/h
2138 14-01-2015 07:20:00 5.6 C 5.73 g/m*3 2.83 C 12.9 km/h
2139 14-01-2015 07:25:00 5.6 C 5.73 g/m*3 3.81 C 8.1 km/h
2140 14-01-2015 07:30:00 5.6 C 5.73 g/m*3 4.29 C 6.4 km/h
2141 14-01-2015 07:35:00 5.2 C 5.71 g/m*3 3.82 C 6.4 km/h
2142 14-01-2015 07:40:00 5.2 C 5.71 g/m*3 5.2 C 4.8 km/h
2143 14-01-2015 07:45:00 5.2 C 5.78 g/m*3 2.96 C 9.7 km/h
2144 14-01-2015 07:50:00 5.1 C 5.68 g/m*3 3.71 C 6.4 km/h
2145 14-01-2015 07:55:00 5.1 C 5.75 g/m*3 3.71 C 6.4 km/h
2146 14-01-2015 08:00:00 5 C 5.71 g/m*3 2.72 C 9.7 km/h
2147 14-01-2015 08:05:00 4.9 C 5.67 g/m*3 2.99 C 8.1 km/h
2148 14-01-2015 08:10:00 5.1 C 5.68 g/m*3 2.51 C 11.3 km/h
2149 14-01-2015 08:15:00 5.2 C 5.65 g/m*3 2.63 C 11.3 km/h
2150 14-01-2015 08:20:00 5.2 C 5.65 g/m*3 2.96 C 9.7 km/h
Sensor: Nr:Datum:Temp:Abs-Feuchte:Windchill:Wind:
Aussen-T/F 2151 14-01-2015 08:25:00 5.1 C 5.61 g/m*3 5.1 C 4.8 km/h
2152 14-01-2015 08:30:00 5.1 C 5.61 g/m*3 1.71 C 16.1 km/h
2153 14-01-2015 08:35:00 5.1 C 5.68 g/m*3 5.1 C 4.8 km/h
2154 14-01-2015 08:40:00 5 C 5.57 g/m*3 3.11 C 8.1 km/h
2155 14-01-2015 08:45:00 5.1 C 5.61 g/m*3 3.23 C 8.1 km/h
2156 14-01-2015 08:50:00 5.1 C 5.61 g/m*3 2.84 C 9.7 km/h
2157 14-01-2015 08:55:00 5.1 C 5.61 g/m*3 3.71 C 6.4 km/h
2158 14-01-2015 09:00:00 5 C 5.57 g/m*3 3.59 C 6.4 km/h
2159 14-01-2015 09:05:00 5 C 5.64 g/m*3 3.59 C 6.4 km/h
2160 14-01-2015 09:10:00 5 C 5.64 g/m*3 5 C 4.8 km/h
2161 14-01-2015 09:15:00 5.1 C 5.68 g/m*3 2.84 C 9.7 km/h
2162 14-01-2015 09:20:00 5.2 C 5.71 g/m*3 5.2 C 4.8 km/h
2163 14-01-2015 09:25:00 5.3 C 5.75 g/m*3 3.08 C 9.7 km/h
2164 14-01-2015 09:30:00 5.4 C 5.72 g/m*3 2.32 C 14.5 km/h
2165 14-01-2015 09:35:00 5.4 C 5.72 g/m*3 2.08 C 16.1 km/h
2166 14-01-2015 09:40:00 5.5 C 5.76 g/m*3 3.32 C 9.7 km/h
2167 14-01-2015 09:45:00 5.5 C 5.69 g/m*3 2.7 C 12.9 km/h
2168 14-01-2015 09:50:00 5.5 C 5.69 g/m*3 1.99 C 17.7 km/h
2169 14-01-2015 09:55:00 5.5 C 5.69 g/m*3 1.78 C 19.3 km/h
2170 14-01-2015 10:00:00 5.8 C 5.73 g/m*3 2.16 C 19.3 km/h
2171 14-01-2015 10:05:00 5.9 C 5.77 g/m*3 2.93 C 14.5 km/h
2172 14-01-2015 10:10:00 5.9 C 5.77 g/m*3 3.19 C 12.9 km/h
2173 14-01-2015 10:15:00 6 C 5.81 g/m*3 2.82 C 16.1 km/h
2174 14-01-2015 10:20:00 6.1 C 5.84 g/m*3 3.18 C 14.5 km/h
2175 14-01-2015 10:25:00 6.1 C 5.92 g/m*3 3.72 C 11.3 km/h
Sensor: Nr:Datum:Temp:Abs-Feuchte:Windchill:Wind:
Aussen-T/F 2176 14-01-2015 10:30:00 6.2 C 5.88 g/m*3 2.66 C 19.3 km/h
2177 14-01-2015 10:35:00 6.3 C 5.92 g/m*3 2.98 C 17.7 km/h
2178 14-01-2015 10:40:00 6.3 C 5.85 g/m*3 4.27 C 9.7 km/h
2179 14-01-2015 10:45:00 6.5 C 5.85 g/m*3 2.69 C 22.5 km/h
2180 14-01-2015 10:50:00 6.6 C 5.89 g/m*3 3.57 C 16.1 km/h
2181 14-01-2015 10:55:00 6.6 C 5.96 g/m*3 4.04 C 12.9 km/h
2182 14-01-2015 11:00:00 6.6 C 5.96 g/m*3 4.04 C 12.9 km/h
2183 14-01-2015 11:05:00 6.7 C 5.93 g/m*3 2.22 C 30.6 km/h
2184 14-01-2015 11:10:00 6.8 C 5.97 g/m*3 3.24 C 20.9 km/h
2185 14-01-2015 11:15:00 6.9 C 6 g/m*3 3.94 C 16.1 km/h
2186 14-01-2015 11:20:00 6.9 C 5.93 g/m*3 3.37 C 20.9 km/h
2187 14-01-2015 11:25:00 6.9 C 5.85 g/m*3 3.04 C 24.1 km/h
2188 14-01-2015 11:30:00 6.8 C 5.97 g/m*3 2.76 C 25.7 km/h
2189 14-01-2015 11:35:00 6.6 C 6.19 g/m*3 2.82 C 22.5 km/h
2190 14-01-2015 11:40:00 6.4 C 6.11 g/m*3 3.55 C 14.5 km/h
2191 14-01-2015 11:45:00 6.4 C 6.18 g/m*3 3.8 C 12.9 km/h
2192 14-01-2015 11:50:00 6.5 C 6.15 g/m*3 3.92 C 12.9 km/h
2193 14-01-2015 11:55:00 6.6 C 6.19 g/m*3 3.79 C 14.5 km/h
2194 14-01-2015 12:00:00 6.8 C 6.12 g/m*3 3.61 C 17.7 km/h
2195 14-01-2015 12:05:00 6.8 C 6.12 g/m*3 2.91 C 24.1 km/h
2196 14-01-2015 12:10:00 7 C 6.12 g/m*3 2.87 C 27.4 km/h
2197 14-01-2015 12:15:00 7 C 6.12 g/m*3 3.02 C 25.7 km/h
2198 14-01-2015 12:20:00 6.9 C 6 g/m*3 3.54 C 19.3 km/h
2199 14-01-2015 12:25:00 6.8 C 5.97 g/m*3 2.76 C 25.7 km/h
2200 14-01-2015 12:30:00 6.4 C 6.04 g/m*3 2.25 C 25.7 km/h
Sensor: Nr:Datum:Temp:Abs-Feuchte:Windchill:Wind:
Aussen-T/F 2201 14-01-2015 12:35:00 6 C 6.02 g/m*3 2.05 C 22.5 km/h
2202 14-01-2015 12:40:00 5.6 C 6.08 g/m*3 3.11 C 11.3 km/h
2203 14-01-2015 12:45:00 5.3 C 6.03 g/m*3 1.74 C 17.7 km/h
2204 14-01-2015 12:50:00 5.2 C 5.99 g/m*3 2.34 C 12.9 km/h
2205 14-01-2015 12:55:00 5.1 C 6.16 g/m*3 1.95 C 14.5 km/h
2206 14-01-2015 13:00:00 5.1 C 6.16 g/m*3 1.95 C 14.5 km/h
2207 14-01-2015 13:05:00 5 C 6.12 g/m*3 1.15 C 19.3 km/h
2208 14-01-2015 13:10:00 4.9 C 6.14 g/m*3 2.27 C 11.3 km/h
2209 14-01-2015 13:15:00 4.8 C 6.1 g/m*3 1.58 C 14.5 km/h
2210 14-01-2015 13:20:00 4.8 C 6.1 g/m*3 1.34 C 16.1 km/h
2211 14-01-2015 13:25:00 4.9 C 6.14 g/m*3 2.27 C 11.3 km/h
2212 14-01-2015 13:30:00 5.1 C 6.16 g/m*3 2.51 C 11.3 km/h
2213 14-01-2015 13:35:00 5.2 C 6.2 g/m*3 2.96 C 9.7 km/h
2214 14-01-2015 13:40:00 5.3 C 6.24 g/m*3 2.46 C 12.9 km/h
2215 14-01-2015 13:45:00 5.3 C 6.17 g/m*3 1.96 C 16.1 km/h
2216 14-01-2015 13:50:00 5.3 C 6.17 g/m*3 2.75 C 11.3 km/h
2217 14-01-2015 13:55:00 5.4 C 6.21 g/m*3 3.2 C 9.7 km/h
2218 14-01-2015 14:00:00 5.5 C 6.25 g/m*3 1.78 C 19.3 km/h
2219 14-01-2015 14:05:00 5.6 C 6.22 g/m*3 2.33 C 16.1 km/h
2220 14-01-2015 14:10:00 5.7 C 6.19 g/m*3 2.24 C 17.7 km/h
2221 14-01-2015 14:15:00 5.7 C 6.19 g/m*3 2.95 C 12.9 km/h
2222 14-01-2015 14:20:00 5.8 C 6.23 g/m*3 2.36 C 17.7 km/h
2223 14-01-2015 14:25:00 5.8 C 6.23 g/m*3 2.58 C 16.1 km/h
2224 14-01-2015 14:30:00 5.9 C 6.27 g/m*3 3.48 C 11.3 km/h
2225 14-01-2015 14:35:00 6 C 6.31 g/m*3 3.06 C 14.5 km/h
Sensor: Nr:Datum:Temp:Abs-Feuchte:Windchill:Wind:
Aussen-T/F 2226 14-01-2015 14:40:00 6 C 6.31 g/m*3 1.73 C 25.7 km/h
2227 14-01-2015 14:45:00 5.9 C 6.27 g/m*3 2.48 C 17.7 km/h
2228 14-01-2015 14:50:00 5.9 C 6.27 g/m*3 2.93 C 14.5 km/h
2229 14-01-2015 14:55:00 5.7 C 6.19 g/m*3 1.67 C 22.5 km/h
2230 14-01-2015 15:00:00 4.7 C 5.8 g/m*3 1.21 C 16.1 km/h
2231 14-01-2015 15:05:00 4.2 C 5.67 g/m*3 0.59 C 16.1 km/h
2232 14-01-2015 15:10:00 4.2 C 5.67 g/m*3 0.36 C 17.7 km/h
2233 14-01-2015 15:15:00 4.2 C 5.67 g/m*3 0.84 C 14.5 km/h
2234 14-01-2015 15:20:00 4.2 C 5.73 g/m*3 0.84 C 14.5 km/h
2235 14-01-2015 15:25:00 4.3 C 5.77 g/m*3 0.72 C 16.1 km/h
2236 14-01-2015 15:30:00 4.3 C 5.71 g/m*3 0.72 C 16.1 km/h
2237 14-01-2015 15:35:00 4.4 C 5.75 g/m*3 1.67 C 11.3 km/h
2238 14-01-2015 15:40:00 4.6 C 5.76 g/m*3 -0.07 C 25.7 km/h
2239 14-01-2015 15:45:00 4.7 C 5.8 g/m*3 1.21 C 16.1 km/h
2240 14-01-2015 15:50:00 4.7 C 5.8 g/m*3 1.73 C 12.9 km/h
2241 14-01-2015 15:55:00 4.7 C 5.8 g/m*3 1.21 C 16.1 km/h
2242 14-01-2015 16:00:00 4.7 C 5.8 g/m*3 2.03 C 11.3 km/h
2243 14-01-2015 16:05:00 4.8 C 5.9 g/m*3 0.71 C 20.9 km/h
2244 14-01-2015 16:10:00 4.8 C 5.9 g/m*3 1.34 C 16.1 km/h
2245 14-01-2015 16:15:00 4.8 C 5.83 g/m*3 2.15 C 11.3 km/h
2246 14-01-2015 16:20:00 4.8 C 5.83 g/m*3 2.15 C 11.3 km/h
2247 14-01-2015 16:25:00 4.8 C 5.77 g/m*3 2.49 C 9.7 km/h
2248 14-01-2015 16:30:00 4.8 C 5.77 g/m*3 1.85 C 12.9 km/h
2249 14-01-2015 16:35:00 4.8 C 5.63 g/m*3 1.11 C 17.7 km/h
2250 14-01-2015 16:40:00 4.8 C 5.7 g/m*3 2.15 C 11.3 km/h
Sensor: Nr:Datum:Temp:Abs-Feuchte:Windchill:Wind:
Aussen-T/F 2251 14-01-2015 16:45:00 4.8 C 5.7 g/m*3 1.85 C 12.9 km/h
2252 14-01-2015 16:50:00 4.7 C 5.66 g/m*3 2.76 C 8.1 km/h
2253 14-01-2015 16:55:00 4.6 C 5.62 g/m*3 2.64 C 8.1 km/h
2254 14-01-2015 17:00:00 4.4 C 5.55 g/m*3 2.9 C 6.4 km/h
2255 14-01-2015 17:05:00 4.2 C 5.61 g/m*3 4.2 C 4.8 km/h
2256 14-01-2015 17:10:00 4.1 C 5.57 g/m*3 4.1 C 3.2 km/h
2257 14-01-2015 17:15:00 4.1 C 5.57 g/m*3 4.1 C 3.2 km/h
2258 14-01-2015 17:35:00 3.9 C 6.32 g/m*3 3.9 C 3.2 km/h
2259 14-01-2015 17:40:00 3.8 C 5.52 g/m*3 3.8 C 4.8 km/h
2260 14-01-2015 17:45:00 3.7 C 5.48 g/m*3 3.7 C 4.8 km/h
2261 14-01-2015 17:50:00 3.7 C 5.48 g/m*3 3.7 C 3.2 km/h
2262 14-01-2015 17:55:00 3.6 C 5.57 g/m*3 3.6 C 3.2 km/h
2263 14-01-2015 18:00:00 3.5 C 5.53 g/m*3 0.94 C 9.7 km/h
2264 14-01-2015 18:05:00 3.6 C 5.45 g/m*3 -0.15 C 16.1 km/h
2265 14-01-2015 18:10:00 3.7 C 5.48 g/m*3 3.7 C 4.8 km/h
2266 14-01-2015 18:15:00 3.7 C 5.48 g/m*3 3.7 C 3.2 km/h
2267 14-01-2015 18:50:00 3.2 C 5.42 g/m*3 1.51 C 6.4 km/h
2268 14-01-2015 18:55:00 3.2 C 5.42 g/m*3 3.2 C 3.2 km/h
2269 14-01-2015 19:00:00 3.5 C 5.41 g/m*3 1.34 C 8.1 km/h
2270 14-01-2015 19:05:00 3.5 C 5.41 g/m*3 3.5 C 3.2 km/h
2271 14-01-2015 19:10:00 3.5 C 5.41 g/m*3 -0.73 C 19.3 km/h
2272 14-01-2015 19:15:00 3.5 C 5.41 g/m*3 0.94 C 9.7 km/h
2273 14-01-2015 19:20:00 3.8 C 5.52 g/m*3 1.29 C 9.7 km/h
2274 14-01-2015 19:25:00 3.9 C 5.37 g/m*3 1.82 C 8.1 km/h
2275 14-01-2015 19:30:00 3.8 C 5.33 g/m*3 1.29 C 9.7 km/h
Sensor: Nr:Datum:Temp:Abs-Feuchte:Windchill:Wind:
Aussen-T/F 2276 14-01-2015 19:35:00 3.8 C 5.33 g/m*3 3.8 C 4.8 km/h
2277 14-01-2015 19:40:00 3.7 C 5.36 g/m*3 0.82 C 11.3 km/h
2278 14-01-2015 19:45:00 3.7 C 5.36 g/m*3 2.09 C 6.4 km/h
2279 14-01-2015 22:30:00 2.3 C 5.33 g/m*3 2.3 C 1.6 km/h
2280 14-01-2015 22:35:00 2.4 C 5.37 g/m*3 2.4 C 3.2 km/h
2281 14-01-2015 22:40:00 2.4 C 5.37 g/m*3 2.4 C 0 km/h
2282 14-01-2015 23:05:00 2.2 C 5.63 g/m*3 2.2 C 1.6 km/h
2283 14-01-2015 23:10:00 2.2 C 5.63 g/m*3 2.2 C 1.6 km/h
2284 14-01-2015 23:15:00 2.2 C 5.63 g/m*3 2.2 C 1.6 km/h
2285 14-01-2015 23:20:00 2.2 C 5.63 g/m*3 2.2 C 4.8 km/h
2286 15-01-2015 08:10:00 7.8 C 7.02 g/m*3 5.77 C 11.3 km/h
2287 15-01-2015 08:15:00 7.8 C 7.02 g/m*3 4.86 C 17.7 km/h
2288 15-01-2015 08:20:00 7.8 C 7.02 g/m*3 4.86 C 17.7 km/h
2289 15-01-2015 08:25:00 7.9 C 7.06 g/m*3 5.89 C 11.3 km/h
2290 15-01-2015 08:30:00 7.8 C 7.02 g/m*3 6.06 C 9.7 km/h
2291 15-01-2015 08:35:00 7.9 C 7.06 g/m*3 6.18 C 9.7 km/h
2292 15-01-2015 08:40:00 7.9 C 7.06 g/m*3 6.52 C 8.1 km/h
2293 15-01-2015 08:45:00 7.9 C 7.06 g/m*3 5.89 C 11.3 km/h
2294 15-01-2015 08:50:00 8 C 7.11 g/m*3 5.75 C 12.9 km/h
2295 15-01-2015 08:55:00 8.1 C 7.07 g/m*3 5.87 C 12.9 km/h
2296 15-01-2015 09:00:00 8.2 C 7.12 g/m*3 5.76 C 14.5 km/h
2297 15-01-2015 09:05:00 8.3 C 7.16 g/m*3 5.31 C 19.3 km/h
2298 15-01-2015 09:10:00 8.3 C 7.08 g/m*3 6.37 C 11.3 km/h
2299 15-01-2015 09:15:00 8.3 C 7.08 g/m*3 5.68 C 16.1 km/h
2300 15-01-2015 09:20:00 8.4 C 7.04 g/m*3 5.27 C 20.9 km/h
Sensor: Nr:Datum:Temp:Abs-Feuchte:Windchill:Wind:
Aussen-T/F 2301 15-01-2015 09:25:00 8.5 C 7.09 g/m*3 6.36 C 12.9 km/h
2302 15-01-2015 09:30:00 8.6 C 7.13 g/m*3 6.73 C 11.3 km/h
2303 15-01-2015 09:35:00 8.6 C 7.13 g/m*3 6.05 C 16.1 km/h
2304 15-01-2015 09:40:00 8.7 C 7.18 g/m*3 7.46 C 8.1 km/h
2305 15-01-2015 09:45:00 8.8 C 7.05 g/m*3 7.25 C 9.7 km/h
2306 15-01-2015 09:50:00 8.8 C 7.05 g/m*3 7.98 C 6.4 km/h
2307 15-01-2015 09:55:00 8.8 C 7.05 g/m*3 7.25 C 9.7 km/h
2308 15-01-2015 10:00:00 8.9 C 7.01 g/m*3 6.85 C 12.9 km/h
2309 15-01-2015 10:05:00 8.9 C 7.01 g/m*3 8.1 C 6.4 km/h
2310 15-01-2015 10:10:00 8.9 C 7.01 g/m*3 8.1 C 6.4 km/h
2311 15-01-2015 10:15:00 8.9 C 7.01 g/m*3 8.9 C 4.8 km/h
2312 15-01-2015 10:20:00 8.9 C 7.01 g/m*3 8.9 C 4.8 km/h
2313 15-01-2015 17:05:00 11.5 C 10.33 g/m*3 11.5 C 11.3 km/h
2314 15-01-2015 17:10:00 11.4 C 6.77 g/m*3 11.4 C 17.7 km/h
2315 15-01-2015 17:15:00 11.5 C 6.92 g/m*3 11.5 C 12.9 km/h
2316 15-01-2015 17:20:00 11.5 C 6.92 g/m*3 11.5 C 20.9 km/h
2317 15-01-2015 17:25:00 11.5 C 6.92 g/m*3 11.5 C 16.1 km/h
2318 15-01-2015 17:30:00 11.4 C 6.77 g/m*3 11.4 C 35.4 km/h
2319 15-01-2015 17:35:00 11.4 C 6.77 g/m*3 11.4 C 35.4 km/h
2320 15-01-2015 17:40:00 11.4 C 6.77 g/m*3 11.4 C 17.7 km/h
2321 15-01-2015 17:45:00 11.4 C 6.77 g/m*3 11.4 C 12.9 km/h
2322 15-01-2015 17:50:00 11.4 C 6.77 g/m*3 11.4 C 33.8 km/h
2323 15-01-2015 17:55:00 11.4 C 6.77 g/m*3 11.4 C 19.3 km/h
2324 15-01-2015 18:10:00 11.4 C 6.77 g/m*3 11.4 C 12.9 km/h
2325 15-01-2015 18:15:00 11.3 C 6.73 g/m*3 11.3 C 12.9 km/h
Sensor: Nr:Datum:Temp:Abs-Feuchte:Windchill:Wind:
Aussen-T/F 2326 15-01-2015 18:20:00 11.3 C 6.83 g/m*3 11.3 C 9.7 km/h
2327 15-01-2015 18:25:00 11.2 C 6.69 g/m*3 11.2 C 9.7 km/h
2328 15-01-2015 18:30:00 11.3 C 6.73 g/m*3 11.3 C 8.1 km/h
2329 15-01-2015 18:35:00 11.3 C 6.73 g/m*3 11.3 C 17.7 km/h
2330 15-01-2015 18:40:00 11.3 C 6.73 g/m*3 11.3 C 22.5 km/h
2331 15-01-2015 18:45:00 11.4 C 6.77 g/m*3 11.4 C 24.1 km/h
2332 15-01-2015 18:50:00 11.4 C 6.88 g/m*3 11.4 C 32.2 km/h
2333 15-01-2015 18:55:00 11.3 C 6.83 g/m*3 11.3 C 22.5 km/h
2334 15-01-2015 19:00:00 11.3 C 6.83 g/m*3 11.3 C 17.7 km/h
2335 15-01-2015 19:05:00 11.2 C 6.89 g/m*3 11.2 C 14.5 km/h
2336 15-01-2015 19:10:00 11.2 C 6.89 g/m*3 11.2 C 19.3 km/h
2337 15-01-2015 19:15:00 11.2 C 6.89 g/m*3 11.2 C 22.5 km/h
2338 15-01-2015 19:20:00 11.2 C 6.89 g/m*3 11.2 C 19.3 km/h
2339 15-01-2015 19:25:00 11.2 C 6.99 g/m*3 11.2 C 19.3 km/h
2340 15-01-2015 19:30:00 11.2 C 6.99 g/m*3 11.2 C 24.1 km/h
2341 15-01-2015 19:35:00 11.1 C 7.05 g/m*3 11.1 C 41.8 km/h
2342 15-01-2015 19:40:00 11.1 C 7.15 g/m*3 11.1 C 19.3 km/h
2343 15-01-2015 19:45:00 10.9 C 7.06 g/m*3 8.05 C 25.7 km/h
2344 15-01-2015 19:50:00 10.9 C 7.06 g/m*3 8.3 C 22.5 km/h
2345 15-01-2015 19:55:00 10.9 C 7.06 g/m*3 7.71 C 30.6 km/h
2346 15-01-2015 20:00:00 10.9 C 7.16 g/m*3 8.58 C 19.3 km/h
2347 15-01-2015 20:05:00 10.9 C 7.16 g/m*3 8.43 C 20.9 km/h
2348 15-01-2015 20:10:00 10.9 C 7.16 g/m*3 8.9 C 16.1 km/h
2349 15-01-2015 20:15:00 10.9 C 7.16 g/m*3 8.9 C 16.1 km/h
2350 15-01-2015 20:20:00 10.9 C 7.16 g/m*3 7.81 C 29 km/h
Sensor: Nr:Datum:Temp:Abs-Feuchte:Windchill:Wind:
Aussen-T/F 2351 15-01-2015 20:25:00 11 C 7.21 g/m*3 6.85 C 49.9 km/h
2352 15-01-2015 20:30:00 10.9 C 7.26 g/m*3 8.43 C 20.9 km/h
2353 15-01-2015 20:35:00 10.9 C 7.26 g/m*3 8.17 C 24.1 km/h
2354 15-01-2015 20:40:00 10.9 C 7.26 g/m*3 8.17 C 24.1 km/h
2355 15-01-2015 20:45:00 10.8 C 7.22 g/m*3 8.04 C 24.1 km/h
2356 15-01-2015 20:50:00 10.8 C 7.31 g/m*3 7.92 C 25.7 km/h
2357 15-01-2015 20:55:00 10.7 C 7.27 g/m*3 8.18 C 20.9 km/h
2358 15-01-2015 21:00:00 10.7 C 7.37 g/m*3 7.91 C 24.1 km/h
2359 15-01-2015 21:05:00 10.6 C 7.32 g/m*3 7.91 C 22.5 km/h
2360 15-01-2015 21:10:00 10.6 C 7.32 g/m*3 8.36 C 17.7 km/h
2361 15-01-2015 21:15:00 10.5 C 7.27 g/m*3 8.4 C 16.1 km/h
2362 15-01-2015 21:20:00 10.4 C 7.32 g/m*3 9.16 C 9.7 km/h
2363 15-01-2015 21:25:00 10.3 C 7.28 g/m*3 8.78 C 11.3 km/h
2364 15-01-2015 21:30:00 10.2 C 7.33 g/m*3 8.66 C 11.3 km/h
2365 15-01-2015 21:35:00 10.2 C 7.23 g/m*3 9.22 C 8.1 km/h
2366 15-01-2015 21:40:00 10.3 C 7.28 g/m*3 7.4 C 24.1 km/h
2367 15-01-2015 21:45:00 10.4 C 7.32 g/m*3 7.4 C 25.7 km/h
2368 15-01-2015 21:50:00 10.4 C 7.32 g/m*3 8.11 C 17.7 km/h
2369 15-01-2015 21:55:00 10.4 C 7.42 g/m*3 7.53 C 24.1 km/h
2370 15-01-2015 22:00:00 10.4 C 7.42 g/m*3 7.4 C 25.7 km/h
2371 15-01-2015 22:05:00 10.3 C 7.37 g/m*3 7.67 C 20.9 km/h
2372 15-01-2015 22:10:00 10.3 C 7.47 g/m*3 7.67 C 20.9 km/h
2373 15-01-2015 22:15:00 10.3 C 7.47 g/m*3 7.82 C 19.3 km/h
2374 15-01-2015 22:20:00 10.3 C 7.47 g/m*3 7.98 C 17.7 km/h
2375 15-01-2015 22:25:00 10.3 C 7.47 g/m*3 8.55 C 12.9 km/h
Sensor: Nr:Datum:Temp:Abs-Feuchte:Windchill:Wind:
Aussen-T/F 2376 15-01-2015 22:30:00 10.3 C 7.47 g/m*3 7.82 C 19.3 km/h
2377 15-01-2015 22:35:00 10.3 C 7.57 g/m*3 7.98 C 17.7 km/h
2378 15-01-2015 22:40:00 10.3 C 7.57 g/m*3 8.34 C 14.5 km/h
2379 15-01-2015 22:45:00 10.3 C 7.57 g/m*3 8.55 C 12.9 km/h
2380 15-01-2015 22:50:00 10.3 C 7.57 g/m*3 8.34 C 14.5 km/h
2381 15-01-2015 22:55:00 10.3 C 7.57 g/m*3 7.67 C 20.9 km/h
2382 15-01-2015 23:00:00 10.3 C 7.57 g/m*3 7.67 C 20.9 km/h
2383 15-01-2015 23:05:00 10.3 C 7.66 g/m*3 7.98 C 17.7 km/h
2384 15-01-2015 23:10:00 10.2 C 7.61 g/m*3 7.86 C 17.7 km/h
2385 15-01-2015 23:15:00 10.2 C 7.61 g/m*3 7.54 C 20.9 km/h
2386 15-01-2015 23:20:00 10.1 C 7.66 g/m*3 7.42 C 20.9 km/h
2387 15-01-2015 23:25:00 10 C 7.8 g/m*3 7.98 C 14.5 km/h
2388 15-01-2015 23:30:00 9.8 C 7.79 g/m*3 7.94 C 12.9 km/h
2389 15-01-2015 23:35:00 9.6 C 7.69 g/m*3 7.29 C 16.1 km/h
2390 15-01-2015 23:40:00 9.5 C 7.74 g/m*3 7.36 C 14.5 km/h
2391 15-01-2015 23:45:00 9.4 C 7.69 g/m*3 7.24 C 14.5 km/h
2392 15-01-2015 23:50:00 9.4 C 7.69 g/m*3 7.46 C 12.9 km/h
2393 15-01-2015 23:55:00 9.4 C 7.78 g/m*3 7.46 C 12.9 km/h
2394 16-01-2015 00:00:00 9.3 C 7.73 g/m*3 7.58 C 11.3 km/h
2395 16-01-2015 00:05:00 9.3 C 7.64 g/m*3 7.33 C 12.9 km/h
2396 16-01-2015 00:10:00 9.3 C 7.64 g/m*3 8.16 C 8.1 km/h
2397 16-01-2015 00:15:00 9.3 C 7.64 g/m*3 7.33 C 12.9 km/h
2398 16-01-2015 00:20:00 9.3 C 7.64 g/m*3 8.16 C 8.1 km/h
2399 16-01-2015 00:25:00 9.3 C 7.73 g/m*3 7.85 C 9.7 km/h
2400 16-01-2015 00:30:00 9.3 C 7.73 g/m*3 7.85 C 9.7 km/h
Sensor: Nr:Datum:Temp:Abs-Feuchte:Windchill:Wind:
Aussen-T/F 2401 16-01-2015 00:35:00 9.3 C 7.64 g/m*3 7.33 C 12.9 km/h
2402 16-01-2015 00:40:00 9.3 C 7.64 g/m*3 6.92 C 16.1 km/h
2403 16-01-2015 00:45:00 9.3 C 7.55 g/m*3 7.85 C 9.7 km/h
2404 16-01-2015 00:50:00 9.3 C 7.46 g/m*3 7.85 C 9.7 km/h
2405 16-01-2015 00:55:00 9.3 C 7.37 g/m*3 7.58 C 11.3 km/h
2406 16-01-2015 01:00:00 9.3 C 7.37 g/m*3 7.12 C 14.5 km/h
2407 16-01-2015 01:05:00 9.3 C 7.37 g/m*3 7.85 C 9.7 km/h
2408 16-01-2015 01:10:00 9.2 C 7.41 g/m*3 9.2 C 3.2 km/h
2409 16-01-2015 01:15:00 9.1 C 7.45 g/m*3 7.93 C 8.1 km/h
2410 16-01-2015 01:20:00 9.1 C 7.36 g/m*3 7.33 C 11.3 km/h
2411 16-01-2015 01:25:00 9.1 C 7.36 g/m*3 7.61 C 9.7 km/h
2412 16-01-2015 01:30:00 9.1 C 7.36 g/m*3 7.93 C 8.1 km/h
2413 16-01-2015 01:35:00 9.1 C 7.36 g/m*3 7.33 C 11.3 km/h
2414 16-01-2015 01:40:00 9 C 7.41 g/m*3 7.81 C 8.1 km/h
2415 16-01-2015 01:45:00 8.9 C 7.45 g/m*3 8.9 C 3.2 km/h
2416 16-01-2015 01:50:00 8.8 C 7.4 g/m*3 7.98 C 6.4 km/h
2417 16-01-2015 01:55:00 8.7 C 7.52 g/m*3 7.46 C 8.1 km/h
2418 16-01-2015 02:00:00 8.6 C 7.56 g/m*3 7.34 C 8.1 km/h
2419 16-01-2015 02:05:00 8.4 C 7.55 g/m*3 8.4 C 4.8 km/h
2420 16-01-2015 02:10:00 8.3 C 7.42 g/m*3 6.37 C 11.3 km/h
2421 16-01-2015 02:15:00 8.3 C 7.42 g/m*3 6.99 C 8.1 km/h
2422 16-01-2015 02:20:00 8.3 C 7.42 g/m*3 8.3 C 3.2 km/h
2423 16-01-2015 02:25:00 8.2 C 7.37 g/m*3 7.29 C 6.4 km/h
2424 16-01-2015 02:30:00 8.2 C 7.37 g/m*3 8.2 C 4.8 km/h
2425 16-01-2015 02:35:00 8.2 C 7.37 g/m*3 8.2 C 1.6 km/h
Sensor: Nr:Datum:Temp:Abs-Feuchte:Windchill:Wind:
Aussen-T/F 2426 16-01-2015 02:40:00 8.1 C 7.32 g/m*3 7.17 C 6.4 km/h
2427 16-01-2015 02:45:00 8.1 C 7.32 g/m*3 8.1 C 3.2 km/h
2428 16-01-2015 02:50:00 7.9 C 7.06 g/m*3 6.94 C 6.4 km/h
2429 16-01-2015 02:55:00 8.1 C 7.16 g/m*3 7.17 C 6.4 km/h
2430 16-01-2015 03:00:00 8.1 C 7.16 g/m*3 6.13 C 11.3 km/h
2431 16-01-2015 03:05:00 8.1 C 7.16 g/m*3 8.1 C 4.8 km/h
2432 16-01-2015 03:10:00 8.1 C 7.16 g/m*3 7.17 C 6.4 km/h
2433 16-01-2015 03:15:00 8.1 C 7.16 g/m*3 7.17 C 6.4 km/h
2434 16-01-2015 03:20:00 8.1 C 7.16 g/m*3 5.87 C 12.9 km/h
2435 16-01-2015 03:25:00 8.1 C 7.24 g/m*3 7.17 C 6.4 km/h
2436 16-01-2015 03:30:00 8 C 7.19 g/m*3 8 C 3.2 km/h
2437 16-01-2015 03:35:00 7.9 C 7.15 g/m*3 7.9 C 1.6 km/h
2438 16-01-2015 03:40:00 7.8 C 7.18 g/m*3 7.8 C 1.6 km/h
2439 16-01-2015 03:45:00 7.6 C 7.09 g/m*3 6.6 C 6.4 km/h
2440 16-01-2015 03:50:00 7.6 C 7.09 g/m*3 7.6 C 3.2 km/h
2441 16-01-2015 03:55:00 7.6 C 7.17 g/m*3 7.6 C 0 km/h
2442 16-01-2015 04:00:00 7.4 C 7 g/m*3 7.4 C 3.2 km/h
2443 16-01-2015 04:05:00 7.4 C 7.08 g/m*3 6.37 C 6.4 km/h
2444 16-01-2015 04:10:00 7.6 C 7.01 g/m*3 7.6 C 4.8 km/h
2445 16-01-2015 04:15:00 7.6 C 7.01 g/m*3 7.6 C 3.2 km/h
2446 16-01-2015 04:20:00 7.7 C 6.97 g/m*3 6.71 C 6.4 km/h
2447 16-01-2015 04:25:00 7.7 C 7.05 g/m*3 7.7 C 0 km/h
2448 16-01-2015 04:30:00 7.5 C 7.04 g/m*3 7.5 C 0 km/h
2449 16-01-2015 04:35:00 7.3 C 6.95 g/m*3 7.3 C 0 km/h
2450 16-01-2015 04:40:00 7.2 C 6.91 g/m*3 7.2 C 3.2 km/h
Sensor: Nr:Datum:Temp:Abs-Feuchte:Windchill:Wind:
Aussen-T/F 2451 16-01-2015 04:45:00 7.2 C 6.99 g/m*3 7.2 C 0 km/h
2452 16-01-2015 04:50:00 7 C 6.9 g/m*3 7 C 0 km/h
2453 16-01-2015 04:55:00 6.9 C 6.85 g/m*3 6.9 C 3.2 km/h
2454 16-01-2015 05:00:00 6.8 C 6.81 g/m*3 6.8 C 1.6 km/h
2455 16-01-2015 05:05:00 6.8 C 6.88 g/m*3 6.8 C 4.8 km/h
2456 16-01-2015 05:10:00 6.9 C 6.85 g/m*3 6.9 C 4.8 km/h
2457 16-01-2015 05:15:00 7.1 C 6.86 g/m*3 7.1 C 0 km/h
2458 16-01-2015 05:20:00 7.1 C 6.86 g/m*3 7.1 C 4.8 km/h
2459 16-01-2015 05:25:00 7.1 C 6.86 g/m*3 7.1 C 3.2 km/h
2460 16-01-2015 05:30:00 7.1 C 6.86 g/m*3 7.1 C 3.2 km/h
2461 16-01-2015 05:35:00 7 C 6.82 g/m*3 7 C 4.8 km/h
2462 16-01-2015 05:40:00 6.9 C 6.85 g/m*3 6.9 C 1.6 km/h
2463 16-01-2015 05:45:00 6.9 C 6.85 g/m*3 6.9 C 1.6 km/h
2464 16-01-2015 05:50:00 6.8 C 6.81 g/m*3 6.8 C 3.2 km/h
2465 16-01-2015 05:55:00 6.8 C 6.73 g/m*3 5.67 C 6.4 km/h
2466 16-01-2015 06:00:00 6.8 C 6.73 g/m*3 6.8 C 1.6 km/h
2467 16-01-2015 06:05:00 6.9 C 6.77 g/m*3 6.9 C 1.6 km/h
2468 16-01-2015 06:10:00 6.9 C 6.77 g/m*3 6.9 C 1.6 km/h
2469 16-01-2015 06:15:00 6.9 C 6.77 g/m*3 6.9 C 3.2 km/h
2470 16-01-2015 06:20:00 6.9 C 6.77 g/m*3 6.9 C 1.6 km/h
2471 16-01-2015 06:25:00 6.8 C 6.73 g/m*3 6.8 C 1.6 km/h
2472 16-01-2015 06:30:00 6.7 C 6.76 g/m*3 6.7 C 1.6 km/h
2473 16-01-2015 06:35:00 6.7 C 6.76 g/m*3 6.7 C 3.2 km/h
2474 16-01-2015 06:40:00 6.9 C 6.77 g/m*3 6.9 C 4.8 km/h
2475 16-01-2015 06:45:00 7 C 6.74 g/m*3 7 C 4.8 km/h
Sensor: Nr:Datum:Temp:Abs-Feuchte:Windchill:Wind:
Aussen-T/F 2476 16-01-2015 06:50:00 7 C 6.82 g/m*3 7 C 4.8 km/h
2477 16-01-2015 06:55:00 6.9 C 6.77 g/m*3 6.9 C 3.2 km/h
2478 16-01-2015 07:00:00 6.9 C 6.77 g/m*3 6.9 C 1.6 km/h
2479 16-01-2015 07:05:00 6.8 C 6.73 g/m*3 6.8 C 1.6 km/h
2480 16-01-2015 07:10:00 6.7 C 6.76 g/m*3 6.7 C 3.2 km/h
2481 16-01-2015 07:15:00 6.7 C 6.76 g/m*3 6.7 C 1.6 km/h
2482 16-01-2015 07:20:00 6.6 C 6.72 g/m*3 6.6 C 1.6 km/h
2483 16-01-2015 07:25:00 6.5 C 6.67 g/m*3 6.5 C 1.6 km/h
2484 16-01-2015 07:30:00 6.4 C 6.71 g/m*3 6.4 C 0 km/h
2485 16-01-2015 07:35:00 6.4 C 6.71 g/m*3 6.4 C 3.2 km/h
2486 16-01-2015 07:40:00 6.4 C 6.71 g/m*3 6.4 C 1.6 km/h
2487 16-01-2015 07:45:00 6.4 C 6.71 g/m*3 6.4 C 1.6 km/h
2488 16-01-2015 07:50:00 6.4 C 6.71 g/m*3 6.4 C 3.2 km/h
2489 16-01-2015 07:55:00 6.4 C 6.63 g/m*3 6.4 C 3.2 km/h
2490 16-01-2015 08:00:00 6.5 C 6.67 g/m*3 6.5 C 3.2 km/h
2491 16-01-2015 08:05:00 6.7 C 6.69 g/m*3 6.7 C 1.6 km/h
2492 16-01-2015 08:10:00 6.8 C 6.65 g/m*3 6.8 C 4.8 km/h
2493 16-01-2015 08:15:00 6.9 C 6.7 g/m*3 5.79 C 6.4 km/h
2494 16-01-2015 08:20:00 6.9 C 6.7 g/m*3 6.9 C 4.8 km/h
2495 16-01-2015 08:25:00 6.8 C 6.73 g/m*3 6.8 C 3.2 km/h
2496 16-01-2015 08:30:00 6.8 C 6.65 g/m*3 6.8 C 3.2 km/h
2497 16-01-2015 08:35:00 6.8 C 6.65 g/m*3 5.67 C 6.4 km/h
2498 16-01-2015 08:40:00 6.8 C 6.65 g/m*3 6.8 C 4.8 km/h
2499 16-01-2015 08:45:00 6.9 C 6.62 g/m*3 6.9 C 4.8 km/h
2500 16-01-2015 08:50:00 6.9 C 6.62 g/m*3 6.9 C 0 km/h
Sensor: Nr:Datum:Temp:Abs-Feuchte:Windchill:Wind:
Aussen-T/F 2501 16-01-2015 08:55:00 6.9 C 6.7 g/m*3 6.9 C 1.6 km/h
2502 16-01-2015 09:00:00 6.8 C 6.65 g/m*3 6.8 C 1.6 km/h
2503 16-01-2015 09:05:00 6.8 C 6.65 g/m*3 6.8 C 1.6 km/h
2504 16-01-2015 09:10:00 6.7 C 6.69 g/m*3 6.7 C 3.2 km/h
2505 16-01-2015 09:15:00 6.7 C 6.69 g/m*3 6.7 C 3.2 km/h
2506 16-01-2015 09:20:00 6.7 C 6.69 g/m*3 6.7 C 1.6 km/h
2507 16-01-2015 09:25:00 6.6 C 6.72 g/m*3 6.6 C 0 km/h
2508 16-01-2015 09:30:00 6.6 C 6.72 g/m*3 6.6 C 0 km/h
2509 16-01-2015 09:35:00 6.6 C 6.79 g/m*3 6.6 C 0 km/h
2510 16-01-2015 09:40:00 6.6 C 6.79 g/m*3 6.6 C 0 km/h
2511 16-01-2015 09:45:00 6.6 C 6.72 g/m*3 6.6 C 0 km/h
2512 16-01-2015 09:50:00 6.6 C 6.79 g/m*3 6.6 C 3.2 km/h
2513 16-01-2015 09:55:00 6.6 C 6.72 g/m*3 6.6 C 3.2 km/h
2514 16-01-2015 10:00:00 6.7 C 6.69 g/m*3 6.7 C 1.6 km/h
2515 16-01-2015 10:05:00 6.7 C 6.69 g/m*3 6.7 C 0 km/h
2516 16-01-2015 10:10:00 6.8 C 6.73 g/m*3 6.8 C 3.2 km/h
2517 16-01-2015 10:15:00 6.9 C 6.62 g/m*3 6.9 C 3.2 km/h
2518 16-01-2015 10:20:00 6.9 C 6.62 g/m*3 6.9 C 4.8 km/h
2519 16-01-2015 10:25:00 7.1 C 6.63 g/m*3 6.02 C 6.4 km/h
2520 16-01-2015 10:30:00 7.2 C 6.67 g/m*3 6.13 C 6.4 km/h
2521 16-01-2015 10:35:00 7.2 C 6.59 g/m*3 6.13 C 6.4 km/h
2522 16-01-2015 10:40:00 7.3 C 6.56 g/m*3 5.47 C 9.7 km/h
2523 16-01-2015 10:45:00 7.3 C 6.56 g/m*3 6.25 C 6.4 km/h
2524 16-01-2015 10:50:00 7.3 C 6.56 g/m*3 7.3 C 3.2 km/h
2525 16-01-2015 10:55:00 7.3 C 6.56 g/m*3 7.3 C 0 km/h
Sensor: Nr:Datum:Temp:Abs-Feuchte:Windchill:Wind:
Aussen-T/F 2526 16-01-2015 11:00:00 7.3 C 6.56 g/m*3 7.3 C 0 km/h
2527 16-01-2015 11:05:00 7.3 C 6.64 g/m*3 7.3 C 0 km/h
2528 16-01-2015 11:10:00 7.3 C 6.79 g/m*3 7.3 C 0 km/h
2529 16-01-2015 11:15:00 7.3 C 6.79 g/m*3 7.3 C 0 km/h
2530 16-01-2015 11:20:00 7.3 C 6.79 g/m*3 7.3 C 0 km/h
2531 16-01-2015 11:25:00 7.3 C 6.79 g/m*3 7.3 C 3.2 km/h
2532 16-01-2015 11:30:00 7.3 C 6.79 g/m*3 7.3 C 1.6 km/h
2533 16-01-2015 11:35:00 7.3 C 6.79 g/m*3 7.3 C 3.2 km/h
2534 16-01-2015 11:40:00 7.4 C 6.84 g/m*3 7.4 C 3.2 km/h
2535 16-01-2015 11:45:00 7.4 C 6.76 g/m*3 7.4 C 3.2 km/h
2536 16-01-2015 11:50:00 7.4 C 6.84 g/m*3 7.4 C 3.2 km/h
2537 16-01-2015 11:55:00 7.4 C 6.84 g/m*3 7.4 C 3.2 km/h
2538 16-01-2015 12:00:00 7.4 C 6.76 g/m*3 7.4 C 1.6 km/h
2539 16-01-2015 12:05:00 7.5 C 6.8 g/m*3 7.5 C 4.8 km/h
2540 16-01-2015 12:10:00 7.5 C 6.8 g/m*3 7.5 C 3.2 km/h
2541 16-01-2015 12:15:00 7.4 C 6.76 g/m*3 5.93 C 8.1 km/h
2542 16-01-2015 12:20:00 7.4 C 6.68 g/m*3 7.4 C 1.6 km/h
2543 16-01-2015 12:25:00 7.4 C 6.68 g/m*3 7.4 C 0 km/h
2544 16-01-2015 12:30:00 7.4 C 6.6 g/m*3 7.4 C 0 km/h
2545 16-01-2015 12:35:00 7.4 C 6.68 g/m*3 7.4 C 0 km/h
2546 16-01-2015 12:40:00 7.5 C 6.72 g/m*3 7.5 C 1.6 km/h
2547 16-01-2015 12:45:00 7.4 C 6.36 g/m*3 7.4 C 1.6 km/h
2548 16-01-2015 12:50:00 7.5 C 6.56 g/m*3 7.5 C 0 km/h
2549 16-01-2015 12:55:00 7.5 C 6.64 g/m*3 7.5 C 3.2 km/h
2550 16-01-2015 13:00:00 7.4 C 6.36 g/m*3 7.4 C 3.2 km/h
Sensor: Nr:Datum:Temp:Abs-Feuchte:Windchill:Wind:
Aussen-T/F 2551 16-01-2015 13:05:00 7.4 C 6.28 g/m*3 5.93 C 8.1 km/h
2552 16-01-2015 13:10:00 7.4 C 6.36 g/m*3 7.4 C 3.2 km/h
2553 16-01-2015 13:15:00 7.4 C 6.36 g/m*3 7.4 C 1.6 km/h
2554 16-01-2015 13:20:00 7.3 C 6.32 g/m*3 7.3 C 4.8 km/h
2555 16-01-2015 13:25:00 7.3 C 6.4 g/m*3 7.3 C 3.2 km/h
2556 16-01-2015 13:30:00 7.3 C 6.4 g/m*3 7.3 C 3.2 km/h
2557 16-01-2015 13:35:00 7.2 C 6.28 g/m*3 7.2 C 4.8 km/h
2558 16-01-2015 13:40:00 7.2 C 6.36 g/m*3 7.2 C 3.2 km/h
2559 16-01-2015 13:45:00 7.2 C 6.36 g/m*3 7.2 C 1.6 km/h
2560 16-01-2015 13:50:00 7.1 C 6.32 g/m*3 7.1 C 4.8 km/h
2561 16-01-2015 13:55:00 7 C 6.28 g/m*3 7 C 3.2 km/h
2562 16-01-2015 14:00:00 6.9 C 6.31 g/m*3 6.9 C 4.8 km/h
2563 16-01-2015 14:05:00 6.9 C 6.31 g/m*3 6.9 C 3.2 km/h
2564 16-01-2015 14:10:00 6.9 C 6.31 g/m*3 6.9 C 3.2 km/h
2565 16-01-2015 14:15:00 6.9 C 6.31 g/m*3 6.9 C 3.2 km/h
2566 16-01-2015 14:20:00 6.9 C 6.31 g/m*3 6.9 C 1.6 km/h
2567 16-01-2015 14:25:00 6.9 C 6.24 g/m*3 6.9 C 3.2 km/h
2568 16-01-2015 14:30:00 6.9 C 6.31 g/m*3 6.9 C 3.2 km/h
2569 16-01-2015 14:35:00 6.9 C 6.31 g/m*3 5.79 C 6.4 km/h
2570 16-01-2015 14:40:00 6.9 C 6.31 g/m*3 6.9 C 4.8 km/h
2571 16-01-2015 14:45:00 6.9 C 6.39 g/m*3 6.9 C 4.8 km/h
2572 16-01-2015 14:50:00 6.9 C 6.39 g/m*3 5.34 C 8.1 km/h
2573 16-01-2015 14:55:00 6.8 C 6.27 g/m*3 4.87 C 9.7 km/h
2574 16-01-2015 15:00:00 6.8 C 6.27 g/m*3 5.67 C 6.4 km/h
2575 16-01-2015 15:05:00 6.7 C 6.23 g/m*3 6.7 C 3.2 km/h
Sensor: Nr:Datum:Temp:Abs-Feuchte:Windchill:Wind:
Aussen-T/F 2576 16-01-2015 15:10:00 6.7 C 6.31 g/m*3 6.7 C 3.2 km/h
2577 16-01-2015 15:15:00 6.7 C 6.31 g/m*3 6.7 C 1.6 km/h
2578 16-01-2015 15:20:00 6.7 C 6.31 g/m*3 6.7 C 1.6 km/h
2579 16-01-2015 15:25:00 6.7 C 6.38 g/m*3 6.7 C 0 km/h
2580 16-01-2015 15:30:00 6.7 C 6.38 g/m*3 6.7 C 0 km/h
2581 16-01-2015 15:35:00 6.6 C 6.42 g/m*3 6.6 C 0 km/h
2582 16-01-2015 15:40:00 6.6 C 6.49 g/m*3 6.6 C 0 km/h
2583 16-01-2015 15:45:00 6.5 C 6.52 g/m*3 6.5 C 0 km/h
2584 16-01-2015 15:50:00 6.4 C 6.56 g/m*3 6.4 C 0 km/h
2585 16-01-2015 15:55:00 6.4 C 6.56 g/m*3 6.4 C 0 km/h
2586 16-01-2015 16:00:00 6.3 C 6.59 g/m*3 6.3 C 0 km/h
2587 16-01-2015 16:05:00 6.2 C 6.62 g/m*3 6.2 C 0 km/h
2588 16-01-2015 16:10:00 6.2 C 6.69 g/m*3 6.2 C 0 km/h
2589 16-01-2015 16:15:00 6.1 C 6.65 g/m*3 6.1 C 0 km/h
2590 16-01-2015 16:20:00 6.1 C 6.65 g/m*3 6.1 C 1.6 km/h
2591 16-01-2015 16:25:00 5.9 C 6.63 g/m*3 5.9 C 0 km/h
2592 16-01-2015 16:30:00 5.8 C 6.59 g/m*3 5.8 C 0 km/h
2593 16-01-2015 16:35:00 5.8 C 6.59 g/m*3 5.8 C 0 km/h
2594 16-01-2015 16:40:00 5.7 C 6.62 g/m*3 5.7 C 0 km/h
2595 16-01-2015 16:45:00 5.7 C 6.62 g/m*3 5.7 C 1.6 km/h
2596 16-01-2015 16:50:00 5.7 C 6.62 g/m*3 5.7 C 1.6 km/h
2597 16-01-2015 16:55:00 5.6 C 6.57 g/m*3 5.6 C 3.2 km/h
2598 16-01-2015 17:00:00 5.6 C 6.57 g/m*3 5.6 C 1.6 km/h
2599 16-01-2015 17:05:00 5.5 C 6.53 g/m*3 5.5 C 1.6 km/h
2600 16-01-2015 17:10:00 5.5 C 6.53 g/m*3 5.5 C 0 km/h
Sensor: Nr:Datum:Temp:Abs-Feuchte:Windchill:Wind:
Aussen-T/F 2601 16-01-2015 17:15:00 5.4 C 6.56 g/m*3 5.4 C 1.6 km/h
2602 16-01-2015 17:20:00 5.4 C 6.56 g/m*3 5.4 C 1.6 km/h
2603 16-01-2015 17:25:00 5.4 C 6.56 g/m*3 5.4 C 1.6 km/h
2604 16-01-2015 17:30:00 5.4 C 6.56 g/m*3 5.4 C 0 km/h
2605 16-01-2015 17:35:00 5.3 C 6.52 g/m*3 5.3 C 0 km/h
2606 16-01-2015 17:40:00 5.3 C 6.52 g/m*3 5.3 C 0 km/h
2607 16-01-2015 17:45:00 5.3 C 6.52 g/m*3 5.3 C 0 km/h
2608 16-01-2015 17:50:00 5.3 C 6.52 g/m*3 5.3 C 0 km/h
2609 16-01-2015 17:55:00 5.3 C 6.52 g/m*3 5.3 C 0 km/h
2610 16-01-2015 18:00:00 5.2 C 6.47 g/m*3 5.2 C 0 km/h
2611 16-01-2015 18:05:00 5.2 C 6.47 g/m*3 5.2 C 0 km/h
2612 16-01-2015 18:10:00 5.2 C 6.47 g/m*3 5.2 C 0 km/h
2613 16-01-2015 18:15:00 5.2 C 6.47 g/m*3 5.2 C 0 km/h
2614 16-01-2015 18:20:00 5.2 C 6.47 g/m*3 5.2 C 1.6 km/h
2615 16-01-2015 18:25:00 5.1 C 6.43 g/m*3 5.1 C 0 km/h
2616 16-01-2015 18:30:00 5.1 C 6.43 g/m*3 5.1 C 0 km/h
2617 16-01-2015 18:35:00 5.1 C 6.43 g/m*3 5.1 C 0 km/h
2618 16-01-2015 18:40:00 5.1 C 6.43 g/m*3 5.1 C 0 km/h
2619 16-01-2015 18:45:00 5.1 C 6.43 g/m*3 5.1 C 0 km/h
2620 16-01-2015 18:50:00 5.1 C 6.43 g/m*3 5.1 C 0 km/h
2621 16-01-2015 18:55:00 5.1 C 6.43 g/m*3 5.1 C 0 km/h
2622 16-01-2015 19:00:00 5.1 C 6.43 g/m*3 5.1 C 0 km/h
2623 16-01-2015 19:05:00 5.1 C 6.43 g/m*3 5.1 C 0 km/h
2624 16-01-2015 19:10:00 5.1 C 6.43 g/m*3 5.1 C 0 km/h
2625 16-01-2015 19:15:00 5.1 C 6.43 g/m*3 5.1 C 0 km/h
Sensor: Nr:Datum:Temp:Abs-Feuchte:Windchill:Wind:
Aussen-T/F 2626 16-01-2015 19:20:00 5.1 C 6.43 g/m*3 5.1 C 0 km/h
2627 16-01-2015 19:25:00 5.1 C 6.43 g/m*3 5.1 C 1.6 km/h
2628 16-01-2015 19:30:00 5.1 C 6.43 g/m*3 5.1 C 0 km/h
2629 16-01-2015 19:35:00 5.1 C 6.43 g/m*3 5.1 C 0 km/h
2630 16-01-2015 19:40:00 5.1 C 6.43 g/m*3 5.1 C 0 km/h
2631 16-01-2015 19:45:00 5.1 C 6.43 g/m*3 5.1 C 0 km/h
2632 16-01-2015 19:50:00 5.2 C 6.47 g/m*3 5.2 C 0 km/h
2633 16-01-2015 19:55:00 5.2 C 6.47 g/m*3 5.2 C 0 km/h
2634 16-01-2015 20:00:00 5.2 C 6.47 g/m*3 5.2 C 0 km/h
2635 16-01-2015 20:05:00 5.2 C 6.47 g/m*3 5.2 C 0 km/h
2636 16-01-2015 20:10:00 5.2 C 6.47 g/m*3 5.2 C 0 km/h
2637 16-01-2015 20:15:00 5.1 C 6.36 g/m*3 5.1 C 1.6 km/h
2638 16-01-2015 20:20:00 5.2 C 6.4 g/m*3 5.2 C 0 km/h
2639 16-01-2015 20:25:00 5.2 C 6.4 g/m*3 5.2 C 0 km/h
2640 16-01-2015 20:30:00 5.2 C 6.4 g/m*3 5.2 C 0 km/h
2641 16-01-2015 20:35:00 5.1 C 6.36 g/m*3 5.1 C 1.6 km/h
2642 16-01-2015 20:40:00 5.1 C 6.36 g/m*3 5.1 C 0 km/h
2643 16-01-2015 20:45:00 5.1 C 6.36 g/m*3 5.1 C 0 km/h
2644 16-01-2015 20:50:00 5 C 6.39 g/m*3 5 C 0 km/h
2645 16-01-2015 20:55:00 4.9 C 6.35 g/m*3 4.9 C 0 km/h
2646 16-01-2015 21:00:00 4.9 C 6.35 g/m*3 4.9 C 0 km/h
2647 16-01-2015 21:05:00 4.9 C 6.35 g/m*3 4.9 C 0 km/h
2648 16-01-2015 21:10:00 4.9 C 6.35 g/m*3 4.9 C 0 km/h
2649 16-01-2015 21:15:00 4.9 C 6.35 g/m*3 4.9 C 0 km/h
2650 16-01-2015 21:20:00 4.9 C 6.35 g/m*3 4.9 C 0 km/h
Sensor: Nr:Datum:Temp:Abs-Feuchte:Windchill:Wind:
Aussen-T/F 2651 16-01-2015 21:25:00 4.9 C 6.35 g/m*3 4.9 C 0 km/h
2652 16-01-2015 21:30:00 4.9 C 6.35 g/m*3 4.9 C 0 km/h
2653 16-01-2015 21:35:00 4.9 C 6.35 g/m*3 4.9 C 0 km/h
2654 16-01-2015 21:40:00 4.9 C 6.35 g/m*3 4.9 C 0 km/h
2655 16-01-2015 21:45:00 4.9 C 6.35 g/m*3 4.9 C 0 km/h
2656 16-01-2015 21:50:00 4.9 C 6.35 g/m*3 4.9 C 1.6 km/h
2657 16-01-2015 21:55:00 4.9 C 6.35 g/m*3 4.9 C 1.6 km/h
2658 16-01-2015 22:00:00 4.9 C 6.35 g/m*3 4.9 C 4.8 km/h
2659 16-01-2015 22:05:00 5 C 6.39 g/m*3 5 C 3.2 km/h
2660 16-01-2015 22:10:00 5.1 C 6.43 g/m*3 3.23 C 8.1 km/h
2661 16-01-2015 22:15:00 5.1 C 6.43 g/m*3 5.1 C 4.8 km/h
2662 16-01-2015 22:20:00 5.1 C 6.36 g/m*3 5.1 C 1.6 km/h
2663 16-01-2015 22:25:00 5.1 C 6.36 g/m*3 5.1 C 1.6 km/h
2664 16-01-2015 22:30:00 5.1 C 6.36 g/m*3 5.1 C 0 km/h
2665 16-01-2015 22:35:00 5 C 6.39 g/m*3 5 C 1.6 km/h
2666 16-01-2015 22:40:00 5.1 C 6.43 g/m*3 5.1 C 4.8 km/h
2667 16-01-2015 22:45:00 5.2 C 6.4 g/m*3 5.2 C 4.8 km/h
2668 16-01-2015 22:50:00 5.2 C 6.4 g/m*3 5.2 C 3.2 km/h
2669 16-01-2015 22:55:00 5.2 C 6.4 g/m*3 5.2 C 3.2 km/h
2670 16-01-2015 23:00:00 5.2 C 6.4 g/m*3 5.2 C 1.6 km/h
2671 16-01-2015 23:05:00 5.1 C 6.36 g/m*3 5.1 C 1.6 km/h
2672 16-01-2015 23:10:00 5.1 C 6.36 g/m*3 5.1 C 1.6 km/h
2673 16-01-2015 23:15:00 4.9 C 6.28 g/m*3 4.9 C 0 km/h
2674 16-01-2015 23:20:00 4.9 C 6.28 g/m*3 4.9 C 0 km/h
2675 16-01-2015 23:25:00 4.8 C 6.24 g/m*3 4.8 C 0 km/h
Sensor: Nr:Datum:Temp:Abs-Feuchte:Windchill:Wind:
Aussen-T/F 2676 16-01-2015 23:30:00 4.8 C 6.3 g/m*3 4.8 C 0 km/h
2677 16-01-2015 23:35:00 4.8 C 6.3 g/m*3 4.8 C 0 km/h
2678 16-01-2015 23:40:00 4.8 C 6.3 g/m*3 4.8 C 1.6 km/h
2679 16-01-2015 23:45:00 4.9 C 6.35 g/m*3 4.9 C 0 km/h
2680 16-01-2015 23:50:00 4.9 C 6.35 g/m*3 4.9 C 3.2 km/h
2681 16-01-2015 23:55:00 4.9 C 6.35 g/m*3 4.9 C 1.6 km/h
2682 17-01-2015 00:00:00 4.9 C 6.35 g/m*3 4.9 C 1.6 km/h
2683 17-01-2015 00:05:00 4.9 C 6.35 g/m*3 4.9 C 4.8 km/h
2684 17-01-2015 00:10:00 4.9 C 6.35 g/m*3 4.9 C 0 km/h
2685 17-01-2015 00:15:00 5 C 6.32 g/m*3 5 C 1.6 km/h
2686 17-01-2015 00:20:00 5 C 6.32 g/m*3 5 C 3.2 km/h
2687 17-01-2015 00:25:00 5.1 C 6.36 g/m*3 5.1 C 1.6 km/h
2688 17-01-2015 00:30:00 5.1 C 6.36 g/m*3 5.1 C 1.6 km/h
2689 17-01-2015 00:35:00 5.1 C 6.36 g/m*3 5.1 C 4.8 km/h
2690 17-01-2015 00:40:00 5 C 6.25 g/m*3 5 C 3.2 km/h
2691 17-01-2015 00:45:00 4.9 C 6.21 g/m*3 4.9 C 3.2 km/h
2692 17-01-2015 00:50:00 4.8 C 6.17 g/m*3 4.8 C 3.2 km/h
2693 17-01-2015 00:55:00 4.8 C 6.17 g/m*3 4.8 C 1.6 km/h
2694 17-01-2015 01:00:00 4.8 C 6.24 g/m*3 4.8 C 0 km/h
2695 17-01-2015 01:05:00 4.8 C 6.24 g/m*3 4.8 C 1.6 km/h
2696 17-01-2015 01:10:00 4.7 C 6.19 g/m*3 4.7 C 0 km/h
2697 17-01-2015 01:15:00 4.7 C 6.19 g/m*3 4.7 C 3.2 km/h
2698 17-01-2015 01:20:00 4.7 C 6.19 g/m*3 4.7 C 0 km/h
2699 17-01-2015 01:25:00 4.6 C 6.15 g/m*3 4.6 C 0 km/h
2700 17-01-2015 01:30:00 4.6 C 6.15 g/m*3 4.6 C 3.2 km/h
Sensor: Nr:Datum:Temp:Abs-Feuchte:Windchill:Wind:
Aussen-T/F 2701 17-01-2015 01:35:00 4.6 C 6.15 g/m*3 4.6 C 4.8 km/h
2702 17-01-2015 01:40:00 4.6 C 6.09 g/m*3 4.6 C 0 km/h
2703 17-01-2015 01:45:00 4.6 C 6.09 g/m*3 4.6 C 0 km/h
2704 17-01-2015 01:50:00 4.6 C 6.09 g/m*3 4.6 C 1.6 km/h
2705 17-01-2015 01:55:00 4.6 C 6.09 g/m*3 4.6 C 3.2 km/h
2706 17-01-2015 02:00:00 4.6 C 6.02 g/m*3 4.6 C 1.6 km/h
2707 17-01-2015 02:05:00 4.6 C 6.09 g/m*3 4.6 C 0 km/h
2708 17-01-2015 02:10:00 4.5 C 6.05 g/m*3 4.5 C 4.8 km/h
2709 17-01-2015 02:15:00 4.5 C 6.05 g/m*3 4.5 C 1.6 km/h
2710 17-01-2015 02:20:00 4.6 C 6.02 g/m*3 3.13 C 6.4 km/h
2711 17-01-2015 02:25:00 4.7 C 6.06 g/m*3 4.7 C 3.2 km/h
2712 17-01-2015 02:30:00 4.7 C 6.06 g/m*3 4.7 C 4.8 km/h
2713 17-01-2015 02:35:00 4.9 C 6.14 g/m*3 4.9 C 4.8 km/h
2714 17-01-2015 02:40:00 4.9 C 6.08 g/m*3 4.9 C 4.8 km/h
2715 17-01-2015 02:45:00 5 C 6.12 g/m*3 3.59 C 6.4 km/h
2716 17-01-2015 02:50:00 5.1 C 6.16 g/m*3 3.71 C 6.4 km/h
2717 17-01-2015 02:55:00 5.1 C 6.16 g/m*3 5.1 C 4.8 km/h
2718 17-01-2015 03:00:00 5.1 C 6.16 g/m*3 5.1 C 4.8 km/h
2719 17-01-2015 03:05:00 5.1 C 6.16 g/m*3 5.1 C 4.8 km/h
2720 17-01-2015 03:10:00 5 C 6.12 g/m*3 3.11 C 8.1 km/h
2721 17-01-2015 03:15:00 5 C 6.12 g/m*3 3.11 C 8.1 km/h
2722 17-01-2015 03:20:00 5 C 6.12 g/m*3 3.59 C 6.4 km/h
2723 17-01-2015 03:25:00 5 C 6.18 g/m*3 3.59 C 6.4 km/h
2724 17-01-2015 03:30:00 5 C 6.18 g/m*3 2.72 C 9.7 km/h
2725 17-01-2015 03:35:00 5 C 6.12 g/m*3 3.11 C 8.1 km/h
Sensor: Nr:Datum:Temp:Abs-Feuchte:Windchill:Wind:
Aussen-T/F 2726 17-01-2015 03:40:00 5 C 6.12 g/m*3 3.59 C 6.4 km/h
2727 17-01-2015 03:45:00 5 C 6.12 g/m*3 2.72 C 9.7 km/h
2728 17-01-2015 03:50:00 5 C 6.12 g/m*3 5 C 4.8 km/h
2729 17-01-2015 03:55:00 5 C 6.12 g/m*3 3.11 C 8.1 km/h
2730 17-01-2015 04:00:00 5 C 6.18 g/m*3 5 C 4.8 km/h
2731 17-01-2015 04:05:00 5 C 6.18 g/m*3 5 C 4.8 km/h
2732 17-01-2015 04:10:00 4.9 C 6.14 g/m*3 4.9 C 4.8 km/h
2733 17-01-2015 04:15:00 4.9 C 6.14 g/m*3 4.9 C 4.8 km/h
2734 17-01-2015 04:20:00 4.9 C 6.14 g/m*3 4.9 C 3.2 km/h
2735 17-01-2015 04:25:00 4.9 C 6.14 g/m*3 4.9 C 3.2 km/h
2736 17-01-2015 04:30:00 4.9 C 6.14 g/m*3 4.9 C 3.2 km/h
2737 17-01-2015 04:35:00 4.9 C 6.14 g/m*3 4.9 C 4.8 km/h
2738 17-01-2015 04:40:00 4.9 C 6.14 g/m*3 4.9 C 1.6 km/h
2739 17-01-2015 04:45:00 4.8 C 6.1 g/m*3 4.8 C 3.2 km/h
2740 17-01-2015 04:50:00 4.9 C 6.14 g/m*3 4.9 C 1.6 km/h
2741 17-01-2015 04:55:00 4.9 C 6.08 g/m*3 4.9 C 0 km/h
2742 17-01-2015 05:00:00 4.9 C 6.14 g/m*3 4.9 C 1.6 km/h
2743 17-01-2015 05:05:00 4.9 C 6.14 g/m*3 4.9 C 0 km/h
2744 17-01-2015 05:10:00 4.9 C 6.14 g/m*3 4.9 C 0 km/h
2745 17-01-2015 05:15:00 4.8 C 6.1 g/m*3 4.8 C 0 km/h
2746 17-01-2015 05:20:00 4.8 C 6.17 g/m*3 4.8 C 1.6 km/h
2747 17-01-2015 05:25:00 4.7 C 6.13 g/m*3 3.25 C 6.4 km/h
2748 17-01-2015 05:30:00 4.6 C 6.09 g/m*3 4.6 C 1.6 km/h
2749 17-01-2015 05:35:00 4.6 C 6.09 g/m*3 4.6 C 1.6 km/h
2750 17-01-2015 05:40:00 4.5 C 6.11 g/m*3 4.5 C 3.2 km/h
Sensor: Nr:Datum:Temp:Abs-Feuchte:Windchill:Wind:
Aussen-T/F 2751 17-01-2015 05:45:00 4.4 C 6.07 g/m*3 4.4 C 3.2 km/h
2752 17-01-2015 05:50:00 4.4 C 6.07 g/m*3 4.4 C 4.8 km/h
2753 17-01-2015 05:55:00 4.3 C 6.1 g/m*3 4.3 C 4.8 km/h
2754 17-01-2015 06:00:00 4.3 C 6.1 g/m*3 4.3 C 4.8 km/h
2755 17-01-2015 06:05:00 4.3 C 6.1 g/m*3 4.3 C 1.6 km/h
2756 17-01-2015 06:10:00 4.3 C 6.1 g/m*3 4.3 C 1.6 km/h
2757 17-01-2015 06:15:00 4.2 C 6.06 g/m*3 4.2 C 1.6 km/h
2758 17-01-2015 06:20:00 4.1 C 6.02 g/m*3 4.1 C 1.6 km/h
2759 17-01-2015 06:25:00 4 C 5.98 g/m*3 4 C 1.6 km/h
2760 17-01-2015 06:30:00 3.9 C 6 g/m*3 3.9 C 1.6 km/h
2761 17-01-2015 06:35:00 3.9 C 6 g/m*3 3.9 C 3.2 km/h
2762 17-01-2015 06:40:00 3.9 C 6 g/m*3 3.9 C 3.2 km/h
2763 17-01-2015 06:45:00 3.9 C 6 g/m*3 3.9 C 3.2 km/h
2764 17-01-2015 06:50:00 3.9 C 6 g/m*3 3.9 C 3.2 km/h
2765 17-01-2015 06:55:00 3.8 C 5.96 g/m*3 3.8 C 4.8 km/h
2766 17-01-2015 07:00:00 3.7 C 5.92 g/m*3 3.7 C 3.2 km/h
2767 17-01-2015 07:05:00 3.6 C 5.88 g/m*3 3.6 C 1.6 km/h
2768 17-01-2015 07:10:00 3.5 C 5.84 g/m*3 3.5 C 0 km/h
2769 17-01-2015 07:15:00 3.4 C 5.8 g/m*3 3.4 C 0 km/h
2770 17-01-2015 07:20:00 3.3 C 5.76 g/m*3 3.3 C 4.8 km/h
2771 17-01-2015 07:25:00 3.3 C 5.76 g/m*3 3.3 C 3.2 km/h
2772 17-01-2015 07:30:00 3.2 C 5.79 g/m*3 3.2 C 4.8 km/h
2773 17-01-2015 07:35:00 3.2 C 5.79 g/m*3 3.2 C 4.8 km/h
2774 17-01-2015 07:40:00 3.1 C 5.75 g/m*3 3.1 C 1.6 km/h
2775 17-01-2015 07:45:00 2.9 C 5.61 g/m*3 2.9 C 3.2 km/h
Sensor: Nr:Datum:Temp:Abs-Feuchte:Windchill:Wind:
Aussen-T/F 2776 17-01-2015 07:50:00 2.8 C 5.57 g/m*3 2.8 C 3.2 km/h
2777 17-01-2015 07:55:00 2.7 C 5.54 g/m*3 2.7 C 4.8 km/h
2778 17-01-2015 08:00:00 2.7 C 5.59 g/m*3 2.7 C 4.8 km/h
2779 17-01-2015 08:05:00 2.6 C 5.56 g/m*3 0.82 C 6.4 km/h
2780 17-01-2015 08:10:00 2.6 C 5.56 g/m*3 2.6 C 4.8 km/h
2781 17-01-2015 08:15:00 2.5 C 5.52 g/m*3 2.5 C 4.8 km/h
2782 17-01-2015 08:20:00 2.5 C 5.52 g/m*3 2.5 C 4.8 km/h
2783 17-01-2015 08:25:00 2.5 C 5.52 g/m*3 2.5 C 3.2 km/h
2784 17-01-2015 08:30:00 2.4 C 5.48 g/m*3 2.4 C 3.2 km/h
2785 17-01-2015 08:35:00 2.4 C 5.48 g/m*3 2.4 C 0 km/h
2786 17-01-2015 08:40:00 2.3 C 5.44 g/m*3 2.3 C 4.8 km/h
2787 17-01-2015 08:45:00 2.3 C 5.44 g/m*3 0.47 C 6.4 km/h
2788 17-01-2015 08:50:00 2.4 C 5.48 g/m*3 2.4 C 4.8 km/h
2789 17-01-2015 08:55:00 2.4 C 5.48 g/m*3 2.4 C 3.2 km/h
2790 17-01-2015 09:00:00 2.3 C 5.44 g/m*3 2.3 C 0 km/h
2791 17-01-2015 09:05:00 2.3 C 5.44 g/m*3 2.3 C 0 km/h
2792 17-01-2015 09:10:00 2.3 C 5.44 g/m*3 2.3 C 0 km/h
2793 17-01-2015 09:15:00 2.3 C 5.44 g/m*3 2.3 C 3.2 km/h
2794 17-01-2015 09:20:00 2.3 C 5.44 g/m*3 2.3 C 3.2 km/h
2795 17-01-2015 09:25:00 2.3 C 5.44 g/m*3 2.3 C 0 km/h
2796 17-01-2015 09:30:00 2.3 C 5.44 g/m*3 2.3 C 0 km/h
2797 17-01-2015 09:35:00 2.3 C 5.44 g/m*3 2.3 C 0 km/h
2798 17-01-2015 09:40:00 2.3 C 5.44 g/m*3 2.3 C 0 km/h
2799 17-01-2015 09:45:00 2.3 C 5.5 g/m*3 2.3 C 0 km/h
2800 17-01-2015 09:50:00 2.3 C 5.44 g/m*3 2.3 C 0 km/h
Sensor: Nr:Datum:Temp:Abs-Feuchte:Windchill:Wind:
Aussen-T/F 2801 17-01-2015 09:55:00 2.4 C 5.54 g/m*3 2.4 C 0 km/h
2802 17-01-2015 10:00:00 2.4 C 5.54 g/m*3 2.4 C 0 km/h
2803 17-01-2015 10:05:00 2.5 C 5.58 g/m*3 2.5 C 0 km/h
2804 17-01-2015 10:10:00 2.6 C 5.61 g/m*3 2.6 C 0 km/h
2805 17-01-2015 10:15:00 2.7 C 5.65 g/m*3 2.7 C 4.8 km/h
2806 17-01-2015 10:20:00 2.8 C 5.69 g/m*3 2.8 C 4.8 km/h
2807 17-01-2015 10:25:00 2.8 C 5.69 g/m*3 2.8 C 3.2 km/h
2808 17-01-2015 10:30:00 2.8 C 5.69 g/m*3 2.8 C 1.6 km/h
2809 17-01-2015 10:35:00 2.8 C 5.69 g/m*3 2.8 C 3.2 km/h
2810 17-01-2015 10:40:00 2.9 C 5.73 g/m*3 1.17 C 6.4 km/h
2811 17-01-2015 10:45:00 2.9 C 5.73 g/m*3 2.9 C 1.6 km/h
2812 17-01-2015 10:50:00 2.9 C 5.67 g/m*3 2.9 C 4.8 km/h
2813 17-01-2015 10:55:00 2.9 C 5.67 g/m*3 2.9 C 4.8 km/h
2814 17-01-2015 11:00:00 2.9 C 5.67 g/m*3 2.9 C 1.6 km/h
2815 17-01-2015 11:05:00 2.9 C 5.67 g/m*3 2.9 C 3.2 km/h
2816 17-01-2015 11:10:00 3 C 5.71 g/m*3 3 C 4.8 km/h
2817 17-01-2015 11:15:00 3 C 5.71 g/m*3 3 C 3.2 km/h
2818 17-01-2015 11:20:00 3.1 C 5.75 g/m*3 3.1 C 1.6 km/h
2819 17-01-2015 11:25:00 3.2 C 5.85 g/m*3 3.2 C 0 km/h
2820 17-01-2015 11:30:00 3.3 C 5.82 g/m*3 3.3 C 0 km/h
2821 17-01-2015 11:35:00 3.3 C 5.82 g/m*3 3.3 C 1.6 km/h
2822 17-01-2015 11:40:00 3.4 C 5.86 g/m*3 1.75 C 6.4 km/h
2823 17-01-2015 11:45:00 3.5 C 5.9 g/m*3 1.86 C 6.4 km/h
2824 17-01-2015 11:50:00 3.6 C 5.94 g/m*3 3.6 C 4.8 km/h
2825 17-01-2015 11:55:00 3.6 C 5.88 g/m*3 3.6 C 3.2 km/h
Sensor: Nr:Datum:Temp:Abs-Feuchte:Windchill:Wind:
Aussen-T/F 2826 17-01-2015 12:00:00 3.7 C 5.92 g/m*3 3.7 C 3.2 km/h
2827 17-01-2015 12:05:00 3.7 C 5.86 g/m*3 3.7 C 4.8 km/h
2828 17-01-2015 12:10:00 3.8 C 5.83 g/m*3 3.8 C 3.2 km/h
2829 17-01-2015 12:15:00 3.8 C 5.83 g/m*3 3.8 C 4.8 km/h
2830 17-01-2015 12:20:00 3.9 C 5.81 g/m*3 3.9 C 1.6 km/h
2831 17-01-2015 12:25:00 4 C 5.85 g/m*3 4 C 4.8 km/h
2832 17-01-2015 12:30:00 4.1 C 5.82 g/m*3 4.1 C 1.6 km/h
2833 17-01-2015 12:35:00 4.2 C 5.86 g/m*3 4.2 C 3.2 km/h
2834 17-01-2015 12:40:00 4.2 C 5.8 g/m*3 4.2 C 1.6 km/h
2835 17-01-2015 12:45:00 4.2 C 5.73 g/m*3 4.2 C 4.8 km/h
2836 17-01-2015 12:50:00 4.3 C 5.77 g/m*3 4.3 C 1.6 km/h
2837 17-01-2015 12:55:00 4.3 C 5.71 g/m*3 4.3 C 1.6 km/h
2838 17-01-2015 13:00:00 4.4 C 5.81 g/m*3 4.4 C 1.6 km/h
2839 17-01-2015 13:05:00 4.4 C 5.75 g/m*3 4.4 C 1.6 km/h
2840 17-01-2015 13:10:00 4.4 C 5.75 g/m*3 4.4 C 3.2 km/h
2841 17-01-2015 13:15:00 4.5 C 5.78 g/m*3 4.5 C 1.6 km/h
2842 17-01-2015 13:20:00 4.6 C 5.76 g/m*3 4.6 C 3.2 km/h
2843 17-01-2015 13:25:00 4.8 C 5.7 g/m*3 4.8 C 4.8 km/h
2844 17-01-2015 13:30:00 4.9 C 5.67 g/m*3 4.9 C 1.6 km/h
2845 17-01-2015 13:35:00 5.1 C 5.68 g/m*3 3.71 C 6.4 km/h
2846 17-01-2015 13:40:00 5.2 C 5.58 g/m*3 5.2 C 4.8 km/h
2847 17-01-2015 13:45:00 5.3 C 5.68 g/m*3 3.94 C 6.4 km/h
2848 17-01-2015 13:50:00 5.3 C 5.61 g/m*3 5.3 C 1.6 km/h
2849 17-01-2015 13:55:00 5.3 C 5.61 g/m*3 5.3 C 4.8 km/h
2850 17-01-2015 14:00:00 5.3 C 5.54 g/m*3 2.75 C 11.3 km/h
Sensor: Nr:Datum:Temp:Abs-Feuchte:Windchill:Wind:
Aussen-T/F 2851 17-01-2015 14:05:00 5.4 C 5.51 g/m*3 5.4 C 4.8 km/h
2852 17-01-2015 14:10:00 5.4 C 5.51 g/m*3 4.06 C 6.4 km/h
2853 17-01-2015 14:15:00 5.5 C 5.55 g/m*3 3.7 C 8.1 km/h
2854 17-01-2015 14:20:00 5.6 C 5.66 g/m*3 5.6 C 3.2 km/h
2855 17-01-2015 14:25:00 5.6 C 5.66 g/m*3 3.81 C 8.1 km/h
2856 17-01-2015 14:30:00 5.6 C 5.73 g/m*3 5.6 C 1.6 km/h
2857 17-01-2015 14:35:00 5.6 C 5.66 g/m*3 5.6 C 4.8 km/h
2858 17-01-2015 14:40:00 5.6 C 5.73 g/m*3 4.29 C 6.4 km/h
2859 17-01-2015 14:45:00 5.5 C 5.62 g/m*3 3.7 C 8.1 km/h
2860 17-01-2015 14:50:00 5.5 C 5.48 g/m*3 5.5 C 3.2 km/h
2861 17-01-2015 14:55:00 5.6 C 5.59 g/m*3 5.6 C 4.8 km/h
2862 17-01-2015 15:00:00 5.6 C 5.66 g/m*3 5.6 C 4.8 km/h
2863 17-01-2015 15:05:00 5.6 C 5.59 g/m*3 5.6 C 4.8 km/h
2864 17-01-2015 15:10:00 5.6 C 5.59 g/m*3 4.29 C 6.4 km/h
2865 17-01-2015 15:15:00 5.6 C 5.66 g/m*3 4.29 C 6.4 km/h
2866 17-01-2015 15:20:00 5.6 C 5.73 g/m*3 5.6 C 4.8 km/h
2867 17-01-2015 15:25:00 5.6 C 5.8 g/m*3 5.6 C 1.6 km/h
2868 17-01-2015 15:30:00 5.5 C 5.62 g/m*3 4.17 C 6.4 km/h
2869 17-01-2015 15:35:00 5.4 C 5.65 g/m*3 5.4 C 0 km/h
2870 17-01-2015 15:40:00 5.4 C 5.58 g/m*3 5.4 C 3.2 km/h
2871 17-01-2015 15:45:00 5.4 C 5.58 g/m*3 5.4 C 1.6 km/h
2872 17-01-2015 15:50:00 5.4 C 5.72 g/m*3 5.4 C 0 km/h
2873 17-01-2015 15:55:00 5.3 C 5.75 g/m*3 5.3 C 0 km/h
2874 17-01-2015 16:00:00 5.2 C 5.78 g/m*3 5.2 C 0 km/h
2875 17-01-2015 16:05:00 5.2 C 5.85 g/m*3 5.2 C 0 km/h
Sensor: Nr:Datum:Temp:Abs-Feuchte:Windchill:Wind:
Aussen-T/F 2876 17-01-2015 16:10:00 5.1 C 5.75 g/m*3 5.1 C 1.6 km/h
2877 17-01-2015 16:15:00 5 C 5.64 g/m*3 5 C 0 km/h
2878 17-01-2015 16:20:00 5 C 5.71 g/m*3 5 C 0 km/h
2879 17-01-2015 16:25:00 4.9 C 5.67 g/m*3 4.9 C 3.2 km/h
2880 17-01-2015 16:30:00 4.8 C 5.77 g/m*3 4.8 C 3.2 km/h
2881 17-01-2015 16:35:00 4.8 C 5.83 g/m*3 4.8 C 1.6 km/h
2882 17-01-2015 16:40:00 4.7 C 5.8 g/m*3 4.7 C 3.2 km/h
2883 17-01-2015 16:45:00 4.4 C 5.75 g/m*3 4.4 C 3.2 km/h
2884 17-01-2015 16:50:00 4.2 C 5.73 g/m*3 4.2 C 3.2 km/h
2885 17-01-2015 16:55:00 3.9 C 5.62 g/m*3 3.9 C 3.2 km/h
2886 17-01-2015 17:00:00 3.6 C 5.57 g/m*3 3.6 C 3.2 km/h
2887 17-01-2015 17:05:00 3.3 C 5.46 g/m*3 3.3 C 3.2 km/h
2888 17-01-2015 17:10:00 3.2 C 5.48 g/m*3 3.2 C 3.2 km/h
2889 17-01-2015 17:15:00 2.9 C 5.37 g/m*3 2.9 C 3.2 km/h
2890 17-01-2015 17:20:00 2.8 C 5.34 g/m*3 2.8 C 4.8 km/h
2891 17-01-2015 17:25:00 2.7 C 5.36 g/m*3 2.7 C 3.2 km/h
2892 17-01-2015 17:30:00 2.6 C 5.32 g/m*3 2.6 C 4.8 km/h
2893 17-01-2015 17:35:00 2.5 C 5.29 g/m*3 2.5 C 3.2 km/h
2894 17-01-2015 17:40:00 2.4 C 5.25 g/m*3 0.59 C 6.4 km/h
2895 17-01-2015 17:45:00 2.3 C 5.27 g/m*3 2.3 C 3.2 km/h
2896 17-01-2015 17:50:00 2.2 C 5.24 g/m*3 2.2 C 3.2 km/h
2897 17-01-2015 17:55:00 2.2 C 5.24 g/m*3 2.2 C 3.2 km/h
2898 17-01-2015 18:00:00 2.1 C 5.2 g/m*3 2.1 C 1.6 km/h
2899 17-01-2015 18:05:00 1.9 C 5.13 g/m*3 1.9 C 3.2 km/h
2900 17-01-2015 18:10:00 1.9 C 5.13 g/m*3 1.9 C 1.6 km/h
Sensor: Nr:Datum:Temp:Abs-Feuchte:Windchill:Wind:
Aussen-T/F 2901 17-01-2015 18:15:00 1.9 C 5.19 g/m*3 1.9 C 1.6 km/h
2902 17-01-2015 18:20:00 1.8 C 5.15 g/m*3 1.8 C 1.6 km/h
2903 17-01-2015 18:25:00 1.8 C 5.15 g/m*3 1.8 C 3.2 km/h
2904 17-01-2015 18:30:00 1.7 C 5.12 g/m*3 1.7 C 3.2 km/h
2905 17-01-2015 18:35:00 1.7 C 5.12 g/m*3 1.7 C 1.6 km/h
2906 17-01-2015 18:40:00 1.7 C 5.12 g/m*3 1.7 C 1.6 km/h
2907 17-01-2015 18:45:00 1.6 C 5.08 g/m*3 1.6 C 0 km/h
2908 17-01-2015 18:50:00 1.4 C 5.01 g/m*3 1.4 C 1.6 km/h
2909 17-01-2015 18:55:00 1.3 C 4.98 g/m*3 1.3 C 0 km/h
2910 17-01-2015 19:00:00 1.3 C 4.98 g/m*3 1.3 C 0 km/h
2911 17-01-2015 19:05:00 1.2 C 4.95 g/m*3 1.2 C 0 km/h
2912 17-01-2015 19:10:00 1.1 C 4.91 g/m*3 1.1 C 1.6 km/h
2913 17-01-2015 19:15:00 1 C 4.88 g/m*3 1 C 0 km/h
2914 17-01-2015 19:20:00 0.9 C 4.85 g/m*3 0.9 C 0 km/h
2915 17-01-2015 19:25:00 0.9 C 4.85 g/m*3 0.9 C 0 km/h
2916 17-01-2015 19:30:00 0.8 C 4.81 g/m*3 0.8 C 0 km/h
2917 17-01-2015 19:35:00 0.8 C 4.81 g/m*3 0.8 C 0 km/h
2918 17-01-2015 19:40:00 0.7 C 4.83 g/m*3 0.7 C 0 km/h
2919 17-01-2015 19:45:00 0.7 C 4.83 g/m*3 0.7 C 0 km/h
2920 17-01-2015 19:50:00 0.7 C 4.83 g/m*3 0.7 C 0 km/h
2921 17-01-2015 19:55:00 0.7 C 4.83 g/m*3 0.7 C 3.2 km/h
2922 17-01-2015 20:00:00 0.7 C 4.83 g/m*3 0.7 C 3.2 km/h
2923 17-01-2015 20:05:00 0.7 C 4.83 g/m*3 0.7 C 1.6 km/h
2924 17-01-2015 20:10:00 0.7 C 4.83 g/m*3 0.7 C 0 km/h
2925 17-01-2015 20:15:00 0.6 C 4.8 g/m*3 0.6 C 0 km/h
Sensor: Nr:Datum:Temp:Abs-Feuchte:Windchill:Wind:
Aussen-T/F 2926 17-01-2015 20:20:00 0.5 C 4.76 g/m*3 0.5 C 0 km/h
2927 17-01-2015 20:25:00 0.5 C 4.76 g/m*3 0.5 C 1.6 km/h
2928 17-01-2015 20:30:00 0.4 C 4.73 g/m*3 0.4 C 0 km/h
2929 17-01-2015 20:35:00 0.4 C 4.73 g/m*3 0.4 C 0 km/h
2930 17-01-2015 20:40:00 0.4 C 4.73 g/m*3 0.4 C 0 km/h
2931 17-01-2015 20:45:00 0.4 C 4.73 g/m*3 0.4 C 0 km/h
2932 17-01-2015 20:50:00 0.4 C 4.73 g/m*3 0.4 C 1.6 km/h
2933 17-01-2015 20:55:00 0.4 C 4.73 g/m*3 0.4 C 0 km/h
2934 17-01-2015 21:00:00 0.3 C 4.7 g/m*3 0.3 C 0 km/h
2935 17-01-2015 21:05:00 0.2 C 4.67 g/m*3 0.2 C 0 km/h
2936 17-01-2015 21:10:00 0.2 C 4.67 g/m*3 0.2 C 0 km/h
2937 17-01-2015 21:15:00 0.1 C 4.63 g/m*3 0.1 C 1.6 km/h
2938 17-01-2015 21:20:00 0.1 C 4.63 g/m*3 0.1 C 0 km/h
2939 17-01-2015 21:25:00 0.1 C 4.63 g/m*3 0.1 C 0 km/h
2940 17-01-2015 21:30:00 0.1 C 4.63 g/m*3 0.1 C 3.2 km/h
2941 17-01-2015 21:35:00 0.1 C 4.63 g/m*3 0.1 C 3.2 km/h
2942 17-01-2015 21:40:00 0.1 C 4.63 g/m*3 0.1 C 1.6 km/h
2943 17-01-2015 21:45:00 0.1 C 4.63 g/m*3 0.1 C 0 km/h
2944 17-01-2015 21:50:00 0 C 4.6 g/m*3 0 C 1.6 km/h
2945 17-01-2015 21:55:00 -0.1 C 4.57 g/m*3 -0.1 C 0 km/h
2946 17-01-2015 22:00:00 -0.2 C 4.54 g/m*3 -0.2 C 1.6 km/h
2947 17-01-2015 22:05:00 -0.2 C 4.54 g/m*3 -0.2 C 1.6 km/h
2948 17-01-2015 22:10:00 -0.1 C 4.57 g/m*3 -0.1 C 3.2 km/h
2949 17-01-2015 22:15:00 -0.1 C 4.57 g/m*3 -0.1 C 1.6 km/h
2950 17-01-2015 22:20:00 0.1 C 4.68 g/m*3 0.1 C 1.6 km/h
Sensor: Nr:Datum:Temp:Abs-Feuchte:Windchill:Wind:
Aussen-T/F 2951 17-01-2015 22:25:00 0.1 C 4.68 g/m*3 0.1 C 3.2 km/h
2952 17-01-2015 22:30:00 0.3 C 4.75 g/m*3 0.3 C 4.8 km/h
2953 17-01-2015 22:35:00 0.6 C 4.85 g/m*3 0.6 C 3.2 km/h
2954 17-01-2015 22:40:00 1 C 4.93 g/m*3 -2.78 C 12.9 km/h
2955 17-01-2015 22:45:00 1.4 C 5.01 g/m*3 -1.12 C 8.1 km/h
2956 17-01-2015 22:50:00 1.7 C 5.01 g/m*3 -0.22 C 6.4 km/h
2957 17-01-2015 22:55:00 1.9 C 4.97 g/m*3 -1.35 C 11.3 km/h
2958 17-01-2015 23:00:00 2.1 C 4.98 g/m*3 -0.73 C 9.7 km/h
2959 17-01-2015 23:05:00 2.1 C 4.92 g/m*3 2.1 C 3.2 km/h
2960 17-01-2015 23:10:00 2.2 C 4.96 g/m*3 -0.18 C 8.1 km/h
2961 17-01-2015 23:15:00 2.2 C 4.9 g/m*3 -0.61 C 9.7 km/h
2962 17-01-2015 23:20:00 2.2 C 4.9 g/m*3 -0.61 C 9.7 km/h
2963 17-01-2015 23:25:00 2.3 C 4.93 g/m*3 -0.87 C 11.3 km/h
2964 17-01-2015 23:30:00 2.4 C 4.91 g/m*3 -0.37 C 9.7 km/h
2965 17-01-2015 23:35:00 2.4 C 4.91 g/m*3 0.59 C 6.4 km/h
2966 17-01-2015 23:40:00 2.4 C 4.91 g/m*3 -0.74 C 11.3 km/h
2967 17-01-2015 23:45:00 2.4 C 4.85 g/m*3 -0.37 C 9.7 km/h
2968 17-01-2015 23:50:00 2.4 C 4.85 g/m*3 -0.37 C 9.7 km/h
2969 17-01-2015 23:55:00 2.4 C 4.85 g/m*3 -0.37 C 9.7 km/h
2970 18-01-2015 00:00:00 2.4 C 4.85 g/m*3 0.59 C 6.4 km/h
2971 18-01-2015 00:05:00 2.3 C 4.76 g/m*3 2.3 C 4.8 km/h
2972 18-01-2015 00:10:00 2.3 C 4.76 g/m*3 -0.49 C 9.7 km/h
2973 18-01-2015 00:15:00 2.2 C 4.73 g/m*3 -0.61 C 9.7 km/h
2974 18-01-2015 00:20:00 2.2 C 4.73 g/m*3 -0.99 C 11.3 km/h
2975 18-01-2015 00:25:00 2.2 C 4.73 g/m*3 -0.99 C 11.3 km/h
Sensor: Nr:Datum:Temp:Abs-Feuchte:Windchill:Wind:
Aussen-T/F 2976 18-01-2015 00:30:00 2.1 C 4.7 g/m*3 2.1 C 4.8 km/h
2977 18-01-2015 00:35:00 1.8 C 4.66 g/m*3 -0.1 C 6.4 km/h
2978 18-01-2015 00:40:00 1.7 C 4.63 g/m*3 1.7 C 4.8 km/h
2979 18-01-2015 00:45:00 1.7 C 4.63 g/m*3 1.7 C 4.8 km/h
2980 18-01-2015 00:50:00 1.6 C 4.65 g/m*3 1.6 C 4.8 km/h
2981 18-01-2015 00:55:00 1.6 C 4.65 g/m*3 1.6 C 3.2 km/h
2982 18-01-2015 01:00:00 1.5 C 4.62 g/m*3 1.5 C 4.8 km/h
2983 18-01-2015 01:05:00 1.6 C 4.65 g/m*3 -0.33 C 6.4 km/h
2984 18-01-2015 01:10:00 1.4 C 4.59 g/m*3 1.4 C 3.2 km/h
2985 18-01-2015 01:15:00 1.2 C 4.63 g/m*3 1.2 C 3.2 km/h
2986 18-01-2015 01:20:00 1.1 C 4.6 g/m*3 1.1 C 1.6 km/h
2987 18-01-2015 01:25:00 1.1 C 4.65 g/m*3 1.1 C 1.6 km/h
2988 18-01-2015 01:30:00 1.1 C 4.65 g/m*3 -1.48 C 8.1 km/h
2989 18-01-2015 01:35:00 1.3 C 4.72 g/m*3 1.3 C 4.8 km/h
2990 18-01-2015 01:40:00 1.7 C 4.74 g/m*3 1.7 C 4.8 km/h
2991 18-01-2015 01:45:00 1.8 C 4.71 g/m*3 1.8 C 4.8 km/h
2992 18-01-2015 01:50:00 2 C 4.72 g/m*3 -1.23 C 11.3 km/h
2993 18-01-2015 01:55:00 2.1 C 4.76 g/m*3 -0.3 C 8.1 km/h
2994 18-01-2015 02:00:00 2.1 C 4.76 g/m*3 0.24 C 6.4 km/h
2995 18-01-2015 02:05:00 2.2 C 4.79 g/m*3 2.2 C 4.8 km/h
2996 18-01-2015 02:10:00 2.2 C 4.73 g/m*3 0.36 C 6.4 km/h
2997 18-01-2015 02:15:00 2.2 C 4.73 g/m*3 2.2 C 4.8 km/h
2998 18-01-2015 02:20:00 2.2 C 4.73 g/m*3 0.36 C 6.4 km/h
2999 18-01-2015 02:25:00 2.3 C 4.76 g/m*3 -0.07 C 8.1 km/h
3000 18-01-2015 02:30:00 2.4 C 4.8 g/m*3 -0.74 C 11.3 km/h
Sensor: Nr:Datum:Temp:Abs-Feuchte:Windchill:Wind:
Aussen-T/F 3001 18-01-2015 02:35:00 2.4 C 4.74 g/m*3 0.59 C 6.4 km/h
3002 18-01-2015 02:40:00 2.4 C 4.8 g/m*3 -0.37 C 9.7 km/h
3003 18-01-2015 02:45:00 2.5 C 4.77 g/m*3 0.71 C 6.4 km/h
3004 18-01-2015 02:50:00 2.6 C 4.8 g/m*3 -1.87 C 19.3 km/h
3005 18-01-2015 02:55:00 2.7 C 4.78 g/m*3 -1.74 C 19.3 km/h
3006 18-01-2015 03:00:00 2.7 C 4.78 g/m*3 -0.38 C 11.3 km/h
3007 18-01-2015 03:05:00 2.7 C 4.78 g/m*3 -0.02 C 9.7 km/h
3008 18-01-2015 03:10:00 2.7 C 4.78 g/m*3 -0.71 C 12.9 km/h
3009 18-01-2015 03:15:00 2.6 C 4.75 g/m*3 2.6 C 4.8 km/h
3010 18-01-2015 03:20:00 2.6 C 4.75 g/m*3 0.29 C 8.1 km/h
3011 18-01-2015 03:25:00 2.6 C 4.69 g/m*3 -0.14 C 9.7 km/h
3012 18-01-2015 03:30:00 2.6 C 4.75 g/m*3 0.29 C 8.1 km/h
3013 18-01-2015 03:35:00 2.6 C 4.75 g/m*3 0.82 C 6.4 km/h
3014 18-01-2015 03:40:00 2.6 C 4.69 g/m*3 -0.5 C 11.3 km/h
3015 18-01-2015 03:45:00 2.6 C 4.69 g/m*3 2.6 C 4.8 km/h
3016 18-01-2015 03:50:00 2.6 C 4.69 g/m*3 2.6 C 4.8 km/h
3017 18-01-2015 03:55:00 2.6 C 4.69 g/m*3 0.82 C 6.4 km/h
3018 18-01-2015 04:00:00 2.6 C 4.69 g/m*3 2.6 C 1.6 km/h
3019 18-01-2015 04:05:00 2.6 C 4.63 g/m*3 0.29 C 8.1 km/h
3020 18-01-2015 04:10:00 2.6 C 4.69 g/m*3 2.6 C 3.2 km/h
3021 18-01-2015 04:15:00 2.6 C 4.63 g/m*3 -0.5 C 11.3 km/h
3022 18-01-2015 04:20:00 2.6 C 4.57 g/m*3 0.29 C 8.1 km/h
3023 18-01-2015 04:25:00 2.6 C 4.57 g/m*3 -0.14 C 9.7 km/h
3024 18-01-2015 04:30:00 2.6 C 4.57 g/m*3 2.6 C 3.2 km/h
3025 18-01-2015 04:35:00 2.4 C 4.62 g/m*3 2.4 C 4.8 km/h
Sensor: Nr:Datum:Temp:Abs-Feuchte:Windchill:Wind:
Aussen-T/F 3026 18-01-2015 04:40:00 2.3 C 4.59 g/m*3 2.3 C 0 km/h
3027 18-01-2015 04:45:00 2.2 C 4.62 g/m*3 2.2 C 1.6 km/h
3028 18-01-2015 04:50:00 1.9 C 4.58 g/m*3 1.9 C 0 km/h
3029 18-01-2015 04:55:00 1.7 C 4.63 g/m*3 1.7 C 1.6 km/h
3030 18-01-2015 05:00:00 1.5 C 4.62 g/m*3 1.5 C 0 km/h
3031 18-01-2015 05:05:00 1.3 C 4.61 g/m*3 1.3 C 3.2 km/h
3032 18-01-2015 05:10:00 1.2 C 4.58 g/m*3 1.2 C 3.2 km/h
3033 18-01-2015 05:15:00 1.1 C 4.6 g/m*3 1.1 C 3.2 km/h
3034 18-01-2015 05:20:00 0.9 C 4.59 g/m*3 0.9 C 3.2 km/h
3035 18-01-2015 05:25:00 0.8 C 4.56 g/m*3 0.8 C 1.6 km/h
3036 18-01-2015 05:30:00 0.7 C 4.58 g/m*3 0.7 C 1.6 km/h
3037 18-01-2015 05:35:00 0.6 C 4.54 g/m*3 0.6 C 1.6 km/h
3038 18-01-2015 05:40:00 0.6 C 4.54 g/m*3 0.6 C 3.2 km/h
3039 18-01-2015 05:45:00 0.5 C 4.56 g/m*3 0.5 C 1.6 km/h
3040 18-01-2015 05:50:00 0.5 C 4.56 g/m*3 0.5 C 0 km/h
3041 18-01-2015 05:55:00 0.5 C 4.56 g/m*3 0.5 C 1.6 km/h
3042 18-01-2015 06:00:00 0.5 C 4.56 g/m*3 0.5 C 1.6 km/h
3043 18-01-2015 06:05:00 0.5 C 4.56 g/m*3 0.5 C 3.2 km/h
3044 18-01-2015 06:10:00 0.5 C 4.56 g/m*3 0.5 C 3.2 km/h
3045 18-01-2015 06:15:00 0.4 C 4.53 g/m*3 0.4 C 3.2 km/h
3046 18-01-2015 06:20:00 0.5 C 4.56 g/m*3 0.5 C 1.6 km/h
3047 18-01-2015 06:25:00 0.4 C 4.53 g/m*3 0.4 C 3.2 km/h
3048 18-01-2015 06:30:00 0.4 C 4.53 g/m*3 0.4 C 3.2 km/h
3049 18-01-2015 06:35:00 0.6 C 4.6 g/m*3 0.6 C 3.2 km/h
3050 18-01-2015 06:40:00 0.7 C 4.58 g/m*3 0.7 C 1.6 km/h
Sensor: Nr:Datum:Temp:Abs-Feuchte:Windchill:Wind:
Aussen-T/F 3051 18-01-2015 06:45:00 0.8 C 4.56 g/m*3 -1.26 C 6.4 km/h
3052 18-01-2015 06:50:00 0.9 C 4.59 g/m*3 0.9 C 4.8 km/h
3053 18-01-2015 06:55:00 1 C 4.62 g/m*3 1 C 4.8 km/h
3054 18-01-2015 07:00:00 1 C 4.57 g/m*3 1 C 3.2 km/h
3055 18-01-2015 07:05:00 1 C 4.62 g/m*3 1 C 0 km/h
3056 18-01-2015 07:10:00 1 C 4.62 g/m*3 1 C 1.6 km/h
3057 18-01-2015 07:15:00 0.9 C 4.59 g/m*3 0.9 C 0 km/h
3058 18-01-2015 07:20:00 0.9 C 4.59 g/m*3 0.9 C 0 km/h
3059 18-01-2015 07:25:00 1.1 C 4.65 g/m*3 1.1 C 1.6 km/h
3060 18-01-2015 07:30:00 1.2 C 4.63 g/m*3 1.2 C 3.2 km/h
3061 18-01-2015 07:35:00 1.2 C 4.63 g/m*3 1.2 C 3.2 km/h
3062 18-01-2015 07:40:00 1.2 C 4.63 g/m*3 1.2 C 0 km/h
3063 18-01-2015 07:45:00 1.3 C 4.61 g/m*3 1.3 C 1.6 km/h
3064 18-01-2015 07:50:00 1.3 C 4.61 g/m*3 1.3 C 1.6 km/h
3065 18-01-2015 07:55:00 1.3 C 4.61 g/m*3 1.3 C 1.6 km/h
3066 18-01-2015 08:00:00 1.3 C 4.61 g/m*3 1.3 C 1.6 km/h
3067 18-01-2015 08:05:00 1.3 C 4.56 g/m*3 1.3 C 4.8 km/h
3068 18-01-2015 08:10:00 1.4 C 4.59 g/m*3 1.4 C 0 km/h
3069 18-01-2015 08:15:00 1.3 C 4.56 g/m*3 1.3 C 1.6 km/h
3070 18-01-2015 08:20:00 1.3 C 4.56 g/m*3 1.3 C 3.2 km/h
3071 18-01-2015 08:25:00 1.3 C 4.56 g/m*3 1.3 C 3.2 km/h
3072 18-01-2015 08:30:00 1.3 C 4.56 g/m*3 1.3 C 3.2 km/h
3073 18-01-2015 08:35:00 1.4 C 4.59 g/m*3 1.4 C 4.8 km/h
3074 18-01-2015 08:40:00 1.4 C 4.59 g/m*3 1.4 C 1.6 km/h
3075 18-01-2015 08:45:00 1.4 C 4.59 g/m*3 1.4 C 0 km/h
Sensor: Nr:Datum:Temp:Abs-Feuchte:Windchill:Wind:
Aussen-T/F 3076 18-01-2015 08:50:00 1.3 C 4.61 g/m*3 1.3 C 0 km/h
3077 18-01-2015 08:55:00 1.4 C 4.59 g/m*3 -0.56 C 6.4 km/h
3078 18-01-2015 09:00:00 1.4 C 4.64 g/m*3 1.4 C 0 km/h
3079 18-01-2015 09:05:00 1.3 C 4.66 g/m*3 1.3 C 1.6 km/h
3080 18-01-2015 09:10:00 1.3 C 4.61 g/m*3 1.3 C 3.2 km/h
3081 18-01-2015 09:15:00 1.3 C 4.61 g/m*3 1.3 C 1.6 km/h
3082 18-01-2015 09:20:00 1.3 C 4.66 g/m*3 1.3 C 1.6 km/h
3083 18-01-2015 09:25:00 1.4 C 4.69 g/m*3 1.4 C 0 km/h
3084 18-01-2015 09:30:00 1.4 C 4.64 g/m*3 1.4 C 0 km/h
3085 18-01-2015 09:35:00 1.6 C 4.7 g/m*3 1.6 C 1.6 km/h
3086 18-01-2015 09:40:00 1.7 C 4.68 g/m*3 1.7 C 1.6 km/h
3087 18-01-2015 09:45:00 1.8 C 4.66 g/m*3 1.8 C 0 km/h
3088 18-01-2015 09:50:00 2.1 C 4.7 g/m*3 2.1 C 1.6 km/h
3089 18-01-2015 09:55:00 2.2 C 4.73 g/m*3 2.2 C 3.2 km/h
3090 18-01-2015 10:00:00 2.3 C 4.71 g/m*3 2.3 C 1.6 km/h
3091 18-01-2015 10:05:00 2.4 C 4.74 g/m*3 2.4 C 4.8 km/h
3092 18-01-2015 10:10:00 2.6 C 4.75 g/m*3 2.6 C 1.6 km/h
3093 18-01-2015 10:15:00 2.7 C 4.78 g/m*3 0.4 C 8.1 km/h
3094 18-01-2015 10:20:00 2.9 C 4.72 g/m*3 2.9 C 4.8 km/h
3095 18-01-2015 10:25:00 3.1 C 4.73 g/m*3 3.1 C 3.2 km/h
3096 18-01-2015 10:30:00 3.3 C 4.79 g/m*3 1.63 C 6.4 km/h
3097 18-01-2015 10:35:00 3.4 C 4.83 g/m*3 3.4 C 3.2 km/h
3098 18-01-2015 10:40:00 3.5 C 4.8 g/m*3 1.86 C 6.4 km/h
3099 18-01-2015 10:45:00 3.7 C 4.86 g/m*3 3.7 C 4.8 km/h
3100 18-01-2015 10:50:00 3.8 C 4.83 g/m*3 3.8 C 1.6 km/h
Sensor: Nr:Datum:Temp:Abs-Feuchte:Windchill:Wind:
Aussen-T/F 3101 18-01-2015 10:55:00 3.9 C 4.86 g/m*3 3.9 C 3.2 km/h
3102 18-01-2015 11:00:00 4 C 4.77 g/m*3 1.93 C 8.1 km/h
3103 18-01-2015 11:05:00 4.2 C 4.83 g/m*3 4.2 C 4.8 km/h
3104 18-01-2015 11:10:00 4.2 C 4.83 g/m*3 1.12 C 12.9 km/h
3105 18-01-2015 11:15:00 4.3 C 4.86 g/m*3 4.3 C 3.2 km/h
3106 18-01-2015 11:20:00 4.3 C 4.8 g/m*3 4.3 C 4.8 km/h
3107 18-01-2015 11:25:00 4.4 C 4.83 g/m*3 4.4 C 4.8 km/h
3108 18-01-2015 11:30:00 4.4 C 4.83 g/m*3 2.4 C 8.1 km/h
3109 18-01-2015 11:35:00 4.5 C 4.86 g/m*3 4.5 C 4.8 km/h
3110 18-01-2015 11:40:00 4.6 C 4.9 g/m*3 3.13 C 6.4 km/h
3111 18-01-2015 11:45:00 4.7 C 4.93 g/m*3 4.7 C 3.2 km/h
3112 18-01-2015 11:50:00 4.8 C 4.96 g/m*3 4.8 C 3.2 km/h
3113 18-01-2015 11:55:00 4.9 C 4.93 g/m*3 4.9 C 4.8 km/h
3114 18-01-2015 12:00:00 5 C 4.96 g/m*3 3.11 C 8.1 km/h
3115 18-01-2015 12:05:00 5.1 C 4.92 g/m*3 3.71 C 6.4 km/h
3116 18-01-2015 12:10:00 5.2 C 5.03 g/m*3 3.82 C 6.4 km/h
3117 18-01-2015 12:15:00 5.2 C 4.96 g/m*3 5.2 C 4.8 km/h
3118 18-01-2015 12:20:00 5.2 C 4.89 g/m*3 3.34 C 8.1 km/h
3119 18-01-2015 12:25:00 5.2 C 4.89 g/m*3 2.63 C 11.3 km/h
3120 18-01-2015 12:30:00 5.2 C 4.89 g/m*3 3.82 C 6.4 km/h
3121 18-01-2015 12:35:00 5.2 C 4.82 g/m*3 3.34 C 8.1 km/h
3122 18-01-2015 12:40:00 5.2 C 4.82 g/m*3 3.34 C 8.1 km/h
3123 18-01-2015 12:45:00 5.2 C 4.82 g/m*3 2.63 C 11.3 km/h
3124 18-01-2015 12:50:00 5.2 C 4.89 g/m*3 3.34 C 8.1 km/h
3125 18-01-2015 12:55:00 5.2 C 4.89 g/m*3 2.63 C 11.3 km/h
Sensor: Nr:Datum:Temp:Abs-Feuchte:Windchill:Wind:
Aussen-T/F 3126 18-01-2015 13:00:00 5.2 C 4.89 g/m*3 3.34 C 8.1 km/h
3127 18-01-2015 13:05:00 5.2 C 4.96 g/m*3 5.2 C 3.2 km/h
3128 18-01-2015 13:10:00 5.3 C 4.85 g/m*3 3.46 C 8.1 km/h
3129 18-01-2015 13:15:00 5.3 C 4.85 g/m*3 3.94 C 6.4 km/h
3130 18-01-2015 13:20:00 5.3 C 4.85 g/m*3 3.46 C 8.1 km/h
3131 18-01-2015 13:25:00 5.3 C 4.92 g/m*3 5.3 C 4.8 km/h
3132 18-01-2015 13:30:00 5.3 C 4.99 g/m*3 3.94 C 6.4 km/h
3133 18-01-2015 13:35:00 5.4 C 4.95 g/m*3 5.4 C 4.8 km/h
3134 18-01-2015 13:40:00 5.4 C 4.88 g/m*3 5.4 C 1.6 km/h
3135 18-01-2015 13:45:00 5.4 C 4.88 g/m*3 3.2 C 9.7 km/h
3136 18-01-2015 13:50:00 5.5 C 5.06 g/m*3 5.5 C 3.2 km/h
3137 18-01-2015 13:55:00 5.6 C 4.95 g/m*3 3.44 C 9.7 km/h
3138 18-01-2015 14:00:00 5.5 C 5.06 g/m*3 4.17 C 6.4 km/h
3139 18-01-2015 14:05:00 5.4 C 5.02 g/m*3 5.4 C 3.2 km/h
3140 18-01-2015 14:10:00 5.4 C 5.02 g/m*3 5.4 C 4.8 km/h
3141 18-01-2015 14:15:00 5.4 C 5.16 g/m*3 3.58 C 8.1 km/h
3142 18-01-2015 14:20:00 5.3 C 5.06 g/m*3 3.46 C 8.1 km/h
3143 18-01-2015 14:25:00 5.2 C 5.03 g/m*3 5.2 C 4.8 km/h
3144 18-01-2015 14:30:00 5.2 C 5.1 g/m*3 3.82 C 6.4 km/h
3145 18-01-2015 14:35:00 5.1 C 5.06 g/m*3 5.1 C 4.8 km/h
3146 18-01-2015 14:40:00 5.1 C 5.06 g/m*3 5.1 C 3.2 km/h
3147 18-01-2015 14:45:00 5 C 5.03 g/m*3 5 C 4.8 km/h
3148 18-01-2015 14:50:00 5 C 5.03 g/m*3 5 C 1.6 km/h
3149 18-01-2015 14:55:00 5 C 5.03 g/m*3 5 C 4.8 km/h
3150 18-01-2015 15:00:00 4.9 C 5 g/m*3 4.9 C 3.2 km/h
Sensor: Nr:Datum:Temp:Abs-Feuchte:Windchill:Wind:
Aussen-T/F 3151 18-01-2015 15:05:00 4.9 C 5.06 g/m*3 4.9 C 3.2 km/h
3152 18-01-2015 15:10:00 4.9 C 5.06 g/m*3 4.9 C 1.6 km/h
3153 18-01-2015 15:15:00 4.9 C 5.06 g/m*3 4.9 C 1.6 km/h
3154 18-01-2015 15:20:00 4.8 C 5.03 g/m*3 4.8 C 1.6 km/h
3155 18-01-2015 15:25:00 4.8 C 5.03 g/m*3 4.8 C 3.2 km/h
3156 18-01-2015 15:30:00 4.8 C 5.03 g/m*3 4.8 C 1.6 km/h
3157 18-01-2015 15:35:00 4.7 C 5.06 g/m*3 4.7 C 0 km/h
3158 18-01-2015 15:40:00 4.7 C 5.06 g/m*3 4.7 C 1.6 km/h
3159 18-01-2015 15:45:00 4.6 C 5.29 g/m*3 4.6 C 0 km/h
3160 18-01-2015 15:50:00 4.5 C 5.13 g/m*3 4.5 C 0 km/h
3161 18-01-2015 15:55:00 4.4 C 5.09 g/m*3 4.4 C 0 km/h
3162 18-01-2015 16:00:00 4.3 C 5.12 g/m*3 4.3 C 3.2 km/h
3163 18-01-2015 16:05:00 4.2 C 5.15 g/m*3 4.2 C 0 km/h
3164 18-01-2015 16:10:00 4 C 5.09 g/m*3 4 C 0 km/h
3165 18-01-2015 16:15:00 3.8 C 5.08 g/m*3 3.8 C 0 km/h
3166 18-01-2015 16:20:00 3.7 C 5.11 g/m*3 3.7 C 0 km/h
3167 18-01-2015 16:25:00 3.5 C 5.04 g/m*3 3.5 C 0 km/h
3168 18-01-2015 16:30:00 3.3 C 5.04 g/m*3 3.3 C 3.2 km/h
3169 18-01-2015 16:35:00 3.1 C 4.97 g/m*3 3.1 C 0 km/h
3170 18-01-2015 16:40:00 2.9 C 4.9 g/m*3 2.9 C 3.2 km/h
3171 18-01-2015 16:45:00 2.8 C 4.87 g/m*3 2.8 C 3.2 km/h
3172 18-01-2015 16:50:00 2.6 C 4.86 g/m*3 2.6 C 1.6 km/h
3173 18-01-2015 16:55:00 2.3 C 4.82 g/m*3 2.3 C 3.2 km/h
3174 18-01-2015 17:00:00 2.1 C 4.76 g/m*3 2.1 C 3.2 km/h
3175 18-01-2015 17:05:00 1.9 C 4.75 g/m*3 1.9 C 4.8 km/h
Sensor: Nr:Datum:Temp:Abs-Feuchte:Windchill:Wind:
Aussen-T/F 3176 18-01-2015 17:10:00 1.8 C 4.77 g/m*3 1.8 C 3.2 km/h
3177 18-01-2015 17:15:00 1.7 C 4.74 g/m*3 1.7 C 1.6 km/h
3178 18-01-2015 17:20:00 1.6 C 4.7 g/m*3 1.6 C 3.2 km/h
3179 18-01-2015 17:25:00 1.6 C 4.76 g/m*3 1.6 C 0 km/h
3180 18-01-2015 17:30:00 1.5 C 4.73 g/m*3 1.5 C 3.2 km/h
3181 18-01-2015 17:35:00 1.5 C 4.73 g/m*3 1.5 C 3.2 km/h
3182 18-01-2015 17:40:00 1.4 C 4.75 g/m*3 1.4 C 3.2 km/h
3183 18-01-2015 17:45:00 1.3 C 4.72 g/m*3 1.3 C 3.2 km/h
3184 18-01-2015 17:50:00 1.2 C 4.68 g/m*3 1.2 C 3.2 km/h
3185 18-01-2015 17:55:00 1.2 C 4.68 g/m*3 1.2 C 3.2 km/h
3186 18-01-2015 18:00:00 1.1 C 4.65 g/m*3 1.1 C 3.2 km/h
3187 18-01-2015 18:05:00 1 C 4.62 g/m*3 1 C 3.2 km/h
3188 18-01-2015 18:10:00 0.8 C 4.56 g/m*3 0.8 C 3.2 km/h
3189 18-01-2015 18:15:00 0.7 C 4.58 g/m*3 0.7 C 4.8 km/h
3190 18-01-2015 18:20:00 0.6 C 4.54 g/m*3 0.6 C 4.8 km/h
3191 18-01-2015 18:25:00 0.6 C 4.54 g/m*3 0.6 C 3.2 km/h
3192 18-01-2015 18:30:00 0.4 C 4.48 g/m*3 0.4 C 3.2 km/h
3193 18-01-2015 18:35:00 0.3 C 4.45 g/m*3 0.3 C 3.2 km/h
3194 18-01-2015 18:40:00 0.3 C 4.5 g/m*3 0.3 C 1.6 km/h
3195 18-01-2015 18:45:00 0.2 C 4.47 g/m*3 0.2 C 4.8 km/h
3196 18-01-2015 18:50:00 0.2 C 4.47 g/m*3 0.2 C 1.6 km/h
3197 18-01-2015 18:55:00 0.1 C 4.44 g/m*3 0.1 C 3.2 km/h
3198 18-01-2015 19:00:00 0.1 C 4.49 g/m*3 0.1 C 3.2 km/h
3199 18-01-2015 19:05:00 0 C 4.41 g/m*3 0 C 4.8 km/h
3200 18-01-2015 19:10:00 -0.1 C 4.38 g/m*3 -0.1 C 4.8 km/h
Sensor: Nr:Datum:Temp:Abs-Feuchte:Windchill:Wind:
Aussen-T/F 3201 18-01-2015 19:15:00 -0.1 C 4.38 g/m*3 -0.1 C 3.2 km/h
3202 18-01-2015 19:20:00 -0.1 C 4.38 g/m*3 -0.1 C 3.2 km/h
3203 18-01-2015 19:25:00 -0.2 C 4.35 g/m*3 -0.2 C 3.2 km/h
3204 18-01-2015 19:30:00 -0.2 C 4.35 g/m*3 -0.2 C 4.8 km/h
3205 18-01-2015 19:35:00 -0.2 C 4.35 g/m*3 -0.2 C 4.8 km/h
3206 18-01-2015 19:40:00 -0.2 C 4.4 g/m*3 -0.2 C 3.2 km/h
3207 18-01-2015 19:45:00 -0.2 C 4.35 g/m*3 -0.2 C 1.6 km/h
3208 18-01-2015 19:50:00 -0.2 C 4.35 g/m*3 -0.2 C 0 km/h
3209 18-01-2015 19:55:00 -0.2 C 4.35 g/m*3 -0.2 C 0 km/h
3210 18-01-2015 20:00:00 -0.3 C 4.37 g/m*3 -0.3 C 0 km/h
3211 18-01-2015 20:05:00 -0.3 C 4.37 g/m*3 -0.3 C 4.8 km/h
3212 18-01-2015 20:10:00 -0.3 C 4.32 g/m*3 -0.3 C 1.6 km/h
3213 18-01-2015 20:15:00 -0.4 C 4.29 g/m*3 -0.4 C 1.6 km/h
3214 18-01-2015 20:20:00 -0.5 C 4.26 g/m*3 -0.5 C 3.2 km/h
3215 18-01-2015 20:25:00 -0.6 C 4.23 g/m*3 -0.6 C 3.2 km/h
3216 18-01-2015 20:30:00 -0.7 C 4.25 g/m*3 -0.7 C 0 km/h
3217 18-01-2015 20:35:00 -0.7 C 4.25 g/m*3 -0.7 C 1.6 km/h
3218 18-01-2015 20:40:00 -0.8 C 4.22 g/m*3 -0.8 C 1.6 km/h
3219 18-01-2015 20:45:00 -0.8 C 4.22 g/m*3 -0.8 C 1.6 km/h
3220 18-01-2015 20:50:00 -0.8 C 4.26 g/m*3